FR3127 / EI-EPD 7700 Squawk Report (23rd of January, 2020)

Aircraft B738 Reg No. EI-EPD Age 8 years old
Model 737 Jet engines 2 First flight 08-03-11
Registered 03-11 Rollout 18-02-11 Delivered 30-03-11
Construction No. 40310 Line No. 3578 Series 8AS
ADSHEX 4CA912 Airline name Ryanair Owner N/A
Airfield based Dublin~Co Dublin~EI First tracked 2017-07-13 07:09:00

Flight history for EI-EPD

Route Flight No Date Playback
Riga Intl (RIX) - Barcelona–El Prat (BCN) FR4483 2020-02-17 14:40:00
Barcelona–El Prat (BCN) - Riga Intl (RIX) FR4482 2020-02-17 09:48:00
Porto (OPO) - Barcelona–El Prat (BCN) FR4596 2020-02-17 06:32:00
Barcelona–El Prat (BCN) - Porto (OPO) FR4597 2020-02-16 20:34:00
Stansted (STN) - Barcelona–El Prat (BCN) FR9014 2020-02-16 18:46:00
Salzburg (SZG) - Stansted (STN) FR305 2020-02-16 15:57:00
Stansted (STN) - Salzburg (SZG) FR304 2020-02-16 10:55:00
Venezia Tessera (VCE) - Stansted (STN) FR799 2020-02-16 08:24:00
Stansted (STN) - Venezia Tessera (VCE) FR798 2020-02-15 21:39:00
Genova Sestri (GOA) - Stansted (STN) FR973 2020-02-15 17:59:00
Stansted (STN) - Genova Sestri (GOA) FR972 2020-02-15 15:47:00
Tavaux (DLE) - Stansted (STN) FR7525 2020-02-15 13:13:00
Menara (RAK) - Niederrhein (NRN) FR8637 2020-02-15 11:16:00
Dublin (DUB) - Stansted (STN) FR202 2020-02-15 09:23:00
Tille (BVA) - Dublin (DUB) FR29 2020-02-14 22:52:00
Dublin (DUB) - Tille (BVA) FR26 2020-02-14 20:48:00
Billund (BLL) - Dublin (DUB) FR6743 2020-02-14 19:00:00
Dublin (DUB) - Billund (BLL) FR6742 2020-02-14 16:06:00
Berlin Schonefeld (SXF) - Dublin (DUB) FR8557 2020-02-14 14:19:00
Dublin (DUB) - Berlin Schonefeld (SXF) FR8556 2020-02-14 10:23:00
Time Lat Lon Altitude Heading Speed Vertical Rate
2020-01-23 14:18:45 GMT 53.360287 -2.267794 0 320 11 0
2020-01-23 14:18:37 GMT 53.359966 -2.267441 0 340 12 0
2020-01-23 14:18:28 GMT 53.359486 -2.267323 0 33 12 0
2020-01-23 14:18:19 GMT 53.359142 -2.267990 0 59 18 0
2020-01-23 14:18:09 GMT 53.358604 -2.269262 0 53 21 0
2020-01-23 14:17:59 GMT 53.358055 -2.270678 0 56 26 0
2020-01-23 14:17:49 GMT 53.357277 -2.272326 0 50 27 0
2020-01-23 14:17:39 GMT 53.356556 -2.273836 0 50 25 0
2020-01-23 14:17:28 GMT 53.355858 -2.275249 0 50 22 0
2020-01-23 14:17:18 GMT 53.355263 -2.276505 0 50 18 0
2020-01-23 14:17:08 GMT 53.354767 -2.277502 0 56 15 0
2020-01-23 14:16:58 GMT 53.354591 -2.278431 0 90 13 0
2020-01-23 14:16:48 GMT 53.354485 -2.279310 0 50 13 0
2020-01-23 14:16:39 GMT 53.353962 -2.280188 0 45 18 0
2020-01-23 14:16:23 GMT 53.353214 -2.281390 0 45 12 0
2020-01-23 14:16:18 GMT 53.353008 -2.281723 0 42 10 0
2020-01-23 14:15:29 GMT 53.353432 -2.275661 0 233 47 0
2020-01-23 14:15:17 GMT 53.356312 -2.269646 -250 231 122 -192
2020-01-23 14:15:07 GMT 53.360039 -2.261891 -200 231 144 -320
2020-01-23 14:14:57 GMT 53.364182 -2.253328 -50 231 144 -896
2020-01-23 14:14:54 GMT 53.365631 -2.250392 0 231 144 -832
2020-01-23 14:14:50 GMT 53.367233 -2.247096 25 231 145 -704
2020-01-23 14:14:46 GMT 53.370346 -2.240740 75 231 142 -832
2020-01-23 14:14:43 GMT 53.370346 -2.240740 150 231 142 -832
2020-01-23 14:14:37 GMT 53.372372 -2.236445 200 232 143 -768
2020-01-23 14:14:30 GMT 53.375816 -2.229336 300 232 145 -832
2020-01-23 14:14:22 GMT 53.378815 -2.223083 425 231 147 -896
2020-01-23 14:14:19 GMT 53.381927 -2.216649 525 232 146 -640
2020-01-23 14:14:15 GMT 53.381927 -2.216649 550 232 147 -832
2020-01-23 14:14:12 GMT 53.383163 -2.214059 575 232 147 -896
2020-01-23 14:14:09 GMT 53.384491 -2.211312 600 232 147 -832
2020-01-23 14:14:06 GMT 53.385910 -2.208330 650 232 147 -768
2020-01-23 14:14:02 GMT 53.387409 -2.205263 700 231 147 -832
2020-01-23 14:13:58 GMT 53.388931 -2.202053 725 231 147 -832
2020-01-23 14:13:55 GMT 53.390259 -2.199384 775 232 146 -832
2020-01-23 14:13:52 GMT 53.393051 -2.193577 850 232 146 -768
2020-01-23 14:13:46 GMT 53.394562 -2.190360 925 232 146 -768
2020-01-23 14:13:40 GMT 53.398224 -2.182826 1,000 232 148 -832
2020-01-23 14:13:37 GMT 53.398224 -2.182826 1,025 232 150 -832
2020-01-23 14:13:33 GMT 53.399734 -2.179688 1,075 232 152 -960
2020-01-23 14:13:30 GMT 53.401474 -2.176078 1,150 231 154 -896
2020-01-23 14:13:27 GMT 53.402538 -2.173839 1,175 231 156 -832
2020-01-23 14:13:24 GMT 53.404121 -2.170688 1,225 231 159 -768
2020-01-23 14:13:18 GMT 53.408031 -2.162529 1,325 232 160 -832
2020-01-23 14:13:15 GMT 53.408031 -2.162529 1,375 232 163 -896
2020-01-23 14:13:12 GMT 53.409760 -2.158970 1,400 232 164 -768
2020-01-23 14:13:07 GMT 53.412037 -2.154209 1,450 232 167 -832
2020-01-23 14:13:03 GMT 53.414410 -2.149281 1,550 231 166 -1024
2020-01-23 14:13:00 GMT 53.415340 -2.147342 1,600 232 165 -1024
2020-01-23 14:12:57 GMT 53.416763 -2.144374 1,625 233 165 -832
2020-01-23 14:12:54 GMT 53.417999 -2.141706 1,675 234 165 -832
2020-01-23 14:12:51 GMT 53.419392 -2.138618 1,975 232 163 -832
2020-01-23 14:12:48 GMT 53.420834 -2.135387 1,775 233 164 -960
2020-01-23 14:12:44 GMT 53.422928 -2.130701 1,825 232 163 -896
2020-01-23 14:12:39 GMT 53.425209 -2.125854 1,900 233 163 -896
2020-01-23 14:12:36 GMT 53.426376 -2.123422 2,025 236 161 -1024
2020-01-23 14:12:33 GMT 53.427723 -2.120361 1,975 236 162 -960
2020-01-23 14:12:30 GMT 53.428841 -2.117776 2,050 238 160 -1088
2020-01-23 14:12:27 GMT 53.430054 -2.114626 2,075 239 160 -1024
2020-01-23 14:12:24 GMT 53.431458 -2.110709 2,125 241 158 -832
2020-01-23 14:12:21 GMT 53.433517 -2.103333 2,175 251 156 -512
2020-01-23 14:12:17 GMT 53.433517 -2.103333 2,200 259 156 -640
2020-01-23 14:12:13 GMT 53.434380 -2.095400 2,250 265 157 -512
2020-01-23 14:12:10 GMT 53.434708 -2.090463 2,275 265 158 -384
2020-01-23 14:12:07 GMT 53.434708 -2.090463 2,300 265 160 -512
2020-01-23 14:12:03 GMT 53.434940 -2.085706 2,300 265 161 -512
2020-01-23 14:12:00 GMT 53.435173 -2.082071 2,350 265 165 -448
2020-01-23 14:11:56 GMT 53.435406 -2.077547 2,375 265 168 -448
2020-01-23 14:11:53 GMT 53.435638 -2.073346 2,400 265 169 -512
2020-01-23 14:11:50 GMT 53.435871 -2.068742 2,400 265 170 -512
2020-01-23 14:11:47 GMT 53.436058 -2.065430 2,425 265 172 -512
2020-01-23 14:11:44 GMT 53.436241 -2.061795 2,475 265 175 -704
2020-01-23 14:11:41 GMT 53.436539 -2.056562 2,500 265 176 -768
2020-01-23 14:11:38 GMT 53.437042 -2.048244 2,675 265 178 -832
2020-01-23 14:11:34 GMT 53.437042 -2.048244 2,600 264 180 -896
2020-01-23 14:11:30 GMT 53.437408 -2.042594 2,625 264 180 -896
2020-01-23 14:11:26 GMT 53.437778 -2.036510 2,725 264 181 -1024
2020-01-23 14:11:23 GMT 53.438061 -2.032632 2,825 264 181 -1152
2020-01-23 14:11:20 GMT 53.438385 -2.028512 2,825 263 180 -1344
2020-01-23 14:11:17 GMT 53.439011 -2.020229 2,925 263 180 -1344
2020-01-23 14:11:14 GMT 53.439011 -2.020229 3,100 265 178 -1344
2020-01-23 14:11:11 GMT 53.439316 -2.015830 3,050 265 178 -1344
2020-01-23 14:11:08 GMT 53.439503 -2.011791 3,100 270 177 -1408
2020-01-23 14:11:05 GMT 53.439468 -2.008615 3,150 275 176 -1216
2020-01-23 14:11:02 GMT 53.438522 -1.999996 3,275 289 175 -1024
2020-01-23 14:10:56 GMT 53.436150 -1.992403 3,350 307 177 -448
2020-01-23 14:10:50 GMT 53.434662 -1.989310 3,375 316 178 -512
2020-01-23 14:10:47 GMT 53.432785 -1.986407 3,425 326 181 -704
2020-01-23 14:10:44 GMT 53.430798 -1.984163 3,450 333 184 -448
2020-01-23 14:10:41 GMT 53.428795 -1.982386 3,450 336 185 -256
2020-01-23 14:10:38 GMT 53.425629 -1.980447 3,475 346 190 -448
2020-01-23 14:10:35 GMT 53.423580 -1.979720 3,500 21 205 -896
2020-01-23 14:10:32 GMT 53.420242 -1.979265 3,550 0 197 -640
2020-01-23 14:10:28 GMT 53.417770 -1.979501 3,575 7 199 -704
2020-01-23 14:10:25 GMT 53.414131 -1.980690 3,625 21 205 -896
2020-01-23 14:10:21 GMT 53.411106 -1.982386 3,675 25 207 -960
2020-01-23 14:10:18 GMT 53.407661 -1.985294 3,700 28 208 -1024
2020-01-23 14:10:14 GMT 53.404682 -1.988121 3,825 30 210 -1088
2020-01-23 14:10:11 GMT 53.402252 -1.990487 3,850 30 211 -1088
2020-01-23 14:10:07 GMT 53.399235 -1.993453 3,900 30 211 -1088
2020-01-23 14:10:04 GMT 53.393787 -1.998704 4,000 29 211 -1152
2020-01-23 14:10:01 GMT 53.390533 -2.001709 4,075 29 212 -1216
2020-01-23 14:09:57 GMT 53.390533 -2.001709 4,150 29 213 -1152
2020-01-23 14:09:54 GMT 53.385361 -2.006653 4,225 29 213 -1088
2020-01-23 14:09:51 GMT 53.385361 -2.006653 4,225 29 213 -1024
2020-01-23 14:09:48 GMT 53.382195 -2.009529 4,275 29 215 -896
2020-01-23 14:09:45 GMT 53.379959 -2.011629 4,300 29 218 -384
2020-01-23 14:09:41 GMT 53.376701 -2.014618 4,325 28 221 -576
2020-01-23 14:09:38 GMT 53.374050 -2.017041 4,350 28 221 -640
2020-01-23 14:09:34 GMT 53.370529 -2.020307 4,450 28 223 -832
2020-01-23 14:09:31 GMT 53.366879 -2.023585 4,450 28 227 -576
2020-01-23 14:09:26 GMT 53.362656 -2.027291 4,500 27 230 -256
2020-01-23 14:09:23 GMT 53.360085 -2.029643 4,550 27 235 -640
2020-01-23 14:09:20 GMT 53.357620 -2.031764 4,525 27 237 -640
2020-01-23 14:09:17 GMT 53.354172 -2.034813 4,550 27 235 -640
2020-01-23 14:09:14 GMT 53.351425 -2.037237 4,575 27 237 -640
2020-01-23 14:09:11 GMT 53.348236 -2.040004 4,625 27 238 -704
2020-01-23 14:09:08 GMT 53.345840 -2.042003 4,650 27 239 -704
2020-01-23 14:09:05 GMT 53.342442 -2.044992 4,675 27 240 -640
2020-01-23 14:09:01 GMT 53.334526 -2.052666 4,725 31 243 -448
2020-01-23 14:08:57 GMT 53.334526 -2.052666 4,750 36 246 -512
2020-01-23 14:08:54 GMT 53.329639 -2.059209 4,825 41 249 -576
2020-01-23 14:08:48 GMT 53.327030 -2.063168 4,825 42 250 -576
2020-01-23 14:08:45 GMT 53.324005 -2.067772 4,875 42 252 -576
2020-01-23 14:08:42 GMT 53.319118 -2.075204 4,900 42 254 -576
2020-01-23 14:08:39 GMT 53.319118 -2.075204 4,925 42 256 -576
2020-01-23 14:08:36 GMT 53.315861 -2.080132 4,975 42 257 -640
2020-01-23 14:08:33 GMT 53.313995 -2.082929 5,000 42 259 -640
2020-01-23 14:08:30 GMT 53.310974 -2.087559 5,025 42 260 -896
2020-01-23 14:08:27 GMT 53.307991 -2.092007 5,075 42 260 -1024
2020-01-23 14:08:24 GMT 53.305664 -2.095564 5,150 42 261 -1088
2020-01-23 14:08:21 GMT 53.303558 -2.098781 5,175 42 261 -1152
2020-01-23 14:08:18 GMT 53.300354 -2.103725 5,350 42 262 -1152
2020-01-23 14:08:15 GMT 53.297611 -2.107840 5,350 42 263 -1280
2020-01-23 14:08:12 GMT 53.295273 -2.111494 5,375 42 263 -1408
2020-01-23 14:08:09 GMT 53.291557 -2.117130 5,425 42 263 -1472
2020-01-23 14:08:05 GMT 53.288952 -2.121088 5,525 42 261 -1792
2020-01-23 14:08:02 GMT 53.282455 -2.131112 5,725 42 258 -2048
2020-01-23 14:07:58 GMT 53.282455 -2.131112 5,825 42 258 -1920
2020-01-23 14:07:54 GMT 53.279297 -2.135978 5,925 44 257 -1408
2020-01-23 14:07:51 GMT 53.276596 -2.140215 5,950 44 257 -1152
2020-01-23 14:07:48 GMT 53.273823 -2.144919 5,975 45 257 -768
2020-01-23 14:07:45 GMT 53.271469 -2.149397 6,000 52 258 0
2020-01-23 14:07:39 GMT 53.267353 -2.159217 6,000 62 259 64
2020-01-23 14:07:36 GMT 53.265816 -2.164307 6,000 67 261 64
2020-01-23 14:07:32 GMT 53.263626 -2.172627 5,975 67 262 64
2020-01-23 14:07:29 GMT 53.262276 -2.178040 6,000 67 260 0
2020-01-23 14:07:26 GMT 53.261124 -2.182748 6,000 67 261 0
2020-01-23 14:07:23 GMT 53.259933 -2.187535 6,000 67 261 64
2020-01-23 14:07:20 GMT 53.257809 -2.195892 5,975 67 263 64
2020-01-23 14:07:17 GMT 53.255295 -2.205990 5,975 67 264 0
2020-01-23 14:07:14 GMT 53.255295 -2.205990 5,975 67 267 0
2020-01-23 14:07:11 GMT 53.254086 -2.210837 5,975 67 271 -64
2020-01-23 14:07:08 GMT 53.252640 -2.216492 5,975 67 272 -64
2020-01-23 14:07:05 GMT 53.251099 -2.222691 5,975 67 276 -64
2020-01-23 14:07:02 GMT 53.249802 -2.227882 5,975 67 277 0
2020-01-23 14:06:59 GMT 53.248077 -2.234855 5,975 67 282 0
2020-01-23 14:06:55 GMT 53.246246 -2.241996 5,975 67 286 0
2020-01-23 14:06:52 GMT 53.245010 -2.247096 5,975 67 288 0
2020-01-23 14:06:49 GMT 53.243237 -2.254055 5,975 67 290 -64
2020-01-23 14:06:46 GMT 53.239559 -2.268838 5,975 67 297 -64
2020-01-23 14:06:43 GMT 53.239559 -2.268838 5,975 67 299 -128
2020-01-23 14:06:39 GMT 53.237652 -2.276432 6,000 67 303 -320
2020-01-23 14:06:36 GMT 53.236580 -2.280794 6,025 67 306 -640
2020-01-23 14:06:33 GMT 53.234573 -2.288845 6,050 67 307 -960
2020-01-23 14:06:30 GMT 53.233200 -2.294259 6,100 67 308 -1088
2020-01-23 14:06:27 GMT 53.231274 -2.302120 6,200 67 312 -1088
2020-01-23 14:06:21 GMT 53.228294 -2.313834 6,225 67 312 -1088
2020-01-23 14:06:18 GMT 53.226292 -2.321670 6,300 67 315 -1088
2020-01-23 14:06:15 GMT 53.224525 -2.328698 6,375 66 316 -960
2020-01-23 14:06:12 GMT 53.221069 -2.342128 6,475 66 316 -896
2020-01-23 14:06:09 GMT 53.221069 -2.342128 6,500 66 315 -896
2020-01-23 14:06:06 GMT 53.218845 -2.350913 6,550 66 315 -896
2020-01-23 14:06:03 GMT 53.217361 -2.356489 6,600 66 316 -896
2020-01-23 14:06:00 GMT 53.215942 -2.361982 6,625 66 316 -896
2020-01-23 14:05:57 GMT 53.214283 -2.368281 6,650 66 316 -896
2020-01-23 14:05:54 GMT 53.212093 -2.376682 6,725 66 316 -896
2020-01-23 14:05:51 GMT 53.210743 -2.381852 6,800 66 317 -896
2020-01-23 14:05:48 GMT 53.208370 -2.390819 6,800 66 318 -960
2020-01-23 14:05:42 GMT 53.203171 -2.410636 6,975 66 321 -1792
2020-01-23 14:05:39 GMT 53.203171 -2.410636 7,075 66 321 -2176
2020-01-23 14:05:36 GMT 53.201855 -2.415700 7,175 66 320 -2432
2020-01-23 14:05:33 GMT 53.199554 -2.424290 7,425 65 318 -2496
2020-01-23 14:05:29 GMT 53.197128 -2.433550 7,375 65 318 -2560
2020-01-23 14:05:26 GMT 53.195618 -2.439043 7,525 65 318 -2112
2020-01-23 14:05:23 GMT 53.194199 -2.444458 7,600 66 319 -1600
2020-01-23 14:05:20 GMT 53.192047 -2.452462 7,700 65 320 -1344
2020-01-23 14:05:17 GMT 53.190308 -2.458918 7,825 65 321 -2048
2020-01-23 14:05:14 GMT 53.188522 -2.465489 7,825 65 321 -1920
2020-01-23 14:05:11 GMT 53.184998 -2.478673 8,000 66 321 -1984
2020-01-23 14:05:08 GMT 53.183140 -2.485738 8,075 66 321 -2112
2020-01-23 14:05:05 GMT 53.180511 -2.495623 8,200 66 321 -1984
2020-01-23 14:05:02 GMT 53.180511 -2.495623 8,300 66 321 -1856
2020-01-23 14:04:59 GMT 53.179413 -2.499939 8,400 66 322 -1792
2020-01-23 14:04:56 GMT 53.177227 -2.508195 8,450 66 323 -1728
2020-01-23 14:04:53 GMT 53.176254 -2.512024 8,550 66 324 -1664
2020-01-23 14:04:50 GMT 53.174057 -2.520342 8,625 66 324 -1600
2020-01-23 14:04:47 GMT 53.172226 -2.527405 8,675 66 325 -1600
2020-01-23 14:04:44 GMT 53.170670 -2.533526 8,725 66 326 -1664
2020-01-23 14:04:41 GMT 53.169113 -2.539490 8,825 66 328 -1664
2020-01-23 14:04:38 GMT 53.167030 -2.547616 8,975 66 329 -1664
2020-01-23 14:04:35 GMT 53.164890 -2.555775 9,050 66 330 -1664
2020-01-23 14:04:28 GMT 53.160839 -2.571205 9,200 66 332 -1792
2020-01-23 14:04:25 GMT 53.156845 -2.586496 9,350 66 333 -1792
2020-01-23 14:04:22 GMT 53.156845 -2.586496 9,400 66 333 -1856
2020-01-23 14:04:19 GMT 53.155674 -2.591077 9,525 66 334 -1920
2020-01-23 14:04:16 GMT 53.153530 -2.599155 9,575 66 334 -1984
2020-01-23 14:04:13 GMT 53.151352 -2.607370 11,525 66 335 -1920
2020-01-23 14:04:10 GMT 53.149384 -2.614825 9,800 66 335 -1920
2020-01-23 14:04:07 GMT 53.148132 -2.619755 9,875 66 336 -1920
2020-01-23 14:04:04 GMT 53.146084 -2.627429 9,975 66 336 -1856
2020-01-23 14:04:01 GMT 53.144211 -2.634521 10,025 66 336 -1856
2020-01-23 14:03:58 GMT 53.142498 -2.641081 10,150 66 339 -1984
2020-01-23 14:03:55 GMT 53.138077 -2.657907 10,300 66 338 -1984
2020-01-23 14:03:52 GMT 53.138077 -2.657907 10,375 66 338 -1984
2020-01-23 14:03:49 GMT 53.136261 -2.664750 10,500 66 339 -1984
2020-01-23 14:03:46 GMT 53.134689 -2.670698 10,550 66 339 -1920
2020-01-23 14:03:43 GMT 53.132862 -2.677675 10,675 66 340 -1792
2020-01-23 14:03:40 GMT 53.130661 -2.686000 10,925 66 343 -2048
2020-01-23 14:03:37 GMT 53.129059 -2.692121 10,800 66 341 -1728
2020-01-23 14:03:34 GMT 53.127411 -2.698321 11,575 66 344 -2112
2020-01-23 14:03:31 GMT 53.125553 -2.705383 10,975 66 342 -1920
2020-01-23 14:03:28 GMT 53.123318 -2.713704 11,125 66 344 -2176
2020-01-23 14:03:25 GMT 53.118896 -2.730495 11,300 66 344 -2176
2020-01-23 14:03:22 GMT 53.117500 -2.735676 14,150 65 327 -768
2020-01-23 14:03:16 GMT 53.114136 -2.748308 11,600 66 344 -2112
2020-01-23 14:03:10 GMT 53.111355 -2.758699 11,925 66 344 -2496
2020-01-23 14:03:07 GMT 53.109726 -2.764839 11,875 66 344 -2496
2020-01-23 14:03:04 GMT 53.107353 -2.773886 12,050 66 343 -2816
2020-01-23 14:03:01 GMT 53.105347 -2.781189 12,225 66 341 -3008
2020-01-23 14:02:57 GMT 53.101639 -2.795157 12,475 66 338 -3264
2020-01-23 14:02:51 GMT 53.099670 -2.802483 12,600 65 337 -3264
2020-01-23 14:02:48 GMT 53.095139 -2.819290 12,925 65 335 -1984
2020-01-23 14:02:42 GMT 53.092457 -2.829136 13,050 65 335 -1472
2020-01-23 14:02:39 GMT 53.092457 -2.829136 13,100 65 335 -1152
2020-01-23 14:02:36 GMT 53.089939 -2.838475 13,275 65 337 -960
2020-01-23 14:02:33 GMT 53.088078 -2.845302 13,200 65 337 -960
2020-01-23 14:02:30 GMT 53.086494 -2.851109 13,300 65 337 -960
2020-01-23 14:02:27 GMT 53.083740 -2.861176 13,300 65 337 -960
2020-01-23 14:02:22 GMT 53.080627 -2.872467 13,400 65 337 -960
2020-01-23 14:02:19 GMT 53.079327 -2.877241 13,425 65 337 -960
2020-01-23 14:02:16 GMT 53.076534 -2.887442 13,500 65 337 -960
2020-01-23 14:02:13 GMT 53.075272 -2.892151 13,525 65 336 -960
2020-01-23 14:02:10 GMT 53.072948 -2.900548 13,600 65 336 -960
2020-01-23 14:02:07 GMT 53.071472 -2.906036 13,625 65 336 -960
2020-01-23 14:02:04 GMT 53.066807 -2.922913 13,800 65 333 -896
2020-01-23 14:01:58 GMT 53.065842 -2.926483 13,750 65 334 -896
2020-01-23 14:01:55 GMT 53.063591 -2.934605 13,800 65 334 -896
2020-01-23 14:01:52 GMT 53.059891 -2.948227 13,925 65 330 -832
2020-01-23 14:01:49 GMT 53.057693 -2.956238 13,925 65 332 -896
2020-01-23 14:01:46 GMT 53.057693 -2.956238 13,950 65 331 -832
2020-01-23 14:01:43 GMT 53.056099 -2.962071 14,025 65 330 -832
2020-01-23 14:01:40 GMT 53.053490 -2.971566 14,050 65 329 -768
2020-01-23 14:01:37 GMT 53.051952 -2.977138 14,100 65 327 -768
2020-01-23 14:01:34 GMT 53.050232 -2.983494 14,125 65 326 -768
2020-01-23 14:01:31 GMT 53.047997 -2.991499 14,150 65 317 -640
2020-01-23 14:01:28 GMT 53.047020 -2.995030 14,175 65 323 -704
2020-01-23 14:01:25 GMT 53.044926 -3.002799 14,300 65 319 -640
2020-01-23 14:01:22 GMT 53.043045 -3.009644 14,275 65 317 -640
2020-01-23 14:01:19 GMT 53.040596 -3.018494 14,325 64 302 -1152
2020-01-23 14:01:15 GMT 53.038734 -3.025321 14,375 65 307 -768
2020-01-23 14:01:12 GMT 53.037094 -3.031235 14,375 65 307 -768
2020-01-23 14:01:09 GMT 53.034943 -3.039017 14,475 64 302 -1024
2020-01-23 14:01:06 GMT 53.033615 -3.043594 14,475 64 301 -1536
2020-01-23 14:01:03 GMT 53.031509 -3.051071 14,525 64 301 -1728
2020-01-23 14:01:00 GMT 53.029797 -3.057260 14,600 64 300 -2176
2020-01-23 14:00:57 GMT 53.027664 -3.064728 14,800 64 298 -2496
2020-01-23 14:00:54 GMT 53.026211 -3.069972 14,925 64 297 -2112
2020-01-23 14:00:51 GMT 53.022949 -3.081360 15,025 64 297 -1664
2020-01-23 14:00:48 GMT 53.022949 -3.081360 15,100 64 297 -1344
2020-01-23 14:00:45 GMT 53.020905 -3.088728 15,225 64 301 -1088
2020-01-23 14:00:42 GMT 53.019463 -3.093985 15,200 65 299 -1152
2020-01-23 14:00:39 GMT 53.017319 -3.101578 15,250 65 300 -1152
2020-01-23 14:00:36 GMT 53.015808 -3.106995 15,275 65 301 -1088
2020-01-23 14:00:33 GMT 53.011597 -3.121567 15,400 63 303 -1152
2020-01-23 14:00:30 GMT 53.010616 -3.124747 15,500 60 304 -1344
2020-01-23 14:00:24 GMT 53.007824 -3.132673 15,575 56 305 -1408
2020-01-23 14:00:21 GMT 53.006054 -3.137146 15,675 55 307 -1344
2020-01-23 14:00:17 GMT 53.002762 -3.145065 15,750 55 308 -1344
2020-01-23 14:00:14 GMT 53.000420 -3.150722 15,925 55 308 -1536
2020-01-23 14:00:11 GMT 52.997955 -3.156509 15,825 55 308 -1472
2020-01-23 14:00:08 GMT 52.992928 -3.168457 15,975 55 309 -1536
2020-01-23 14:00:05 GMT 52.992928 -3.168457 16,050 54 309 -1600
2020-01-23 14:00:02 GMT 52.990631 -3.173981 16,100 54 309 -1536
2020-01-23 13:59:59 GMT 52.988224 -3.179600 16,175 54 309 -1600
2020-01-23 13:59:56 GMT 52.985184 -3.186722 16,575 4 323 -1024
2020-01-23 13:59:53 GMT 52.980469 -3.197479 16,700 41 312 -1536
2020-01-23 13:59:47 GMT 52.977749 -3.203378 16,525 51 310 -1600
2020-01-23 13:59:44 GMT 52.975891 -3.207245 16,550 49 310 -1600
2020-01-23 13:59:41 GMT 52.971931 -3.214443 18,000 5 321 -1024
2020-01-23 13:59:38 GMT 52.968338 -3.219757 16,750 32 314 -1920
2020-01-23 13:59:35 GMT 52.964947 -3.223860 16,875 31 314 -1984
2020-01-23 13:59:32 GMT 52.961105 -3.227768 16,950 28 314 -2048
2020-01-23 13:59:27 GMT 52.953823 -3.233276 17,175 16 318 -1152
2020-01-23 13:59:24 GMT 52.949936 -3.235474 17,175 8 320 -896
2020-01-23 13:59:21 GMT 52.947678 -3.236494 17,200 13 319 -960
2020-01-23 13:59:18 GMT 52.942787 -3.238142 17,250 7 320 -896
2020-01-23 13:59:15 GMT 52.938694 -3.239083 17,325 4 322 -1024
2020-01-23 13:59:12 GMT 52.933388 -3.239947 17,350 4 322 -1024
2020-01-23 13:59:09 GMT 52.929565 -3.240509 17,475 4 323 -1024
2020-01-23 13:59:06 GMT 52.925240 -3.241124 17,475 4 323 -1024
2020-01-23 13:59:03 GMT 52.920956 -3.241752 17,500 4 323 -1024
2020-01-23 13:59:00 GMT 52.915970 -3.242416 17,550 4 324 -1024
2020-01-23 13:58:57 GMT 52.910667 -3.243164 17,700 4 325 -960
2020-01-23 13:58:54 GMT 52.906013 -3.243870 17,675 4 325 -1024
2020-01-23 13:58:51 GMT 52.902695 -3.244324 17,725 4 325 -960
2020-01-23 13:58:48 GMT 52.898026 -3.245010 17,750 4 325 -1024
2020-01-23 13:58:45 GMT 52.893444 -3.245675 17,825 4 325 -1024
2020-01-23 13:58:42 GMT 52.888870 -3.246307 17,900 4 325 -1024
2020-01-23 13:58:39 GMT 52.883343 -3.247088 17,900 4 325 -1024
2020-01-23 13:58:36 GMT 52.879852 -3.247559 17,925 4 325 -1024
2020-01-23 13:58:33 GMT 52.874451 -3.248291 17,975 4 325 -1024
2020-01-23 13:58:30 GMT 52.865341 -3.249588 18,150 4 325 -1024
2020-01-23 13:58:27 GMT 52.861649 -3.250070 18,175 4 325 -1024
2020-01-23 13:58:21 GMT 52.856155 -3.250776 18,200 4 325 -1024
2020-01-23 13:58:18 GMT 52.853085 -3.251247 18,375 4 325 -1024
2020-01-23 13:58:15 GMT 52.844006 -3.252424 18,400 4 325 -1024
2020-01-23 13:58:12 GMT 52.840237 -3.252973 18,450 4 325 -1024
2020-01-23 13:58:09 GMT 52.835587 -3.253632 18,425 4 325 -1024
2020-01-23 13:58:06 GMT 52.830551 -3.254386 18,475 4 325 -1024
2020-01-23 13:58:03 GMT 52.830551 -3.254386 18,550 4 325 -1024
2020-01-23 13:58:00 GMT 52.827347 -3.254852 18,625 5 325 -1024
2020-01-23 13:57:57 GMT 52.820984 -3.255768 18,625 5 325 -1024
2020-01-23 13:57:54 GMT 52.817238 -3.256269 18,700 5 325 -1024
2020-01-23 13:57:51 GMT 52.811886 -3.257132 18,850 5 325 -1024
2020-01-23 13:57:48 GMT 52.807938 -3.257675 18,775 5 325 -1024
2020-01-23 13:57:44 GMT 52.802078 -3.258591 18,825 5 325 -1024
2020-01-23 13:57:41 GMT 52.792969 -3.260040 18,925 5 324 -1024
2020-01-23 13:57:38 GMT 52.792969 -3.260040 18,975 5 324 -1024
2020-01-23 13:57:35 GMT 52.788280 -3.260821 19,000 5 324 -1024
2020-01-23 13:57:32 GMT 52.784821 -3.261337 19,050 5 325 -960
2020-01-23 13:57:29 GMT 52.779530 -3.262233 19,250 5 326 -960
2020-01-23 13:57:26 GMT 52.775299 -3.262863 19,150 5 325 -960
2020-01-23 13:57:23 GMT 52.770447 -3.263626 19,200 5 325 -960
2020-01-23 13:57:19 GMT 52.764400 -3.264587 19,300 5 326 -896
2020-01-23 13:57:16 GMT 52.755753 -3.265915 19,375 5 327 -960
2020-01-23 13:57:10 GMT 52.751461 -3.266549 19,375 5 327 -960
2020-01-23 13:57:07 GMT 52.741264 -3.268119 19,475 5 329 -960
2020-01-23 13:57:04 GMT 52.741264 -3.268119 19,650 5 334 -1536
2020-01-23 13:57:01 GMT 52.736710 -3.268814 19,575 5 334 -1792
2020-01-23 13:56:58 GMT 52.732819 -3.269424 19,875 5 334 -1536
2020-01-23 13:56:55 GMT 52.727875 -3.270111 19,650 5 333 -1280
2020-01-23 13:56:52 GMT 52.723251 -3.270874 19,675 5 333 -1408
2020-01-23 13:56:49 GMT 52.718781 -3.271572 19,800 5 333 -1600
2020-01-23 13:56:46 GMT 52.709236 -3.273063 19,925 5 334 -1536
2020-01-23 13:56:43 GMT 52.709236 -3.273063 19,975 5 334 -1664
2020-01-23 13:56:40 GMT 52.705627 -3.273697 20,050 5 334 -1792
2020-01-23 13:56:37 GMT 52.701229 -3.274397 20,100 5 334 -1792
2020-01-23 13:56:34 GMT 52.696342 -3.275181 20,225 5 335 -1536
2020-01-23 13:56:31 GMT 52.692059 -3.275888 20,300 5 335 -1536
2020-01-23 13:56:28 GMT 52.686081 -3.276901 20,375 5 335 -1472
2020-01-23 13:56:25 GMT 52.677704 -3.278275 20,475 5 336 -1472
2020-01-23 13:56:19 GMT 52.668365 -3.279811 20,625 5 337 -1536
2020-01-23 13:56:16 GMT 52.668365 -3.279811 20,675 5 337 -1536
2020-01-23 13:56:13 GMT 52.662918 -3.280753 20,775 5 338 -1600
2020-01-23 13:56:09 GMT 52.658169 -3.281538 20,850 12 342 -1792
2020-01-23 13:56:06 GMT 52.653328 -3.282401 20,875 6 339 -1600
2020-01-23 13:56:03 GMT 52.648300 -3.283264 21,000 6 340 -1472
2020-01-23 13:56:00 GMT 52.637451 -3.285304 21,125 6 341 -1472
2020-01-23 13:55:57 GMT 52.637451 -3.285304 21,150 8 341 -1664
2020-01-23 13:55:54 GMT 52.635078 -3.285932 21,475 14 342 -1600
2020-01-23 13:55:51 GMT 52.629044 -3.287811 21,325 15 342 -1472
2020-01-23 13:55:45 GMT 52.618786 -3.292759 21,450 17 344 -1024
2020-01-23 13:55:42 GMT 52.615852 -3.294329 21,500 16 346 -1152
2020-01-23 13:55:39 GMT 52.610222 -3.297076 21,550 15 346 -1408
2020-01-23 13:55:36 GMT 52.598557 -3.300476 21,800 7 344 -3264
2020-01-23 13:55:32 GMT 52.598557 -3.300476 21,950 3 341 -3456
2020-01-23 13:55:29 GMT 52.595444 -3.300781 22,175 1 339 -3264
2020-01-23 13:55:26 GMT 52.590683 -3.301086 22,775 0 335 -1536
2020-01-23 13:55:23 GMT 52.585281 -3.301239 22,325 0 336 -2816
2020-01-23 13:55:20 GMT 52.581078 -3.301392 22,550 0 335 -2368
2020-01-23 13:55:17 GMT 52.576889 -3.301470 22,600 0 335 -2176
2020-01-23 13:55:14 GMT 52.572605 -3.301549 22,650 0 335 -1792
2020-01-23 13:55:11 GMT 52.563217 -3.301773 22,800 0 335 -1536
2020-01-23 13:55:05 GMT 52.553940 -3.302019 23,025 0 336 -1536
2020-01-23 13:55:02 GMT 52.553940 -3.302019 23,000 0 336 -1536
2020-01-23 13:54:59 GMT 52.548935 -3.302078 23,100 0 337 -1536
2020-01-23 13:54:56 GMT 52.544128 -3.302231 23,175 0 337 -1472
2020-01-23 13:54:53 GMT 52.539505 -3.302307 23,300 0 338 -1472
2020-01-23 13:54:50 GMT 52.535084 -3.302412 23,425 0 339 -1472
2020-01-23 13:54:47 GMT 52.525085 -3.302612 23,450 0 339 -1472
2020-01-23 13:54:44 GMT 52.525085 -3.302612 23,525 0 341 -1536
2020-01-23 13:54:41 GMT 52.520416 -3.302765 23,575 0 340 -1536
2020-01-23 13:54:38 GMT 52.515060 -3.302841 23,625 0 341 -1536
2020-01-23 13:54:35 GMT 52.510803 -3.302917 23,725 0 341 -1536
2020-01-23 13:54:31 GMT 52.500183 -3.303070 23,825 0 342 -1600
2020-01-23 13:54:25 GMT 52.489700 -3.303299 24,000 0 343 -1536
2020-01-23 13:54:22 GMT 52.489700 -3.303299 24,050 0 343 -1472
2020-01-23 13:54:19 GMT 52.485718 -3.303375 24,150 0 344 -1408
2020-01-23 13:54:16 GMT 52.476570 -3.303510 24,325 0 346 -1344
2020-01-23 13:54:13 GMT 52.476570 -3.303510 24,225 0 346 -1344
2020-01-23 13:54:10 GMT 52.473076 -3.303510 24,300 0 346 -1408
2020-01-23 13:54:07 GMT 52.466187 -3.303589 24,350 0 347 -1536
2020-01-23 13:54:04 GMT 52.461578 -3.303667 24,475 0 347 -1600
2020-01-23 13:54:01 GMT 52.457855 -3.303667 24,675 0 348 -1600
2020-01-23 13:53:58 GMT 52.452347 -3.303680 24,625 0 348 -1600
2020-01-23 13:53:55 GMT 52.441360 -3.303680 24,725 0 349 -1600
2020-01-23 13:53:52 GMT 52.441360 -3.303680 24,800 0 349 -1600
2020-01-23 13:53:49 GMT 52.437057 -3.303680 24,850 0 350 -1664
2020-01-23 13:53:46 GMT 52.433075 -3.303680 24,975 0 351 -1664
2020-01-23 13:53:43 GMT 52.427315 -3.303667 25,000 0 350 -1664
2020-01-23 13:53:40 GMT 52.423824 -3.303667 25,100 0 351 -1664
2020-01-23 13:53:37 GMT 52.419216 -3.303667 25,175 0 351 -1664
2020-01-23 13:53:34 GMT 52.412888 -3.303680 25,225 0 351 -1664
2020-01-23 13:53:31 GMT 52.403824 -3.303680 25,400 0 352 -1664
2020-01-23 13:53:28 GMT 52.398239 -3.303680 25,475 0 352 -1664
2020-01-23 13:53:25 GMT 52.398239 -3.303680 26,675 0 358 -1664
2020-01-23 13:53:19 GMT 52.389084 -3.303680 25,675 0 354 -1664
2020-01-23 13:53:16 GMT 52.384827 -3.303680 25,775 0 354 -1664
2020-01-23 13:53:13 GMT 52.380856 -3.303746 25,825 0 354 -1664
2020-01-23 13:53:10 GMT 52.373409 -3.303667 25,900 0 354 -1664
2020-01-23 13:53:07 GMT 52.364410 -3.303680 26,150 0 356 -1600
2020-01-23 13:53:04 GMT 52.364410 -3.303680 26,100 0 355 -1600
2020-01-23 13:53:01 GMT 52.359116 -3.303667 26,475 0 359 -1664
2020-01-23 13:52:58 GMT 52.354340 -3.303680 26,250 0 356 -1600
2020-01-23 13:52:55 GMT 52.349945 -3.303604 26,325 0 356 -1600
2020-01-23 13:52:52 GMT 52.344269 -3.303604 26,425 0 357 -1664
2020-01-23 13:52:48 GMT 52.333694 -3.303528 26,650 0 358 -1664
2020-01-23 13:52:45 GMT 52.333694 -3.303528 26,625 0 358 -1664
2020-01-23 13:52:42 GMT 52.324203 -3.303353 26,925 0 359 -1600
2020-01-23 13:52:39 GMT 52.318104 -3.303275 26,825 0 360 -1600
2020-01-23 13:52:36 GMT 52.318104 -3.303275 26,875 0 359 -1600
2020-01-23 13:52:33 GMT 52.312180 -3.303146 26,950 0 360 -1600
2020-01-23 13:52:30 GMT 52.308929 -3.303146 27,150 0 361 -1600
2020-01-23 13:52:27 GMT 52.303802 -3.302994 27,150 0 360 -1600
2020-01-23 13:52:24 GMT 52.299019 -3.302883 27,175 0 361 -1664
2020-01-23 13:52:21 GMT 52.294052 -3.302841 27,250 0 361 -1664
2020-01-23 13:52:18 GMT 52.286449 -3.302726 27,425 0 362 -1664
2020-01-23 13:52:15 GMT 52.284027 -3.302689 27,475 0 362 -1664
2020-01-23 13:52:12 GMT 52.278118 -3.302569 27,525 0 363 -1600
2020-01-23 13:52:09 GMT 52.273819 -3.302536 27,725 0 364 -1664
2020-01-23 13:52:06 GMT 52.269691 -3.302490 27,625 0 364 -1664
2020-01-23 13:52:03 GMT 52.261822 -3.302412 27,875 0 365 -1600
2020-01-23 13:52:00 GMT 52.256889 -3.302333 27,875 0 365 -1600
2020-01-23 13:51:57 GMT 52.251953 -3.302333 27,975 0 367 -1664
2020-01-23 13:51:54 GMT 52.249207 -3.302255 28,025 0 366 -1600
2020-01-23 13:51:51 GMT 52.242233 -3.302231 28,075 0 366 -1600
2020-01-23 13:51:48 GMT 52.237942 -3.302255 28,600 0 366 -1664
2020-01-23 13:51:45 GMT 52.233078 -3.302231 28,250 0 367 -1664
2020-01-23 13:51:42 GMT 52.222961 -3.302307 28,400 0 367 -1728
2020-01-23 13:51:39 GMT 52.217972 -3.302333 28,475 0 368 -1664
2020-01-23 13:51:33 GMT 52.214355 -3.302383 28,550 0 368 -1600
2020-01-23 13:51:29 GMT 52.201073 -3.302569 28,925 0 371 -1344
2020-01-23 13:51:26 GMT 52.201073 -3.302569 28,750 0 370 -1408
2020-01-23 13:51:23 GMT 52.196136 -3.302647 28,825 0 371 -1280
2020-01-23 13:51:19 GMT 52.188309 -3.302765 28,900 0 373 -1280
2020-01-23 13:51:16 GMT 52.183136 -3.302841 29,025 0 374 -1600
2020-01-23 13:51:13 GMT 52.179798 -3.302961 29,050 0 375 -1792
2020-01-23 13:51:10 GMT 52.173615 -3.303070 29,125 0 375 -1728
2020-01-23 13:51:07 GMT 52.167435 -3.303146 29,250 0 376 -1728
2020-01-23 13:51:04 GMT 52.161987 -3.303299 29,300 0 376 -1728
2020-01-23 13:51:01 GMT 52.158234 -3.303375 29,500 0 377 -1664
2020-01-23 13:50:58 GMT 52.152889 -3.303510 29,450 0 377 -1664
2020-01-23 13:50:55 GMT 52.146286 -3.303680 29,575 0 378 -1664
2020-01-23 13:50:52 GMT 52.140602 -3.303824 29,650 0 379 -1728
2020-01-23 13:50:49 GMT 52.135296 -3.303903 29,700 0 379 -1728
2020-01-23 13:50:46 GMT 52.131104 -3.304060 29,800 0 380 -1728
2020-01-23 13:50:43 GMT 52.127197 -3.304138 29,875 0 380 -1728
2020-01-23 13:50:40 GMT 52.116394 -3.304452 30,025 1 381 -1728
2020-01-23 13:50:34 GMT 52.105591 -3.304749 30,325 1 383 -1664
2020-01-23 13:50:28 GMT 52.094654 -3.305080 30,375 1 383 -1664
2020-01-23 13:50:25 GMT 52.089615 -3.305283 30,450 1 384 -1664
2020-01-23 13:50:22 GMT 52.083481 -3.305435 30,550 1 385 -1664
2020-01-23 13:50:19 GMT 52.083481 -3.305435 30,600 1 385 -1664
2020-01-23 13:50:16 GMT 52.078083 -3.305629 30,650 1 385 -1728
2020-01-23 13:50:13 GMT 52.073288 -3.305786 30,750 1 386 -1728
2020-01-23 13:50:09 GMT 52.065262 -3.306046 30,825 1 387 -1728
2020-01-23 13:50:06 GMT 52.060410 -3.306198 30,925 1 388 -1728
2020-01-23 13:50:03 GMT 52.049358 -3.306649 31,150 1 389 -1728
2020-01-23 13:49:57 GMT 52.043427 -3.306885 31,225 1 390 -1728
2020-01-23 13:49:54 GMT 52.034317 -3.307190 31,350 1 391 -1728
2020-01-23 13:49:48 GMT 52.026718 -3.307495 31,525 1 392 -1664
2020-01-23 13:49:45 GMT 52.022324 -3.307724 31,625 1 392 -1664
2020-01-23 13:49:42 GMT 52.016911 -3.307905 31,675 1 394 -1536
2020-01-23 13:49:39 GMT 52.011047 -3.308140 31,750 1 394 -1536
2020-01-23 13:49:36 GMT 52.005276 -3.308376 31,825 1 396 -1344
2020-01-23 13:49:33 GMT 52.001411 -3.308533 31,875 1 396 -1216
2020-01-23 13:49:30 GMT 51.993820 -3.308847 31,925 1 398 -1024
2020-01-23 13:49:27 GMT 51.989864 -3.309004 31,975 1 398 -1024
2020-01-23 13:49:24 GMT 51.985256 -3.309161 32,000 1 399 -1024
2020-01-23 13:49:21 GMT 51.980228 -3.309317 32,050 1 399 -1024
2020-01-23 13:49:18 GMT 51.968403 -3.309710 32,150 1 401 -1024
2020-01-23 13:49:15 GMT 51.963638 -3.309860 32,275 1 403 -1024
2020-01-23 13:49:09 GMT 51.951275 -3.310259 32,325 1 403 -1024
2020-01-23 13:49:03 GMT 51.945782 -3.310416 32,375 0 404 -1024
2020-01-23 13:49:00 GMT 51.939358 -3.310652 32,475 0 405 -960
2020-01-23 13:48:57 GMT 51.933537 -3.310808 32,500 0 405 -1024
2020-01-23 13:48:54 GMT 51.929123 -3.310928 32,550 0 406 -1024
2020-01-23 13:48:51 GMT 51.923492 -3.311081 32,575 0 406 -1024
2020-01-23 13:48:48 GMT 51.916359 -3.311279 32,775 0 407 -1024
2020-01-23 13:48:45 GMT 51.912403 -3.311358 32,725 0 407 -1024
2020-01-23 13:48:42 GMT 51.906860 -3.311515 32,725 0 407 -1024
2020-01-23 13:48:39 GMT 51.900192 -3.311768 32,800 0 408 -1024
2020-01-23 13:48:36 GMT 51.894806 -3.311907 32,900 0 408 -1024
2020-01-23 13:48:33 GMT 51.882751 -3.312229 33,150 0 410 -1024
2020-01-23 13:48:27 GMT 51.872181 -3.312531 33,125 0 410 -1024
2020-01-23 13:48:24 GMT 51.867386 -3.312683 33,100 0 410 -1024
2020-01-23 13:48:21 GMT 51.867386 -3.312683 33,100 0 410 -1024
2020-01-23 13:48:18 GMT 51.860310 -3.312836 33,125 0 411 -1024
2020-01-23 13:48:15 GMT 51.853745 -3.313065 33,200 0 412 -1024
2020-01-23 13:48:12 GMT 51.849838 -3.313120 33,275 0 412 -1024
2020-01-23 13:48:09 GMT 51.842285 -3.313343 33,300 0 412 -1024
2020-01-23 13:48:06 GMT 51.839539 -3.313417 33,325 0 413 -1024
2020-01-23 13:48:03 GMT 51.833263 -3.313599 33,400 0 413 -1024
2020-01-23 13:48:00 GMT 51.825668 -3.313788 33,650 0 414 -960
2020-01-23 13:47:57 GMT 51.820927 -3.313904 33,550 1 414 -960
2020-01-23 13:47:54 GMT 51.810196 -3.314234 33,600 1 415 -960
2020-01-23 13:47:48 GMT 51.804447 -3.314438 33,700 1 415 -960
2020-01-23 13:47:45 GMT 51.792801 -3.314753 34,025 1 415 -960
2020-01-23 13:47:39 GMT 51.787125 -3.314902 33,825 0 415 -960
2020-01-23 13:47:36 GMT 51.779682 -3.315125 33,850 0 415 -960
2020-01-23 13:47:33 GMT 51.775726 -3.315199 33,900 0 415 -1024
2020-01-23 13:47:30 GMT 51.769821 -3.315347 34,725 0 416 -1024
2020-01-23 13:47:27 GMT 51.763992 -3.315506 33,975 0 415 -1088
2020-01-23 13:47:24 GMT 51.757690 -3.315644 34,050 0 416 -1024
2020-01-23 13:47:21 GMT 51.751144 -3.315811 34,075 0 416 -1024
2020-01-23 13:47:18 GMT 51.745419 -3.315887 34,200 0 416 -1024
2020-01-23 13:47:15 GMT 51.740204 -3.316040 34,200 0 416 -1024
2020-01-23 13:47:12 GMT 51.734940 -3.316090 34,300 0 417 -1024
2020-01-23 13:47:09 GMT 51.730087 -3.316238 34,500 0 418 -1024
2020-01-23 13:47:06 GMT 51.723354 -3.316345 34,350 0 418 -1024
2020-01-23 13:47:03 GMT 51.711994 -3.316574 34,425 0 418 -1024
2020-01-23 13:47:00 GMT 51.705688 -3.316683 35,075 0 418 -1024
2020-01-23 13:46:57 GMT 51.705688 -3.316683 34,500 0 418 -1024
2020-01-23 13:46:54 GMT 51.694199 -3.316906 34,575 0 418 -1024
2020-01-23 13:46:51 GMT 51.694199 -3.316906 34,625 0 419 -1024
2020-01-23 13:46:48 GMT 51.688660 -3.317055 34,700 0 419 -1024
2020-01-23 13:46:45 GMT 51.682938 -3.317129 34,875 0 420 -960
2020-01-23 13:46:42 GMT 51.677765 -3.317203 34,850 0 420 -960
2020-01-23 13:46:39 GMT 51.670193 -3.317337 34,825 0 420 -1024
2020-01-23 13:46:36 GMT 51.663486 -3.317490 34,850 0 420 -960
2020-01-23 13:46:33 GMT 51.660187 -3.317500 34,875 0 420 -960
2020-01-23 13:46:30 GMT 51.654362 -3.317566 34,950 0 420 -1024
2020-01-23 13:46:27 GMT 51.647518 -3.317642 35,025 0 420 -1024
2020-01-23 13:46:24 GMT 51.635559 -3.317797 35,125 0 420 -1024
2020-01-23 13:46:21 GMT 51.628807 -3.317871 35,150 0 420 -1024
2020-01-23 13:46:18 GMT 51.628807 -3.317871 35,225 0 420 -1024
2020-01-23 13:46:15 GMT 51.623428 -3.317871 36,975 0 421 -1088
2020-01-23 13:46:12 GMT 51.617725 -3.317947 35,450 0 422 -1024
2020-01-23 13:46:09 GMT 51.613907 -3.317945 35,400 0 421 -1088
2020-01-23 13:46:06 GMT 51.607590 -3.318020 35,450 0 421 -1088
2020-01-23 13:46:03 GMT 51.600548 -3.318024 35,450 0 421 -1088
2020-01-23 13:46:00 GMT 51.590542 -3.318100 35,500 0 421 -1024
2020-01-23 13:45:54 GMT 51.582859 -3.318176 35,650 0 422 -1024
2020-01-23 13:45:51 GMT 51.577972 -3.318168 35,650 0 422 -1024
2020-01-23 13:45:45 GMT 51.565933 -3.318391 35,750 1 423 -1024
2020-01-23 13:45:42 GMT 51.561073 -3.318634 35,775 2 423 -1024
2020-01-23 13:45:39 GMT 51.553345 -3.319244 35,850 3 423 -1024
2020-01-23 13:45:36 GMT 51.547394 -3.319801 35,900 3 423 -1088
2020-01-23 13:45:33 GMT 51.536537 -3.320999 35,975 3 425 -1088
2020-01-23 13:45:26 GMT 51.529724 -3.321731 36,125 3 427 -1024
2020-01-23 13:45:23 GMT 51.521576 -3.322548 36,125 3 426 -1024
2020-01-23 13:45:20 GMT 51.515358 -3.323212 36,150 3 427 -1024
2020-01-23 13:45:16 GMT 51.507980 -3.324032 36,250 3 428 -1024
2020-01-23 13:45:13 GMT 51.504559 -3.324356 36,275 3 428 -1024
2020-01-23 13:45:10 GMT 51.498135 -3.325043 36,325 3 429 -1024
2020-01-23 13:45:07 GMT 51.491989 -3.325729 36,400 3 429 -1024
2020-01-23 13:45:04 GMT 51.487007 -3.326187 36,450 3 429 -1024
2020-01-23 13:45:01 GMT 51.480377 -3.326927 36,575 3 430 -1024
2020-01-23 13:44:58 GMT 51.473511 -3.327595 36,575 3 430 -1024
2020-01-23 13:44:55 GMT 51.467926 -3.328189 36,750 3 430 -1024
2020-01-23 13:44:52 GMT 51.461517 -3.328857 36,650 3 431 -1024
2020-01-23 13:44:49 GMT 51.456436 -3.329377 36,800 3 431 -1024
2020-01-23 13:44:46 GMT 51.449951 -3.330078 36,725 3 431 -1024
2020-01-23 13:44:43 GMT 51.443947 -3.330688 36,825 3 430 -1024
2020-01-23 13:44:40 GMT 51.438263 -3.331307 36,900 3 430 -1024
2020-01-23 13:44:37 GMT 51.432541 -3.331909 36,950 3 433 -1088
2020-01-23 13:44:34 GMT 51.426441 -3.332596 36,950 3 431 -1024
2020-01-23 13:44:31 GMT 51.421417 -3.333130 37,125 4 433 -960
2020-01-23 13:44:27 GMT 51.405495 -3.334961 37,175 3 432 -960
2020-01-23 13:44:24 GMT 51.405495 -3.334961 37,150 3 432 -960
2020-01-23 13:44:21 GMT 51.400223 -3.335538 37,300 3 433 -960
2020-01-23 13:44:18 GMT 51.393860 -3.336281 37,200 3 433 -960
2020-01-23 13:44:15 GMT 51.386921 -3.337021 37,300 4 433 -960
2020-01-23 13:44:12 GMT 51.381912 -3.337617 37,300 4 433 -960
2020-01-23 13:44:09 GMT 51.375980 -3.338242 37,375 4 433 -960
2020-01-23 13:44:06 GMT 51.368637 -3.339101 37,450 3 432 -1024
2020-01-23 13:44:03 GMT 51.364426 -3.339547 37,600 3 432 -1088
2020-01-23 13:44:00 GMT 51.350922 -3.341106 37,550 3 432 -1088
2020-01-23 13:43:57 GMT 51.347118 -3.341522 37,575 3 432 -1088
2020-01-23 13:43:54 GMT 51.341068 -3.342133 37,650 3 432 -1088
2020-01-23 13:43:51 GMT 51.341068 -3.342133 37,675 3 432 -1088
2020-01-23 13:43:48 GMT 51.334396 -3.342887 37,725 3 432 -1088
2020-01-23 13:43:45 GMT 51.328217 -3.343506 37,775 3 433 -1152
2020-01-23 13:43:42 GMT 51.322819 -3.344116 37,825 3 433 -1088
2020-01-23 13:43:39 GMT 51.317883 -3.344650 37,900 3 433 -1088
2020-01-23 13:43:36 GMT 51.305237 -3.346005 37,950 3 433 -384
2020-01-23 13:43:33 GMT 51.298599 -3.346673 38,000 3 433 -384
2020-01-23 13:43:30 GMT 51.298599 -3.346673 38,000 3 434 0
2020-01-23 13:43:27 GMT 51.292831 -3.347267 38,000 3 434 0
2020-01-23 13:43:24 GMT 51.285965 -3.348009 38,000 3 434 0
2020-01-23 13:43:21 GMT 51.278595 -3.348826 38,000 3 434 64
2020-01-23 13:43:17 GMT 51.266739 -3.350088 38,000 3 434 -64
2020-01-23 13:43:11 GMT 51.260101 -3.350756 38,000 3 434 0
2020-01-23 13:43:08 GMT 51.253052 -3.351498 38,000 3 434 -64
2020-01-23 13:43:05 GMT 51.248661 -3.351974 38,000 4 433 0
2020-01-23 13:43:02 GMT 51.242889 -3.352537 38,000 4 435 0
2020-01-23 13:42:59 GMT 51.236801 -3.353206 38,000 3 434 -64
2020-01-23 13:42:56 GMT 51.230759 -3.353799 38,000 3 434 0
2020-01-23 13:42:53 GMT 51.222427 -3.354690 38,000 3 434 0
2020-01-23 13:42:50 GMT 51.219238 -3.355026 38,000 3 434 0
2020-01-23 13:42:46 GMT 51.209290 -3.356101 38,000 4 435 0
2020-01-23 13:42:43 GMT 51.203552 -3.356705 38,000 4 435 0
2020-01-23 13:42:40 GMT 51.197845 -3.357362 38,000 4 435 0
2020-01-23 13:42:37 GMT 51.192238 -3.358002 38,000 4 435 0
2020-01-23 13:42:34 GMT 51.179157 -3.359604 38,000 4 435 0
2020-01-23 13:42:31 GMT 51.179157 -3.359604 38,000 4 435 0
2020-01-23 13:42:28 GMT 51.174408 -3.360183 38,000 4 436 0
2020-01-23 13:42:25 GMT 51.168503 -3.360851 38,000 4 436 0
2020-01-23 13:42:22 GMT 51.154533 -3.362503 38,000 4 436 0
2020-01-23 13:42:16 GMT 51.150787 -3.363004 38,000 4 436 0
2020-01-23 13:42:13 GMT 51.145706 -3.363598 38,000 4 436 0
2020-01-23 13:42:10 GMT 51.138565 -3.364487 38,000 4 436 0
2020-01-23 13:42:07 GMT 51.132885 -3.365173 38,000 4 436 0
2020-01-23 13:42:04 GMT 51.118744 -3.366864 38,000 4 436 0
2020-01-23 13:42:01 GMT 51.118744 -3.366864 38,000 4 436 0
2020-01-23 13:41:57 GMT 51.112885 -3.367606 38,000 4 436 0
2020-01-23 13:41:54 GMT 51.105186 -3.368530 38,000 4 436 0
2020-01-23 13:41:51 GMT 51.100765 -3.369064 38,000 4 436 -64
2020-01-23 13:41:48 GMT 51.094154 -3.369827 38,000 4 436 0
2020-01-23 13:41:45 GMT 51.086937 -3.370743 38,000 4 436 0
2020-01-23 13:41:42 GMT 51.082672 -3.371244 38,000 4 436 0
2020-01-23 13:41:39 GMT 51.076447 -3.371986 38,000 4 436 64
2020-01-23 13:41:36 GMT 51.068176 -3.372955 38,000 4 436 0
2020-01-23 13:41:33 GMT 51.065094 -3.373322 38,000 4 436 0
2020-01-23 13:41:30 GMT 51.056763 -3.374362 38,000 4 436 0
2020-01-23 13:41:27 GMT 51.051590 -3.374955 38,000 4 436 0
2020-01-23 13:41:24 GMT 51.045319 -3.375772 38,000 4 436 0
2020-01-23 13:41:21 GMT 51.039093 -3.376514 38,000 4 436 0
2020-01-23 13:41:15 GMT 51.026779 -3.377999 38,000 4 436 64
2020-01-23 13:41:12 GMT 51.021393 -3.378601 38,000 4 436 0
2020-01-23 13:41:09 GMT 51.016434 -3.379187 38,000 4 436 0
2020-01-23 13:41:05 GMT 51.002167 -3.380890 38,000 4 433 0
2020-01-23 13:40:59 GMT 50.990067 -3.382379 38,000 4 436 0
2020-01-23 13:40:53 GMT 50.981735 -3.383344 38,000 4 435 0
2020-01-23 13:40:50 GMT 50.975723 -3.384018 38,000 4 435 0
2020-01-23 13:40:47 GMT 50.971626 -3.384552 38,000 4 435 0
2020-01-23 13:40:44 GMT 50.965622 -3.385274 38,000 4 434 0
2020-01-23 13:40:41 GMT 50.958824 -3.386078 38,000 4 435 0
2020-01-23 13:40:38 GMT 50.954124 -3.386612 38,000 4 435 0
2020-01-23 13:40:34 GMT 50.944813 -3.387756 38,000 4 435 0
2020-01-23 13:40:31 GMT 50.939529 -3.388391 38,000 4 435 64
2020-01-23 13:40:25 GMT 50.926750 -3.389893 38,000 4 435 64
2020-01-23 13:40:22 GMT 50.920792 -3.390579 38,000 4 435 64
2020-01-23 13:40:19 GMT 50.913940 -3.391435 38,000 4 435 0
2020-01-23 13:40:16 GMT 50.909203 -3.391953 38,000 4 435 0
2020-01-23 13:40:13 GMT 50.894676 -3.393707 38,000 4 435 -64
2020-01-23 13:40:09 GMT 50.894676 -3.393707 38,000 4 435 -64
2020-01-23 13:40:06 GMT 50.890301 -3.394241 38,000 4 435 0
2020-01-23 13:40:03 GMT 50.882572 -3.395233 38,000 4 435 0
2020-01-23 13:40:00 GMT 50.878338 -3.395691 38,000 4 435 0
2020-01-23 13:39:56 GMT 50.870144 -3.396683 38,000 4 435 0
2020-01-23 13:39:53 GMT 50.863953 -3.397374 38,000 4 435 -64
2020-01-23 13:39:50 GMT 50.857903 -3.398132 38,000 4 435 0
2020-01-23 13:39:47 GMT 50.850632 -3.399007 38,000 4 435 0
2020-01-23 13:39:44 GMT 50.845703 -3.399582 38,000 4 435 0
2020-01-23 13:39:41 GMT 50.840561 -3.400194 38,000 4 435 0
2020-01-23 13:39:38 GMT 50.833694 -3.401011 38,000 4 435 0
2020-01-23 13:39:35 GMT 50.826508 -3.401902 38,000 4 435 0
2020-01-23 13:39:32 GMT 50.813782 -3.403386 38,000 4 435 0
2020-01-23 13:39:28 GMT 50.813782 -3.403386 38,000 4 434 0
2020-01-23 13:39:24 GMT 50.804398 -3.404500 38,000 4 434 0
2020-01-23 13:39:21 GMT 50.800735 -3.404922 38,000 4 434 0
2020-01-23 13:39:18 GMT 50.793148 -3.405838 38,000 4 434 64
2020-01-23 13:39:15 GMT 50.788147 -3.406430 38,000 4 434 0
2020-01-23 13:39:12 GMT 50.781975 -3.407211 38,000 4 434 0
2020-01-23 13:39:09 GMT 50.773361 -3.408211 38,000 4 434 0
2020-01-23 13:39:05 GMT 50.767681 -3.408890 38,000 4 434 0
2020-01-23 13:39:02 GMT 50.761414 -3.409622 38,000 4 434 0
2020-01-23 13:38:59 GMT 50.747360 -3.411255 38,000 4 434 0
2020-01-23 13:38:56 GMT 50.747360 -3.411255 38,000 4 434 0
2020-01-23 13:38:53 GMT 50.743427 -3.411713 38,000 4 434 0
2020-01-23 13:38:50 GMT 50.738159 -3.412368 38,000 4 434 0
2020-01-23 13:38:47 GMT 50.732117 -3.413111 38,000 4 433 0
2020-01-23 13:38:44 GMT 50.725525 -3.413853 38,000 4 434 0
2020-01-23 13:38:41 GMT 50.720524 -3.414459 38,000 4 433 0
2020-01-23 13:38:38 GMT 50.713531 -3.415263 38,000 4 433 0
2020-01-23 13:38:33 GMT 50.703735 -3.416451 38,000 4 433 0
2020-01-23 13:38:30 GMT 50.696922 -3.417282 38,000 4 433 0
2020-01-23 13:38:27 GMT 50.692081 -3.417816 38,000 4 433 0
2020-01-23 13:38:24 GMT 50.687054 -3.418427 38,000 4 433 0
2020-01-23 13:38:21 GMT 50.680115 -3.419272 38,000 4 433 0
2020-01-23 13:38:18 GMT 50.675034 -3.419866 38,000 4 433 -64
2020-01-23 13:38:15 GMT 50.667297 -3.420723 38,000 4 433 0
2020-01-23 13:38:11 GMT 50.659470 -3.421663 38,000 4 433 -64
2020-01-23 13:38:08 GMT 50.653210 -3.422390 38,000 4 433 -64
2020-01-23 13:38:05 GMT 50.643063 -3.423577 38,000 4 433 0
2020-01-23 13:37:59 GMT 50.633938 -3.424691 38,000 4 433 0
2020-01-23 13:37:56 GMT 50.629841 -3.425136 38,000 4 433 0
2020-01-23 13:37:52 GMT 50.620064 -3.426324 38,000 4 433 0
2020-01-23 13:37:49 GMT 50.616165 -3.426722 38,000 4 433 0
2020-01-23 13:37:46 GMT 50.609024 -3.427590 38,000 4 433 0
2020-01-23 13:37:42 GMT 50.601929 -3.428457 38,000 4 433 0
2020-01-23 13:37:39 GMT 50.594788 -3.429252 38,000 4 433 -64
2020-01-23 13:37:35 GMT 50.589153 -3.429961 38,000 4 433 0
2020-01-23 13:37:32 GMT 50.581879 -3.430770 38,000 4 433 -64
2020-01-23 13:37:29 GMT 50.575375 -3.431520 38,000 4 433 0
2020-01-23 13:37:26 GMT 50.569427 -3.432216 38,000 4 433 0
2020-01-23 13:37:22 GMT 50.562012 -3.433155 38,000 4 433 0
2020-01-23 13:37:19 GMT 50.555969 -3.433806 38,000 4 433 0
2020-01-23 13:37:15 GMT 50.548096 -3.434786 38,000 4 433 0
2020-01-23 13:37:12 GMT 50.542328 -3.435468 38,000 4 433 0
2020-01-23 13:37:09 GMT 50.534134 -3.436408 38,000 4 433 64
2020-01-23 13:37:05 GMT 50.522633 -3.437756 38,000 4 433 0
2020-01-23 13:37:02 GMT 50.522633 -3.437756 38,000 4 433 64
2020-01-23 13:36:59 GMT 50.516373 -3.438432 38,000 4 433 0
2020-01-23 13:36:56 GMT 50.509548 -3.439240 38,000 4 433 0
2020-01-23 13:36:52 GMT 50.502914 -3.440022 38,000 4 433 0
2020-01-23 13:36:49 GMT 50.489365 -3.441612 38,000 4 433 0
2020-01-23 13:36:46 GMT 50.483295 -3.442284 38,000 4 433 0
2020-01-23 13:36:43 GMT 50.483295 -3.442284 38,000 4 433 0
2020-01-23 13:36:40 GMT 50.478874 -3.442803 38,000 4 433 0
2020-01-23 13:36:34 GMT 50.465195 -3.444431 38,000 4 433 0
2020-01-23 13:36:31 GMT 50.459507 -3.445105 38,000 4 433 0
2020-01-23 13:36:28 GMT 50.455078 -3.445659 38,000 4 433 0
2020-01-23 13:36:25 GMT 50.448895 -3.446441 38,000 4 433 -64
2020-01-23 13:36:22 GMT 50.442238 -3.447183 38,000 4 434 0
2020-01-23 13:36:19 GMT 50.436184 -3.447925 38,000 4 433 0
2020-01-23 13:36:16 GMT 50.423012 -3.449559 38,000 4 433 0
2020-01-23 13:36:12 GMT 50.423012 -3.449559 38,000 4 433 0
2020-01-23 13:36:09 GMT 50.418262 -3.450078 38,000 4 433 0
2020-01-23 13:36:06 GMT 50.409164 -3.451225 38,000 4 433 0
2020-01-23 13:36:02 GMT 50.397919 -3.452528 38,000 4 434 0
2020-01-23 13:35:56 GMT 50.389259 -3.453567 38,000 4 434 0
2020-01-23 13:35:53 GMT 50.384491 -3.454116 38,000 4 434 0
2020-01-23 13:35:50 GMT 50.377296 -3.454977 38,000 4 434 0
2020-01-23 13:35:47 GMT 50.373413 -3.455417 38,000 4 434 0
2020-01-23 13:35:44 GMT 50.367428 -3.456165 38,000 4 434 0
2020-01-23 13:35:41 GMT 50.361187 -3.456833 38,000 4 434 64
2020-01-23 13:35:38 GMT 50.347000 -3.458453 38,000 4 434 0
2020-01-23 13:35:34 GMT 50.340042 -3.459248 38,000 4 434 0
2020-01-23 13:35:31 GMT 50.340042 -3.459248 38,000 4 434 0
2020-01-23 13:35:27 GMT 50.333862 -3.460025 38,000 4 434 0
2020-01-23 13:35:24 GMT 50.328182 -3.460619 38,000 4 434 64
2020-01-23 13:35:21 GMT 50.320953 -3.461488 38,000 4 434 0
2020-01-23 13:35:18 GMT 50.315277 -3.462139 38,000 4 434 0
2020-01-23 13:35:15 GMT 50.303375 -3.463512 38,000 4 434 0
2020-01-23 13:35:09 GMT 50.289734 -3.465102 38,000 4 434 0
2020-01-23 13:35:03 GMT 50.284515 -3.465681 38,000 4 434 0
2020-01-23 13:35:00 GMT 50.279114 -3.466331 38,000 4 435 0
2020-01-23 13:34:57 GMT 50.273018 -3.467003 38,000 4 434 0
2020-01-23 13:34:54 GMT 50.267200 -3.467671 38,000 4 434 0
2020-01-23 13:34:51 GMT 50.261055 -3.468339 38,000 4 434 0
2020-01-23 13:34:48 GMT 50.255905 -3.468933 38,000 4 437 0
2020-01-23 13:34:45 GMT 50.248672 -3.469728 38,000 4 435 0
2020-01-23 13:34:42 GMT 50.242401 -3.470451 38,000 4 435 -64
2020-01-23 13:34:39 GMT 50.235405 -3.471309 38,000 4 435 0
2020-01-23 13:34:33 GMT 50.223953 -3.472570 38,000 4 435 0
2020-01-23 13:34:29 GMT 50.216812 -3.473414 38,000 4 437 0
2020-01-23 13:34:26 GMT 50.211010 -3.474129 38,000 4 435 0
2020-01-23 13:34:23 GMT 50.205276 -3.474788 38,000 4 440 0
2020-01-23 13:34:20 GMT 50.197277 -3.475688 38,000 4 435 64
2020-01-23 13:34:17 GMT 50.193043 -3.476208 38,000 4 435 64
2020-01-23 13:34:14 GMT 50.184849 -3.477173 38,000 4 437 0
2020-01-23 13:34:10 GMT 50.179688 -3.477751 38,000 4 436 0
2020-01-23 13:34:07 GMT 50.166000 -3.479341 38,000 4 436 0
2020-01-23 13:34:01 GMT 50.160969 -3.479919 38,000 4 436 0
2020-01-23 13:33:58 GMT 50.154358 -3.480662 38,000 4 437 0
2020-01-23 13:33:52 GMT 50.141739 -3.482088 38,000 4 437 0
2020-01-23 13:33:49 GMT 50.135502 -3.482814 38,000 4 437 -64
2020-01-23 13:33:46 GMT 50.130249 -3.483461 38,000 4 437 -64
2020-01-23 13:33:43 GMT 50.123165 -3.484299 38,000 4 437 -64
2020-01-23 13:33:40 GMT 50.117386 -3.484979 38,000 4 437 -64
2020-01-23 13:33:37 GMT 50.104778 -3.486452 38,000 4 438 0
2020-01-23 13:33:33 GMT 50.098309 -3.487194 38,000 4 439 0
2020-01-23 13:33:30 GMT 50.098309 -3.487194 38,000 4 438 0
2020-01-23 13:33:27 GMT 50.091324 -3.488011 38,000 4 438 0
2020-01-23 13:33:24 GMT 50.085739 -3.488679 38,000 4 438 0
2020-01-23 13:33:20 GMT 50.077080 -3.489718 38,000 4 439 0
2020-01-23 13:33:17 GMT 50.072517 -3.490238 38,000 4 440 0
2020-01-23 13:33:14 GMT 50.065395 -3.491128 38,000 4 439 0
2020-01-23 13:33:11 GMT 50.060211 -3.491701 38,000 4 439 0
2020-01-23 13:33:08 GMT 50.053337 -3.492465 38,000 4 440 0
2020-01-23 13:33:05 GMT 50.047611 -3.493133 38,000 4 440 0
2020-01-23 13:33:01 GMT 50.039791 -3.494098 38,000 4 440 0
2020-01-23 13:32:58 GMT 50.033569 -3.494809 38,000 4 440 0
2020-01-23 13:32:55 GMT 50.027252 -3.495532 38,000 4 440 0
2020-01-23 13:32:51 GMT 50.012791 -3.497215 38,000 4 440 0
2020-01-23 13:32:48 GMT 50.006786 -3.497884 38,000 4 440 0
2020-01-23 13:32:42 GMT 50.001846 -3.498495 38,000 4 441 0
2020-01-23 13:32:38 GMT 49.993752 -3.499442 38,000 4 441 0
2020-01-23 13:32:35 GMT 49.984627 -3.500482 38,000 4 441 0
2020-01-23 13:32:31 GMT 49.977180 -3.501298 38,000 4 441 0
2020-01-23 13:32:28 GMT 49.973099 -3.501820 38,000 4 442 0
2020-01-23 13:32:25 GMT 49.965588 -3.502634 38,000 4 442 0
2020-01-23 13:32:22 GMT 49.960419 -3.503228 38,000 4 442 0
2020-01-23 13:32:19 GMT 49.954056 -3.503988 38,000 4 442 0
2020-01-23 13:32:16 GMT 49.948086 -3.504639 38,000 4 442 0
2020-01-23 13:32:13 GMT 49.941753 -3.505381 38,000 4 442 0
2020-01-23 13:32:09 GMT 49.935425 -3.506084 38,000 4 442 0
2020-01-23 13:32:06 GMT 49.927780 -3.506952 38,000 4 442 0
2020-01-23 13:32:03 GMT 49.914871 -3.508325 38,000 4 443 64
2020-01-23 13:32:00 GMT 49.914871 -3.508325 38,000 4 443 0
2020-01-23 13:31:57 GMT 49.909973 -3.508903 38,000 4 443 0
2020-01-23 13:31:54 GMT 49.903858 -3.509612 38,000 4 443 0
2020-01-23 13:31:50 GMT 49.889988 -3.511171 38,000 4 443 0
2020-01-23 13:31:43 GMT 49.879807 -3.512300 38,000 4 443 0
2020-01-23 13:31:39 GMT 49.871796 -3.513168 38,000 4 443 0
2020-01-23 13:31:36 GMT 49.865639 -3.513843 38,000 4 443 0
2020-01-23 13:31:32 GMT 49.857494 -3.514734 38,000 4 443 0
2020-01-23 13:31:29 GMT 49.852936 -3.515264 38,000 4 443 64
2020-01-23 13:31:26 GMT 49.846161 -3.515986 38,000 4 444 64
2020-01-23 13:31:23 GMT 49.840176 -3.516664 38,000 4 444 -64
2020-01-23 13:31:20 GMT 49.834351 -3.517360 38,000 4 444 0
2020-01-23 13:31:16 GMT 49.825836 -3.518299 38,000 4 444 -64
2020-01-23 13:31:13 GMT 49.819878 -3.518965 38,000 4 444 -64
2020-01-23 13:31:10 GMT 49.813202 -3.519745 38,000 4 444 0
2020-01-23 13:31:07 GMT 49.807404 -3.520376 38,000 4 444 0
2020-01-23 13:31:04 GMT 49.800934 -3.521118 38,000 4 444 0
2020-01-23 13:31:01 GMT 49.796402 -3.521624 38,000 4 444 0
2020-01-23 13:30:58 GMT 49.780495 -3.523494 38,000 4 444 0
2020-01-23 13:30:54 GMT 49.780495 -3.523494 38,000 4 444 0
2020-01-23 13:30:51 GMT 49.774063 -3.524226 38,000 4 444 0
2020-01-23 13:30:48 GMT 49.768433 -3.524877 38,000 4 444 -64
2020-01-23 13:30:45 GMT 49.762390 -3.525599 38,000 4 444 0
2020-01-23 13:30:42 GMT 49.756615 -3.526240 38,000 4 444 -64
2020-01-23 13:30:39 GMT 49.751587 -3.526828 38,000 4 444 0
2020-01-23 13:30:36 GMT 49.742928 -3.527873 38,000 4 444 64
2020-01-23 13:30:33 GMT 49.739044 -3.528274 38,000 4 444 0
2020-01-23 13:30:30 GMT 49.731445 -3.529213 38,000 3 448 0
2020-01-23 13:30:27 GMT 49.723663 -3.530081 38,000 4 444 -64
2020-01-23 13:30:24 GMT 49.718491 -3.530659 38,000 4 444 0
2020-01-23 13:30:17 GMT 49.705128 -3.532179 38,000 4 444 0
2020-01-23 13:30:14 GMT 49.700043 -3.532827 38,000 4 444 0
2020-01-23 13:30:11 GMT 49.693768 -3.533515 38,000 4 444 0
2020-01-23 13:30:08 GMT 49.685486 -3.534490 38,000 4 444 0
2020-01-23 13:30:05 GMT 49.680359 -3.535068 38,000 4 444 0
2020-01-23 13:30:02 GMT 49.675102 -3.535668 38,000 4 443 0
2020-01-23 13:29:59 GMT 49.669048 -3.536410 38,000 4 443 0
2020-01-23 13:29:56 GMT 49.660767 -3.537381 38,000 4 443 64
2020-01-23 13:29:52 GMT 49.655643 -3.537969 38,000 4 443 64
2020-01-23 13:29:49 GMT 49.648754 -3.538711 38,000 4 443 64
2020-01-23 13:29:45 GMT 49.640442 -3.539694 38,000 4 444 64
2020-01-23 13:29:42 GMT 49.634995 -3.540272 38,000 4 444 -128
2020-01-23 13:29:39 GMT 49.628178 -3.541087 38,000 4 443 64
2020-01-23 13:29:36 GMT 49.622124 -3.541755 38,000 4 443 0
2020-01-23 13:29:33 GMT 49.615311 -3.542513 38,025 4 443 -64
2020-01-23 13:29:30 GMT 49.609882 -3.543165 38,025 4 443 0
2020-01-23 13:29:27 GMT 49.602108 -3.543982 38,025 4 443 64
2020-01-23 13:29:24 GMT 49.596802 -3.544575 38,000 4 443 0
2020-01-23 13:29:21 GMT 49.590378 -3.545318 38,000 4 443 0
2020-01-23 13:29:17 GMT 49.583302 -3.546060 38,000 4 443 0
2020-01-23 13:29:14 GMT 49.576675 -3.546777 38,000 4 443 0
2020-01-23 13:29:11 GMT 49.570637 -3.547471 38,000 4 443 0
2020-01-23 13:29:08 GMT 49.564636 -3.548078 38,000 4 443 0
2020-01-23 13:29:05 GMT 49.558537 -3.548732 38,000 4 443 -64
2020-01-23 13:29:02 GMT 49.552811 -3.549401 38,000 4 443 0
2020-01-23 13:28:55 GMT 49.537586 -3.551034 38,000 4 443 64
2020-01-23 13:28:51 GMT 49.528790 -3.551999 38,000 4 443 64
2020-01-23 13:28:47 GMT 49.522385 -3.552632 38,000 4 443 0
2020-01-23 13:28:44 GMT 49.514832 -3.553499 38,000 4 442 0
2020-01-23 13:28:39 GMT 49.505047 -3.554523 38,000 4 442 -64
2020-01-23 13:28:36 GMT 49.498344 -3.555265 38,000 4 442 0
2020-01-23 13:28:33 GMT 49.493454 -3.555784 38,000 4 442 0
2020-01-23 13:28:30 GMT 49.487366 -3.556462 38,000 4 442 0
2020-01-23 13:28:27 GMT 49.480839 -3.557195 38,000 4 442 0
2020-01-23 13:28:24 GMT 49.474274 -3.557908 38,000 4 442 0
2020-01-23 13:28:21 GMT 49.468082 -3.558531 38,000 4 442 0
2020-01-23 13:28:18 GMT 49.463055 -3.559051 38,000 4 442 0
2020-01-23 13:28:15 GMT 49.455746 -3.559867 38,000 4 442 0
2020-01-23 13:28:12 GMT 49.448868 -3.560582 38,000 4 442 0
2020-01-23 13:28:09 GMT 49.441689 -3.561352 38,000 4 442 0
2020-01-23 13:28:06 GMT 49.437561 -3.561811 38,000 4 442 0
2020-01-23 13:28:03 GMT 49.432114 -3.562389 38,000 4 442 0
2020-01-23 13:28:00 GMT 49.425385 -3.563162 38,000 4 442 0
2020-01-23 13:27:56 GMT 49.416180 -3.564124 38,000 4 442 0
2020-01-23 13:27:53 GMT 49.404510 -3.565345 38,000 4 442 0
2020-01-23 13:27:49 GMT 49.404510 -3.565345 38,000 4 442 64
2020-01-23 13:27:46 GMT 49.397232 -3.566148 38,000 4 442 64
2020-01-23 13:27:43 GMT 49.390274 -3.566895 38,000 4 442 64
2020-01-23 13:27:40 GMT 49.383957 -3.567528 38,000 4 442 0
2020-01-23 13:27:35 GMT 49.374886 -3.568533 38,000 4 442 0
2020-01-23 13:27:32 GMT 49.369766 -3.569078 38,000 4 442 0
2020-01-23 13:27:28 GMT 49.360794 -3.569993 38,000 4 443 0
2020-01-23 13:27:25 GMT 49.348206 -3.571331 38,000 4 443 -64
2020-01-23 13:27:22 GMT 49.348206 -3.571331 38,000 4 443 0
2020-01-23 13:27:18 GMT 49.340286 -3.572176 38,000 4 443 -64
2020-01-23 13:27:14 GMT 49.331360 -3.573162 38,000 4 443 0
2020-01-23 13:27:11 GMT 49.324425 -3.573881 38,000 4 443 0
2020-01-23 13:27:08 GMT 49.319595 -3.574430 38,000 4 443 0
2020-01-23 13:27:04 GMT 49.311081 -3.575346 38,000 4 443 0
2020-01-23 13:27:00 GMT 49.298679 -3.576628 38,000 4 444 0
2020-01-23 13:26:57 GMT 49.290020 -3.577568 38,000 4 444 0
2020-01-23 13:26:54 GMT 49.290020 -3.577568 38,000 4 444 0
2020-01-23 13:26:48 GMT 49.278717 -3.578796 38,000 4 444 0
2020-01-23 13:26:44 GMT 49.272079 -3.579501 38,000 4 444 0
2020-01-23 13:26:41 GMT 49.265862 -3.580170 38,000 4 444 -64
2020-01-23 13:26:38 GMT 49.258026 -3.580980 38,000 4 444 0
2020-01-23 13:26:35 GMT 49.250473 -3.581825 38,000 4 444 0
2020-01-23 13:26:30 GMT 49.241684 -3.582740 38,000 3 445 64
2020-01-23 13:26:25 GMT 49.231785 -3.583856 38,000 4 445 64
2020-01-23 13:26:21 GMT 49.221909 -3.584923 38,000 3 445 64
2020-01-23 13:26:18 GMT 49.215630 -3.585591 38,000 3 448 0
2020-01-23 13:26:15 GMT 49.209915 -3.586191 38,000 3 445 0
2020-01-23 13:26:11 GMT 49.197010 -3.587614 38,000 3 446 -64
2020-01-23 13:26:08 GMT 49.190598 -3.588304 38,000 3 448 0
2020-01-23 13:26:05 GMT 49.190598 -3.588304 38,000 3 446 0
2020-01-23 13:26:02 GMT 49.184647 -3.588938 38,000 3 447 0
2020-01-23 13:25:59 GMT 49.178623 -3.589566 38,000 3 447 64
2020-01-23 13:25:56 GMT 49.172333 -3.590205 38,000 3 448 0
2020-01-23 13:25:53 GMT 49.165680 -3.590939 38,000 3 447 64
2020-01-23 13:25:50 GMT 49.161537 -3.591373 38,000 3 447 0
2020-01-23 13:25:47 GMT 49.154228 -3.592168 38,000 3 448 -64
2020-01-23 13:25:44 GMT 49.138916 -3.593797 38,000 3 448 0
2020-01-23 13:25:40 GMT 49.138916 -3.593797 38,000 3 448 0
2020-01-23 13:25:37 GMT 49.133835 -3.594360 38,000 3 448 0
2020-01-23 13:25:34 GMT 49.127014 -3.595065 38,000 3 448 0
2020-01-23 13:25:30 GMT 49.119499 -3.595854 38,000 3 448 -64
2020-01-23 13:25:27 GMT 49.112518 -3.596577 38,000 3 448 0
2020-01-23 13:25:24 GMT 49.105953 -3.597300 38,000 3 448 64
2020-01-23 13:25:19 GMT 49.095665 -3.598384 38,000 3 448 0
2020-01-23 13:25:16 GMT 49.087379 -3.599251 38,000 3 448 -64
2020-01-23 13:25:13 GMT 49.084213 -3.599572 38,000 3 448 0
2020-01-23 13:25:10 GMT 49.078487 -3.600191 38,000 3 448 0
2020-01-23 13:25:06 GMT 49.067780 -3.601275 38,000 3 448 64
2020-01-23 13:25:03 GMT 49.063404 -3.601709 38,000 3 448 0
2020-01-23 13:25:00 GMT 49.056377 -3.602431 38,000 3 448 64
2020-01-23 13:24:57 GMT 49.050888 -3.603023 38,000 3 448 64
2020-01-23 13:24:54 GMT 49.042191 -3.603938 38,000 3 448 -64
2020-01-23 13:24:47 GMT 49.028641 -3.605347 38,000 3 448 0
2020-01-23 13:24:42 GMT 49.019669 -3.606333 38,000 3 448 0
2020-01-23 13:24:39 GMT 49.014496 -3.606826 38,000 3 448 0
2020-01-23 13:24:36 GMT 49.007401 -3.607600 38,000 3 448 -64
2020-01-23 13:24:32 GMT 49.000763 -3.608305 38,000 3 448 0
2020-01-23 13:24:29 GMT 48.986221 -3.609804 38,000 3 448 0
2020-01-23 13:24:26 GMT 48.986221 -3.609804 38,000 3 448 0
2020-01-23 13:24:23 GMT 48.977829 -3.610699 38,000 3 448 -64
2020-01-23 13:24:20 GMT 48.973892 -3.611122 38,000 3 448 0
2020-01-23 13:24:16 GMT 48.966614 -3.611896 38,000 3 448 -64
2020-01-23 13:24:13 GMT 48.959381 -3.612671 38,000 3 448 -64
2020-01-23 13:24:10 GMT 48.946426 -3.614009 38,000 3 448 -64
2020-01-23 13:24:06 GMT 48.946426 -3.614009 38,000 3 448 0
2020-01-23 13:24:03 GMT 48.939011 -3.614784 38,000 3 448 64
2020-01-23 13:23:59 GMT 48.930450 -3.615699 38,000 3 448 64
2020-01-23 13:23:56 GMT 48.925323 -3.616192 38,000 3 448 64
2020-01-23 13:23:52 GMT 48.917744 -3.617032 38,000 3 448 128
2020-01-23 13:23:49 GMT 48.910294 -3.617754 38,000 3 448 0
2020-01-23 13:23:45 GMT 48.901337 -3.618727 38,000 3 448 0
2020-01-23 13:23:42 GMT 48.897125 -3.619150 38,000 3 447 0
2020-01-23 13:23:39 GMT 48.889999 -3.619923 38,000 3 448 0
2020-01-23 13:23:35 GMT 48.881664 -3.620790 38,000 3 447 -64
2020-01-23 13:23:32 GMT 48.869385 -3.622037 38,000 3 447 0
2020-01-23 13:23:29 GMT 48.869385 -3.622037 38,000 3 447 0
2020-01-23 13:23:26 GMT 48.862427 -3.622742 38,000 3 447 64
2020-01-23 13:23:22 GMT 48.853500 -3.623681 38,000 3 447 64
2020-01-23 13:23:18 GMT 48.845169 -3.624573 38,000 3 447 0
2020-01-23 13:23:15 GMT 48.841396 -3.624910 38,000 3 447 0
2020-01-23 13:23:12 GMT 48.833176 -3.625770 38,000 3 446 -64
2020-01-23 13:23:08 GMT 48.825211 -3.626615 38,000 3 447 0
2020-01-23 13:23:05 GMT 48.817337 -3.627390 38,000 3 446 -64
2020-01-23 13:23:01 GMT 48.811184 -3.628018 38,000 3 446 -64
2020-01-23 13:22:58 GMT 48.798988 -3.629247 38,000 3 446 0
2020-01-23 13:22:52 GMT 48.792984 -3.629897 38,000 3 446 0
2020-01-23 13:22:45 GMT 48.779949 -3.631198 38,000 3 445 -64
2020-01-23 13:22:42 GMT 48.771851 -3.632066 38,000 3 445 0
2020-01-23 13:22:36 GMT 48.760345 -3.633235 38,000 3 445 64
2020-01-23 13:22:33 GMT 48.755173 -3.633798 38,000 3 445 0
2020-01-23 13:22:30 GMT 48.749039 -3.634451 38,000 3 445 64
2020-01-23 13:22:26 GMT 48.732513 -3.636193 38,000 3 445 0
2020-01-23 13:22:23 GMT 48.732513 -3.636193 38,000 3 445 0
2020-01-23 13:22:20 GMT 48.721760 -3.637342 38,000 4 442 0
2020-01-23 13:22:14 GMT 48.712357 -3.638354 38,000 4 444 0
2020-01-23 13:22:10 GMT 48.707474 -3.638869 38,000 4 444 0
2020-01-23 13:22:05 GMT 48.697037 -3.639925 38,000 4 443 0
2020-01-23 13:22:01 GMT 48.686146 -3.641100 38,000 4 444 0
2020-01-23 13:21:55 GMT 48.676117 -3.642179 38,000 4 443 -64
2020-01-23 13:21:52 GMT 48.667992 -3.643052 38,000 4 444 0
2020-01-23 13:21:49 GMT 48.664719 -3.643376 38,000 4 444 0
2020-01-23 13:21:46 GMT 48.658722 -3.644010 38,000 4 444 0
2020-01-23 13:21:43 GMT 48.652863 -3.644644 38,000 4 443 0
2020-01-23 13:21:40 GMT 48.645905 -3.645419 38,000 4 443 0
2020-01-23 13:21:36 GMT 48.637115 -3.646334 38,000 4 443 64
2020-01-23 13:21:30 GMT 48.625256 -3.647605 38,000 4 443 -64
2020-01-23 13:21:25 GMT 48.610081 -3.649196 38,000 4 442 -64
2020-01-23 13:21:19 GMT 48.602051 -3.650067 38,000 4 442 0
2020-01-23 13:21:16 GMT 48.589970 -3.651292 38,000 4 442 0
2020-01-23 13:21:13 GMT 48.589970 -3.651292 38,000 4 442 64
2020-01-23 13:21:09 GMT 48.583603 -3.651968 38,000 4 442 64
2020-01-23 13:21:06 GMT 48.575909 -3.652810 38,000 4 442 0
2020-01-23 13:21:03 GMT 48.569065 -3.653532 38,000 4 442 0
2020-01-23 13:21:00 GMT 48.562737 -3.654183 38,000 4 442 0
2020-01-23 13:20:53 GMT 48.549145 -3.655628 38,000 4 441 0
2020-01-23 13:20:50 GMT 48.534760 -3.657180 38,000 4 441 0
2020-01-23 13:20:45 GMT 48.528614 -3.657797 38,000 4 441 0
2020-01-23 13:20:42 GMT 48.528614 -3.657797 38,000 4 441 0
2020-01-23 13:20:39 GMT 48.521912 -3.658520 38,000 4 441 0
2020-01-23 13:20:34 GMT 48.511902 -3.659604 38,000 4 441 0
2020-01-23 13:20:31 GMT 48.505665 -3.660254 38,000 4 441 0
2020-01-23 13:20:28 GMT 48.500244 -3.660842 38,000 4 441 0
2020-01-23 13:20:24 GMT 48.490673 -3.661844 38,000 4 441 64
2020-01-23 13:20:21 GMT 48.483215 -3.662673 38,000 4 441 64
2020-01-23 13:20:18 GMT 48.478989 -3.663145 38,000 4 441 64
2020-01-23 13:20:15 GMT 48.471867 -3.663940 38,000 4 441 0
2020-01-23 13:20:12 GMT 48.465675 -3.664591 38,000 4 441 0
2020-01-23 13:20:08 GMT 48.459503 -3.665279 38,000 4 441 0
2020-01-23 13:20:05 GMT 48.452820 -3.665983 38,000 4 441 0
2020-01-23 13:20:02 GMT 48.446541 -3.666687 38,000 4 441 0
2020-01-23 13:19:58 GMT 48.437759 -3.667603 38,000 4 441 0
2020-01-23 13:19:54 GMT 48.423569 -3.669152 38,000 4 441 0
2020-01-23 13:19:48 GMT 48.418167 -3.669715 38,000 4 441 0
2020-01-23 13:19:45 GMT 48.410385 -3.670560 38,000 4 441 0
2020-01-23 13:19:42 GMT 48.405296 -3.671096 38,000 4 441 0
2020-01-23 13:19:38 GMT 48.397110 -3.671969 38,000 4 441 0
2020-01-23 13:19:34 GMT 48.387222 -3.672955 38,000 3 441 0
2020-01-23 13:19:30 GMT 48.380722 -3.673659 38,000 3 441 0
2020-01-23 13:19:27 GMT 48.374496 -3.674293 38,000 3 442 0
2020-01-23 13:19:24 GMT 48.363007 -3.675420 38,000 3 442 0
2020-01-23 13:19:17 GMT 48.354881 -3.676228 38,000 3 441 0
2020-01-23 13:19:12 GMT 48.342865 -3.677462 38,000 3 441 -64
2020-01-23 13:19:09 GMT 48.339066 -3.677814 38,000 3 441 0
2020-01-23 13:19:06 GMT 48.333000 -3.678396 38,000 3 441 0
2020-01-23 13:19:01 GMT 48.322174 -3.679434 38,000 3 441 0
2020-01-23 13:18:56 GMT 48.312237 -3.680420 38,000 3 441 0
2020-01-23 13:18:51 GMT 48.302078 -3.681406 38,000 3 441 64
2020-01-23 13:18:48 GMT 48.289307 -3.682603 38,000 3 441 64
2020-01-23 13:18:45 GMT 48.289307 -3.682603 38,000 3 441 64
2020-01-23 13:18:41 GMT 48.273560 -3.684152 38,000 3 441 0
2020-01-23 13:18:33 GMT 48.264011 -3.685118 38,000 3 442 0
2020-01-23 13:18:30 GMT 48.259735 -3.685491 38,000 3 442 0
2020-01-23 13:18:27 GMT 48.254059 -3.686124 38,000 3 442 0
2020-01-23 13:18:24 GMT 48.247765 -3.686708 38,000 4 442 0
2020-01-23 13:18:21 GMT 48.239292 -3.687648 38,000 3 442 0
2020-01-23 13:18:18 GMT 48.235062 -3.688026 38,000 3 442 0
2020-01-23 13:18:13 GMT 48.224121 -3.689153 38,000 4 443 0
2020-01-23 13:18:10 GMT 48.217922 -3.689816 38,000 4 443 0
2020-01-23 13:18:07 GMT 48.212616 -3.690394 38,000 3 443 0
2020-01-23 13:18:02 GMT 48.201324 -3.691547 38,000 3 443 0
2020-01-23 13:17:59 GMT 48.195282 -3.692181 38,000 3 444 0
2020-01-23 13:17:54 GMT 48.185760 -3.693096 38,000 3 444 0
2020-01-23 13:17:51 GMT 48.179993 -3.693730 38,000 3 444 0
2020-01-23 13:17:48 GMT 48.174118 -3.694297 38,000 3 444 0
2020-01-23 13:17:44 GMT 48.164528 -3.695237 38,000 3 444 0
2020-01-23 13:17:41 GMT 48.158989 -3.695773 38,000 3 444 0
2020-01-23 13:17:37 GMT 48.141624 -3.697533 38,000 3 445 0
2020-01-23 13:17:32 GMT 48.141624 -3.697533 38,000 3 445 0
2020-01-23 13:17:29 GMT 48.135620 -3.698167 38,000 3 445 0
2020-01-23 13:17:26 GMT 48.129566 -3.698801 38,000 3 445 0
2020-01-23 13:17:23 GMT 48.122040 -3.699509 38,000 3 445 0
2020-01-23 13:17:20 GMT 48.113880 -3.700350 38,000 3 445 0
2020-01-23 13:17:11 GMT 48.097824 -3.701981 38,000 3 445 64
2020-01-23 13:17:08 GMT 48.091919 -3.702599 38,000 3 445 0
2020-01-23 13:17:04 GMT 48.083481 -3.703449 38,000 3 445 0
2020-01-23 13:17:01 GMT 48.076962 -3.704083 38,000 3 446 -64
2020-01-23 13:16:58 GMT 48.070911 -3.704717 38,000 3 446 0
2020-01-23 13:16:55 GMT 48.064682 -3.705345 38,000 3 446 64
2020-01-23 13:16:51 GMT 48.054523 -3.706407 38,000 3 446 0
2020-01-23 13:16:48 GMT 48.050335 -3.706829 38,000 3 446 0
2020-01-23 13:16:44 GMT 48.042095 -3.707674 38,000 3 446 0
2020-01-23 13:16:41 GMT 48.035671 -3.708308 38,000 3 446 0
2020-01-23 13:16:38 GMT 48.023521 -3.709576 38,000 3 447 0
2020-01-23 13:16:35 GMT 48.023521 -3.709576 38,000 3 447 0
2020-01-23 13:16:31 GMT 48.012726 -3.710632 38,000 3 447 0
2020-01-23 13:16:27 GMT 48.006454 -3.711250 38,000 3 447 0
2020-01-23 13:16:24 GMT 48.001083 -3.711759 38,000 3 447 0
2020-01-23 13:16:20 GMT 47.991913 -3.712745 38,000 3 447 0
2020-01-23 13:16:17 GMT 47.987583 -3.713168 38,000 3 447 -64
2020-01-23 13:16:14 GMT 47.980320 -3.713872 38,000 3 447 0
2020-01-23 13:16:11 GMT 47.974781 -3.714435 38,000 3 447 0
2020-01-23 13:16:08 GMT 47.967239 -3.715210 38,000 3 447 0
2020-01-23 13:16:04 GMT 47.953461 -3.716618 38,000 3 447 0
2020-01-23 13:16:01 GMT 47.953461 -3.716618 38,000 3 447 0
2020-01-23 13:15:58 GMT 47.945251 -3.717430 38,000 3 448 0
2020-01-23 13:15:54 GMT 47.938797 -3.718097 38,000 3 448 0
2020-01-23 13:15:51 GMT 47.932343 -3.718735 38,000 3 448 0
2020-01-23 13:15:48 GMT 47.926254 -3.719353 38,000 3 448 0
2020-01-23 13:15:45 GMT 47.920120 -3.719971 38,000 3 448 0
2020-01-23 13:15:42 GMT 47.915314 -3.720451 38,000 3 448 0
2020-01-23 13:15:39 GMT 47.907623 -3.721207 38,000 3 448 0
2020-01-23 13:15:36 GMT 47.899933 -3.721962 38,000 3 448 0
2020-01-23 13:15:29 GMT 47.888195 -3.723168 38,000 3 449 0
2020-01-23 13:15:25 GMT 47.878742 -3.724154 38,000 3 449 0
2020-01-23 13:15:22 GMT 47.872421 -3.724777 38,000 3 449 0
2020-01-23 13:15:19 GMT 47.867107 -3.725351 38,000 3 449 0
2020-01-23 13:15:16 GMT 47.859879 -3.726082 38,000 3 449 0
2020-01-23 13:15:13 GMT 47.854675 -3.726619 38,000 3 449 -64
2020-01-23 13:15:09 GMT 47.845459 -3.727524 38,000 3 449 0
2020-01-23 13:15:06 GMT 47.841129 -3.727957 38,000 3 449 0
2020-01-23 13:15:03 GMT 47.831039 -3.728966 38,000 3 449 0
2020-01-23 13:15:00 GMT 47.826744 -3.729436 38,000 3 449 0
2020-01-23 13:14:57 GMT 47.820923 -3.729996 38,000 3 449 0
2020-01-23 13:14:54 GMT 47.814690 -3.730633 38,000 3 449 0
2020-01-23 13:14:49 GMT 47.804306 -3.731689 38,000 3 449 0
2020-01-23 13:14:45 GMT 47.788387 -3.733309 38,000 3 449 0
2020-01-23 13:14:41 GMT 47.788387 -3.733309 38,000 3 449 0
2020-01-23 13:14:38 GMT 47.782009 -3.733943 38,000 3 449 0
2020-01-23 13:14:34 GMT 47.774467 -3.734718 38,000 3 449 0
2020-01-23 13:14:31 GMT 47.758163 -3.736382 38,000 3 449 0
2020-01-23 13:14:27 GMT 47.758163 -3.736382 38,000 3 448 0
2020-01-23 13:14:24 GMT 47.751144 -3.737042 38,000 3 448 0
2020-01-23 13:14:21 GMT 47.746262 -3.737549 38,000 3 448 0
2020-01-23 13:14:17 GMT 47.739460 -3.738239 38,000 3 448 0
2020-01-23 13:14:14 GMT 47.732986 -3.738922 38,000 3 448 0
2020-01-23 13:14:09 GMT 47.720169 -3.740158 38,000 3 448 64
2020-01-23 13:14:04 GMT 47.711655 -3.741051 38,000 3 448 0
2020-01-23 13:14:01 GMT 47.704926 -3.741669 38,000 3 448 64
2020-01-23 13:13:57 GMT 47.697372 -3.742424 38,000 3 448 0
2020-01-23 13:13:54 GMT 47.690552 -3.743111 38,000 3 448 0
2020-01-23 13:13:48 GMT 47.678104 -3.744366 38,000 3 448 0
2020-01-23 13:13:44 GMT 47.669956 -3.745211 38,000 3 448 0
2020-01-23 13:13:39 GMT 47.659286 -3.746269 38,000 3 448 0
2020-01-23 13:13:33 GMT 47.648666 -3.747368 38,000 3 448 0
2020-01-23 13:13:30 GMT 47.642632 -3.747958 38,000 3 448 0
2020-01-23 13:13:27 GMT 47.635368 -3.748662 38,000 3 448 0
2020-01-23 13:13:23 GMT 47.624405 -3.749771 38,000 3 447 -64
2020-01-23 13:13:20 GMT 47.620285 -3.750211 38,000 3 447 0
2020-01-23 13:13:17 GMT 47.614048 -3.750845 38,000 3 447 0
2020-01-23 13:13:13 GMT 47.606461 -3.751625 38,000 3 447 64
2020-01-23 13:13:10 GMT 47.601154 -3.752113 38,000 3 447 64
2020-01-23 13:13:07 GMT 47.594971 -3.752724 38,000 3 447 0
2020-01-23 13:13:03 GMT 47.585770 -3.753685 38,000 3 447 -64
2020-01-23 13:13:00 GMT 47.580002 -3.754234 38,000 3 447 -64
2020-01-23 13:12:57 GMT 47.572803 -3.754930 38,000 3 447 0
2020-01-23 13:12:53 GMT 47.566193 -3.755634 38,000 3 447 0
2020-01-23 13:12:50 GMT 47.558945 -3.756363 38,000 3 447 0
2020-01-23 13:12:46 GMT 47.551342 -3.757113 38,000 3 447 0
2020-01-23 13:12:40 GMT 47.538120 -3.758381 38,000 3 448 64
2020-01-23 13:12:36 GMT 47.530533 -3.759155 38,000 3 448 64
2020-01-23 13:12:33 GMT 47.522369 -3.760002 38,000 3 448 0
2020-01-23 13:12:28 GMT 47.514610 -3.760775 38,000 3 448 0
2020-01-23 13:12:25 GMT 47.507080 -3.761513 38,000 3 448 0
2020-01-23 13:12:22 GMT 47.501999 -3.761993 38,000 3 448 0
2020-01-23 13:12:18 GMT 47.491562 -3.763023 38,000 3 448 0
2020-01-23 13:12:14 GMT 47.485798 -3.763592 38,000 3 448 0
2020-01-23 13:12:10 GMT 47.476410 -3.764534 38,000 3 448 0
2020-01-23 13:12:07 GMT 47.471130 -3.765071 38,000 3 448 0
2020-01-23 13:12:04 GMT 47.463821 -3.765770 38,000 3 448 0
2020-01-23 13:12:00 GMT 47.455399 -3.766620 38,000 3 448 0
2020-01-23 13:11:57 GMT 47.449718 -3.767184 38,000 3 448 0
2020-01-23 13:11:53 GMT 47.441574 -3.767967 38,000 3 448 0
2020-01-23 13:11:49 GMT 47.426769 -3.769437 38,000 3 448 0
2020-01-23 13:11:46 GMT 47.426769 -3.769437 38,000 3 448 0
2020-01-23 13:11:40 GMT 47.414337 -3.770714 38,000 3 448 0
2020-01-23 13:11:37 GMT 47.407402 -3.771339 38,000 3 448 0
2020-01-23 13:11:34 GMT 47.402344 -3.771881 38,000 3 448 0
2020-01-23 13:11:31 GMT 47.394562 -3.772636 38,000 3 448 0
2020-01-23 13:11:27 GMT 47.386963 -3.773392 38,000 3 448 0
2020-01-23 13:11:22 GMT 47.376297 -3.774422 38,000 3 449 0
2020-01-23 13:11:19 GMT 47.372269 -3.774834 38,000 3 449 0
2020-01-23 13:11:15 GMT 47.361237 -3.775864 38,000 3 449 0
2020-01-23 13:11:12 GMT 47.356796 -3.776276 38,000 3 449 -64
2020-01-23 13:11:09 GMT 47.350525 -3.776894 38,000 3 449 -64
2020-01-23 13:11:05 GMT 47.342010 -3.777718 38,000 3 448 0
2020-01-23 13:11:02 GMT 47.336224 -3.778311 38,000 3 448 0
2020-01-23 13:10:59 GMT 47.329742 -3.778954 38,000 3 448 0
2020-01-23 13:10:56 GMT 47.316193 -3.780258 38,000 3 448 -64
2020-01-23 13:10:52 GMT 47.316193 -3.780258 38,000 3 447 -64
2020-01-23 13:10:49 GMT 47.309319 -3.780917 38,000 3 447 0
2020-01-23 13:10:44 GMT 47.292137 -3.782536 38,000 3 447 64
2020-01-23 13:10:41 GMT 47.292137 -3.782536 38,000 3 447 64
2020-01-23 13:10:34 GMT 47.271561 -3.784515 38,000 3 447 64
2020-01-23 13:10:28 GMT 47.267075 -3.784996 38,000 3 447 0
2020-01-23 13:10:24 GMT 47.256729 -3.785957 38,000 3 448 0
2020-01-23 13:10:19 GMT 47.246841 -3.786919 38,000 3 448 0
2020-01-23 13:10:16 GMT 47.240650 -3.787537 38,000 3 448 -64
2020-01-23 13:10:13 GMT 47.235439 -3.788100 38,000 3 448 -64
2020-01-23 13:10:08 GMT 47.225006 -3.789116 38,000 3 447 0
2020-01-23 13:10:03 GMT 47.207062 -3.790901 38,000 3 447 0
2020-01-23 13:10:00 GMT 47.197632 -3.791862 38,000 3 447 0
2020-01-23 13:09:56 GMT 47.197632 -3.791862 38,000 3 447 0
2020-01-23 13:09:53 GMT 47.193695 -3.792274 38,000 3 447 0
2020-01-23 13:09:48 GMT 47.184174 -3.793236 38,000 4 447 0
2020-01-23 13:09:42 GMT 47.171082 -3.794609 38,000 3 446 0
2020-01-23 13:09:38 GMT 47.162201 -3.795502 38,000 3 446 0
2020-01-23 13:09:35 GMT 47.157166 -3.796051 38,000 3 446 0
2020-01-23 13:09:28 GMT 47.143078 -3.797537 38,000 3 446 0
2020-01-23 13:09:25 GMT 47.135834 -3.798248 38,000 3 446 0
2020-01-23 13:09:18 GMT 47.122643 -3.799579 38,000 3 446 0
2020-01-23 13:09:07 GMT 47.100128 -3.801819 38,000 3 446 0
2020-01-23 13:08:58 GMT 47.080261 -3.803741 38,000 3 446 0
2020-01-23 13:08:50 GMT 47.065109 -3.805252 38,000 3 446 0
2020-01-23 13:08:47 GMT 47.058960 -3.805847 38,000 3 446 0
2020-01-23 13:08:38 GMT 47.039268 -3.807819 38,000 3 446 0
2020-01-23 13:08:27 GMT 47.017433 -3.809932 38,000 3 446 0
2020-01-23 13:08:22 GMT 47.006725 -3.810988 38,000 3 446 0
2020-01-23 13:08:19 GMT 46.993652 -3.812256 38,000 3 446 0
2020-01-23 13:08:11 GMT 46.984615 -3.813171 38,000 3 446 0
2020-01-23 13:08:07 GMT 46.975445 -3.814087 38,000 3 446 0
2020-01-23 13:08:02 GMT 46.964970 -3.815073 38,000 3 446 0
2020-01-23 13:07:56 GMT 46.953609 -3.816200 38,000 3 446 0
2020-01-23 13:07:51 GMT 46.942810 -3.817256 38,000 3 445 0
2020-01-23 13:07:47 GMT 46.935516 -3.817955 38,000 3 445 0
2020-01-23 13:07:41 GMT 46.922699 -3.819122 38,000 3 445 0
2020-01-23 13:07:38 GMT 46.916275 -3.819721 38,000 3 445 0
2020-01-23 13:07:35 GMT 46.910923 -3.820214 38,000 3 445 0
2020-01-23 13:07:31 GMT 46.900311 -3.821200 38,000 3 445 -64
2020-01-23 13:07:27 GMT 46.894444 -3.821763 38,000 3 445 0
2020-01-23 13:07:24 GMT 46.886810 -3.822418 38,000 3 446 0
2020-01-23 13:07:20 GMT 46.879871 -3.823101 38,000 3 446 0
2020-01-23 13:07:15 GMT 46.868774 -3.824135 38,000 3 446 0
2020-01-23 13:07:07 GMT 46.852341 -3.825654 38,000 3 446 0
2020-01-23 13:07:01 GMT 46.839523 -3.826927 38,000 3 447 0
2020-01-23 13:06:56 GMT 46.823181 -3.828534 38,000 3 447 64
2020-01-23 13:06:53 GMT 46.818695 -3.828936 38,000 3 447 64
2020-01-23 13:06:50 GMT 46.818695 -3.828936 38,000 3 447 64
2020-01-23 13:06:46 GMT 46.810410 -3.829740 38,000 3 447 64
2020-01-23 13:06:43 GMT 46.804085 -3.830383 38,000 3 448 -64
2020-01-23 13:06:38 GMT 46.791962 -3.831549 38,000 3 448 -64
2020-01-23 13:06:32 GMT 46.781067 -3.832621 38,000 3 447 0
2020-01-23 13:06:25 GMT 46.765541 -3.834091 38,000 3 447 0
2020-01-23 13:06:20 GMT 46.754833 -3.835121 38,000 3 447 -64
2020-01-23 13:06:16 GMT 46.748062 -3.835769 38,000 3 447 -64
2020-01-23 13:06:12 GMT 46.733650 -3.837181 38,000 3 448 0
2020-01-23 13:06:06 GMT 46.727005 -3.837779 38,000 3 448 0
2020-01-23 13:06:02 GMT 46.718994 -3.838583 38,000 3 448 0
2020-01-23 13:05:56 GMT 46.706001 -3.839859 38,000 3 448 64
2020-01-23 13:05:51 GMT 46.685425 -3.841850 38,000 3 449 0
2020-01-23 13:05:46 GMT 46.685425 -3.841850 38,000 3 449 0
2020-01-23 13:05:40 GMT 46.665298 -3.843875 38,000 3 449 0
2020-01-23 13:05:36 GMT 46.665298 -3.843875 38,000 3 449 0
2020-01-23 13:05:29 GMT 46.651474 -3.845215 38,000 3 449 -64
2020-01-23 13:05:25 GMT 46.642456 -3.846107 38,000 3 449 -64
2020-01-23 13:05:20 GMT 46.632065 -3.847091 38,000 3 449 -64
2020-01-23 13:05:16 GMT 46.623463 -3.847961 38,000 3 449 -64
2020-01-23 13:05:09 GMT 46.609589 -3.849301 38,000 3 449 64
2020-01-23 13:05:06 GMT 46.602051 -3.850021 38,000 3 449 0
2020-01-23 13:04:59 GMT 46.587757 -3.851395 38,000 3 449 0
2020-01-23 13:04:55 GMT 46.580109 -3.852115 38,000 3 448 64
2020-01-23 13:04:49 GMT 46.566856 -3.853386 38,000 3 448 0
2020-01-23 13:04:46 GMT 46.561615 -3.853857 38,000 3 448 0
2020-01-23 13:04:39 GMT 46.546646 -3.855330 38,000 3 449 0
2020-01-23 13:04:35 GMT 46.539093 -3.856000 38,000 3 449 0
2020-01-23 13:04:29 GMT 46.525703 -3.857368 38,000 3 448 0
2020-01-23 13:04:25 GMT 46.519135 -3.857943 38,000 3 448 0
2020-01-23 13:04:18 GMT 46.504055 -3.859428 38,000 3 448 0
2020-01-23 13:04:15 GMT 46.497540 -3.860046 38,000 3 448 0
2020-01-23 13:04:08 GMT 46.477158 -3.862029 38,000 3 448 0
2020-01-23 13:04:05 GMT 46.477158 -3.862029 38,000 3 448 64
2020-01-23 13:03:54 GMT 46.454041 -3.864240 38,000 3 448 -64
2020-01-23 13:03:45 GMT 46.435810 -3.866020 38,000 3 448 0
2020-01-23 13:03:37 GMT 46.411835 -3.868326 38,000 3 449 0
2020-01-23 13:03:25 GMT 46.393616 -3.870135 38,000 3 449 0
2020-01-23 13:03:14 GMT 46.371243 -3.872269 38,000 3 449 0
2020-01-23 13:03:04 GMT 46.350712 -3.874260 38,000 3 449 -64
2020-01-23 13:02:54 GMT 46.324081 -3.876767 38,000 3 452 0
2020-01-23 13:02:44 GMT 46.309753 -3.878174 38,000 3 452 0
2020-01-23 13:02:34 GMT 46.287636 -3.880234 38,000 3 452 0
2020-01-23 13:02:23 GMT 46.264217 -3.882500 38,000 3 452 0
2020-01-23 13:02:12 GMT 46.241966 -3.884560 38,000 3 452 0
2020-01-23 13:02:03 GMT 46.223579 -3.886276 38,000 3 452 0
2020-01-23 13:01:53 GMT 46.203049 -3.888155 38,000 3 452 64
2020-01-23 13:01:42 GMT 46.179382 -3.890433 38,000 3 452 64
2020-01-23 13:01:32 GMT 46.147282 -3.893417 38,000 3 452 -64
2020-01-23 13:01:22 GMT 46.138184 -3.894318 38,000 3 452 64
2020-01-23 13:01:11 GMT 46.115753 -3.896395 38,000 3 451 0
2020-01-23 13:01:00 GMT 46.091629 -3.898673 38,000 3 451 0
2020-01-23 13:00:50 GMT 46.072330 -3.900490 38,000 3 451 0
2020-01-23 13:00:40 GMT 46.050934 -3.902558 38,000 3 451 0
2020-01-23 13:00:30 GMT 46.029556 -3.904568 38,000 3 450 0
2020-01-23 13:00:23 GMT 46.014038 -3.906109 38,000 3 450 -64
2020-01-23 13:00:20 GMT 46.008553 -3.906601 38,000 3 450 -64
2020-01-23 13:00:09 GMT 45.986629 -3.908661 38,000 3 450 0
2020-01-23 12:59:59 GMT 45.964874 -3.910731 38,000 3 450 0
2020-01-23 12:59:51 GMT 45.948410 -3.912231 38,000 3 449 64
2020-01-23 12:59:48 GMT 45.942078 -3.912808 38,000 3 449 64
2020-01-23 12:59:43 GMT 45.922485 -3.914616 38,000 3 447 0
2020-01-23 12:59:38 GMT 45.922485 -3.914616 38,000 3 449 64
2020-01-23 12:59:32 GMT 45.908840 -3.915939 38,000 3 447 0
2020-01-23 12:59:28 GMT 45.900696 -3.916693 38,000 3 449 0
2020-01-23 12:59:21 GMT 45.887192 -3.917931 38,000 3 449 0
2020-01-23 12:59:18 GMT 45.879501 -3.918636 38,000 3 450 0
2020-01-23 12:59:09 GMT 45.860641 -3.920444 38,000 3 449 0
2020-01-23 12:59:06 GMT 45.855743 -3.920913 38,000 3 449 0
2020-01-23 12:59:02 GMT 45.844410 -3.921982 38,000 3 449 -64
2020-01-23 12:58:57 GMT 45.835739 -3.922789 38,000 3 449 0
2020-01-23 12:58:51 GMT 45.823883 -3.923928 38,000 3 449 0
2020-01-23 12:58:46 GMT 45.813263 -3.924933 38,000 3 449 0
2020-01-23 12:58:41 GMT 45.802841 -3.925964 38,000 3 449 0
2020-01-23 12:58:36 GMT 45.792114 -3.926942 38,000 3 449 0
2020-01-23 12:58:30 GMT 45.780762 -3.928014 38,000 3 449 0
2020-01-23 12:58:26 GMT 45.771606 -3.928885 38,000 3 448 0
2020-01-23 12:58:19 GMT 45.755962 -3.930359 38,000 3 448 0
2020-01-23 12:58:15 GMT 45.749352 -3.930977 38,000 3 448 0
2020-01-23 12:58:09 GMT 45.737778 -3.932034 38,000 3 447 0
2020-01-23 12:58:05 GMT 45.728264 -3.932968 38,000 3 447 0
2020-01-23 12:57:55 GMT 45.707886 -3.934847 38,000 3 447 0
2020-01-23 12:57:44 GMT 45.686691 -3.936882 38,000 3 448 0
2020-01-23 12:57:33 GMT 45.662888 -3.939068 38,000 3 447 0
2020-01-23 12:57:23 GMT 45.642059 -3.941010 38,000 3 447 0
2020-01-23 12:57:13 GMT 45.621918 -3.942886 38,000 3 447 0
2020-01-23 12:57:02 GMT 45.599854 -3.944896 38,000 3 447 0
2020-01-23 12:56:52 GMT 45.579117 -3.946838 38,000 3 447 0
2020-01-23 12:56:42 GMT 45.558067 -3.948692 38,000 3 448 0
2020-01-23 12:56:31 GMT 45.534931 -3.950858 38,000 3 448 0
2020-01-23 12:56:21 GMT 45.515102 -3.952666 38,000 3 448 -64
2020-01-23 12:56:11 GMT 45.492828 -3.954686 38,000 3 448 0
2020-01-23 12:56:01 GMT 45.472088 -3.956619 38,000 3 449 0
2020-01-23 12:55:50 GMT 45.450119 -3.958740 38,000 3 450 0
2020-01-23 12:55:39 GMT 45.427536 -3.960906 38,000 3 450 0
2020-01-23 12:55:29 GMT 45.406914 -3.962849 38,000 3 450 0
2020-01-23 12:55:19 GMT 45.385361 -3.964792 38,000 3 450 0
2020-01-23 12:55:08 GMT 45.363434 -3.966734 38,000 3 450 0
2020-01-23 12:54:58 GMT 45.342625 -3.968610 38,000 3 450 0
2020-01-23 12:54:47 GMT 45.319473 -3.970707 38,000 3 451 64
2020-01-23 12:54:38 GMT 45.299332 -3.972562 38,000 3 451 0
2020-01-23 12:54:26 GMT 45.275867 -3.974706 38,000 3 451 0
2020-01-23 12:54:16 GMT 45.254013 -3.976724 38,000 3 451 0
2020-01-23 12:54:12 GMT 45.246689 -3.977443 38,000 3 451 0
2020-01-23 12:54:05 GMT 45.231125 -3.978882 38,000 3 451 0
2020-01-23 12:53:54 GMT 45.209381 -3.980909 38,000 3 452 0
2020-01-23 12:53:45 GMT 45.190109 -3.982675 38,000 3 452 64
2020-01-23 12:53:35 GMT 45.169830 -3.984571 38,000 3 452 0
2020-01-23 12:53:25 GMT 45.147804 -3.986630 38,000 3 453 0
2020-01-23 12:53:15 GMT 45.126434 -3.988573 38,000 3 453 0
2020-01-23 12:53:04 GMT 45.104553 -3.990457 38,000 3 453 0
2020-01-23 12:52:53 GMT 45.081699 -3.992391 38,000 3 453 -64
2020-01-23 12:52:43 GMT 45.059372 -3.994315 38,025 3 453 0
2020-01-23 12:52:33 GMT 45.038910 -3.996081 37,975 3 453 512
2020-01-23 12:52:23 GMT 45.017597 -3.998153 37,875 4 454 512
2020-01-23 12:52:12 GMT 44.994736 -4.000462 37,800 4 453 384
2020-01-23 12:52:01 GMT 44.971527 -4.002816 37,750 4 451 256
2020-01-23 12:51:51 GMT 44.952347 -4.004778 37,700 4 449 448
2020-01-23 12:51:39 GMT 44.926758 -4.007329 37,625 4 447 320
2020-01-23 12:51:31 GMT 44.909595 -4.009005 37,550 3 446 640
2020-01-23 12:51:20 GMT 44.886833 -4.011283 37,425 3 445 704
2020-01-23 12:51:10 GMT 44.867249 -4.013149 37,325 4 444 768
2020-01-23 12:51:00 GMT 44.846004 -4.015302 37,175 4 444 896
2020-01-23 12:50:49 GMT 44.823196 -4.017513 37,000 3 445 960
2020-01-23 12:50:37 GMT 44.800011 -4.019589 36,800 3 445 960
2020-01-23 12:50:29 GMT 44.782471 -4.021127 36,675 3 445 1024
2020-01-23 12:50:01 GMT 44.725853 -4.025752 36,275 3 444 640
2020-01-23 12:49:56 GMT 44.714497 -4.026623 36,175 2 445 1152
2020-01-23 12:49:47 GMT 44.696869 -4.027863 36,050 3 444 512
2020-01-23 12:49:37 GMT 44.675858 -4.029504 36,000 3 442 0
2020-01-23 12:49:26 GMT 44.654072 -4.031313 36,000 3 440 64
2020-01-23 12:49:16 GMT 44.632919 -4.033160 36,000 3 441 -64
2020-01-23 12:49:02 GMT 44.603981 -4.035734 36,000 3 441 0
2020-01-23 12:48:53 GMT 44.586823 -4.037214 36,000 3 442 0
2020-01-23 12:48:44 GMT 44.568413 -4.038815 36,000 3 442 0
2020-01-23 12:48:33 GMT 44.545441 -4.040811 36,000 3 442 0
2020-01-23 12:48:24 GMT 44.527634 -4.042380 36,000 3 442 0
2020-01-23 12:48:03 GMT 44.485039 -4.046318 36,000 3 444 0
2020-01-23 12:47:52 GMT 44.461624 -4.048527 36,000 3 444 -64
2020-01-23 12:47:37 GMT 44.430248 -4.051476 36,000 3 444 0
2020-01-23 12:47:31 GMT 44.419449 -4.052481 36,000 3 443 64
2020-01-23 12:47:18 GMT 44.392960 -4.054871 36,000 3 444 0
2020-01-23 12:47:10 GMT 44.375610 -4.056505 36,000 3 445 0
2020-01-23 12:47:00 GMT 44.356110 -4.058337 36,000 3 444 0
2020-01-23 12:46:50 GMT 44.333862 -4.060364 36,000 3 444 -64
2020-01-23 12:46:40 GMT 44.288589 -4.064484 36,000 13 438 -64
2020-01-23 12:46:28 GMT 44.288589 -4.064484 36,000 3 444 0
2020-01-23 12:46:17 GMT 44.266106 -4.066415 36,000 3 444 -64
2020-01-23 12:46:03 GMT 44.238453 -4.068626 36,000 3 445 0
2020-01-23 12:45:59 GMT 44.230350 -4.069631 36,000 13 438 -64
2020-01-23 12:45:43 GMT 44.197311 -4.076909 36,000 13 438 -64
2020-01-23 12:45:34 GMT 44.179844 -4.083121 36,000 15 436 0
2020-01-23 12:45:25 GMT 44.163162 -4.090810 36,000 21 431 0
2020-01-23 12:45:17 GMT 44.147766 -4.099666 36,000 23 429 0
2020-01-23 12:45:04 GMT 44.124725 -4.113857 36,000 23 430 0
2020-01-23 12:44:56 GMT 44.109558 -4.123131 36,000 23 430 -64
2020-01-23 12:44:45 GMT 44.090603 -4.134652 36,000 23 430 -64
2020-01-23 12:44:36 GMT 44.073936 -4.144854 36,000 23 430 0
2020-01-23 12:44:25 GMT 44.040848 -4.165160 36,000 23 429 0
2020-01-23 12:44:15 GMT 44.035583 -4.168353 36,000 23 429 0
2020-01-23 12:44:05 GMT 44.017143 -4.179709 36,000 23 429 -64
2020-01-23 12:43:54 GMT 43.996994 -4.192115 36,000 23 428 0
2020-01-23 12:43:44 GMT 43.978638 -4.203420 36,000 23 428 0
2020-01-23 12:43:32 GMT 43.958313 -4.215940 36,000 24 429 0
2020-01-23 12:43:23 GMT 43.940750 -4.226794 36,000 24 429 0
2020-01-23 12:43:11 GMT 43.919128 -4.240148 36,000 24 429 0
2020-01-23 12:43:03 GMT 43.904617 -4.249090 36,000 23 428 0
2020-01-23 12:42:50 GMT 43.881317 -4.263334 36,000 23 429 64
2020-01-23 12:42:42 GMT 43.867126 -4.271957 36,000 23 429 0
2020-01-23 12:42:30 GMT 43.845703 -4.284923 36,000 23 429 0
2020-01-23 12:42:17 GMT 43.822227 -4.299186 36,000 23 429 0
2020-01-23 12:42:09 GMT 43.806633 -4.308602 36,000 23 428 0
2020-01-23 12:41:59 GMT 43.789223 -4.319131 36,000 23 428 0
2020-01-23 12:41:52 GMT 43.774796 -4.327911 36,000 23 428 0
2020-01-23 12:41:48 GMT 43.768250 -4.331871 36,000 23 428 64
2020-01-23 12:41:39 GMT 43.752914 -4.341196 36,000 23 428 0
2020-01-23 12:41:32 GMT 43.738907 -4.349692 36,000 23 428 0
2020-01-23 12:41:21 GMT 43.711990 -4.365980 36,000 23 429 0
2020-01-23 12:41:09 GMT 43.697617 -4.374730 36,000 23 430 0
2020-01-23 12:41:02 GMT 43.682922 -4.383673 36,000 23 429 0
2020-01-23 12:40:51 GMT 43.665070 -4.394531 36,000 23 429 64
2020-01-23 12:40:48 GMT 43.660458 -4.397278 36,000 23 430 0
2020-01-23 12:40:24 GMT 43.616329 -4.424090 36,000 23 432 0
2020-01-23 12:40:21 GMT 43.611374 -4.427171 36,000 23 432 0
2020-01-23 12:40:17 GMT 43.603683 -4.431834 36,000 23 432 0
2020-01-23 12:40:12 GMT 43.594894 -4.437135 36,000 23 432 0
2020-01-23 12:40:06 GMT 43.583954 -4.443778 36,000 23 432 0
2020-01-23 12:40:02 GMT 43.575439 -4.448952 36,000 23 433 0
2020-01-23 12:39:51 GMT 43.556370 -4.460449 36,000 23 434 -64
2020-01-23 12:39:47 GMT 43.548294 -4.465304 36,000 23 434 -64
2020-01-23 12:39:38 GMT 43.532536 -4.474771 36,000 23 435 -64
2020-01-23 12:39:29 GMT 43.515060 -4.485232 36,000 23 435 0
2020-01-23 12:39:22 GMT 43.500458 -4.493983 36,000 23 436 64
2020-01-23 12:39:09 GMT 43.478989 -4.506886 36,000 23 437 64
2020-01-23 12:38:58 GMT 43.457382 -4.519916 36,000 23 437 0
2020-01-23 12:38:50 GMT 43.442314 -4.529048 36,000 23 437 -64
2020-01-23 12:38:39 GMT 43.422066 -4.541212 36,000 23 437 0
2020-01-23 12:38:28 GMT 43.401627 -4.553450 36,000 23 438 64
2020-01-23 12:38:19 GMT 43.382904 -4.564692 36,000 23 438 -128
2020-01-23 12:38:08 GMT 43.363876 -4.576067 36,025 23 438 0
2020-01-23 12:37:58 GMT 43.346325 -4.586596 36,000 23 438 64
2020-01-23 12:37:48 GMT 43.327286 -4.597975 36,000 23 439 0
2020-01-23 12:37:32 GMT 43.297760 -4.615599 36,000 23 438 64
2020-01-23 12:37:28 GMT 43.288834 -4.620965 36,000 23 438 0
2020-01-23 12:37:17 GMT 43.269974 -4.632206 36,000 23 437 0
2020-01-23 12:37:07 GMT 43.251034 -4.643555 36,000 23 437 0
2020-01-23 12:36:56 GMT 43.231110 -4.655457 36,000 23 436 0
2020-01-23 12:36:45 GMT 43.210098 -4.667976 36,000 23 436 0
2020-01-23 12:36:36 GMT 43.193169 -4.678018 36,000 23 436 64
2020-01-23 12:36:26 GMT 43.175991 -4.688219 36,000 23 436 -64
2020-01-23 12:36:14 GMT 43.152832 -4.701957 36,000 23 436 0
2020-01-23 12:36:06 GMT 43.138000 -4.710771 36,000 23 435 -64
2020-01-23 12:35:54 GMT 43.116898 -4.723227 36,000 23 436 0
2020-01-23 12:35:46 GMT 43.099972 -4.733211 36,000 23 436 0
2020-01-23 12:35:33 GMT 43.077625 -4.746552 36,000 23 437 0
2020-01-23 12:35:24 GMT 43.061424 -4.756165 36,000 23 437 0
2020-01-23 12:35:13 GMT 43.041409 -4.768132 36,000 23 437 -64
2020-01-23 12:35:04 GMT 43.024181 -4.778399 36,000 23 437 0
2020-01-23 12:34:55 GMT 43.005890 -4.789320 36,000 23 438 0
2020-01-23 12:34:44 GMT 42.986664 -4.800764 36,000 23 438 -64
2020-01-23 12:34:34 GMT 42.967621 -4.812139 36,000 23 438 0
2020-01-23 12:34:24 GMT 42.948990 -4.823190 36,000 23 438 0
2020-01-23 12:34:13 GMT 42.929489 -4.834751 36,000 23 437 0
2020-01-23 12:34:04 GMT 42.910641 -4.845886 36,000 23 436 -64
2020-01-23 12:33:53 GMT 42.891769 -4.857043 36,000 23 435 0
2020-01-23 12:33:41 GMT 42.870346 -4.869626 36,000 23 433 64
2020-01-23 12:33:32 GMT 42.853569 -4.879434 36,000 23 431 0
2020-01-23 12:33:23 GMT 42.836346 -4.889505 36,000 23 431 0
2020-01-23 12:33:12 GMT 42.816326 -4.901145 36,000 23 432 -64
2020-01-23 12:33:03 GMT 42.798019 -4.911887 36,000 23 432 0
2020-01-23 12:32:51 GMT 42.779022 -4.922936 36,000 23 432 0
2020-01-23 12:32:41 GMT 42.758102 -4.935046 36,000 23 432 0
2020-01-23 12:32:32 GMT 42.742264 -4.944222 36,000 23 433 64
2020-01-23 12:32:21 GMT 42.722900 -4.955458 36,000 23 434 -64
2020-01-23 12:32:10 GMT 42.702183 -4.967481 36,000 25 436 -64
2020-01-23 12:32:01 GMT 42.685226 -4.977431 36,000 23 435 0
2020-01-23 12:31:50 GMT 42.666382 -4.988559 36,000 25 434 0
2020-01-23 12:31:40 GMT 42.648285 -5.000340 36,000 25 434 0
2020-01-23 12:31:31 GMT 42.629517 -5.012699 36,000 25 435 64
2020-01-23 12:31:20 GMT 42.611031 -5.024840 36,000 25 436 0
2020-01-23 12:31:10 GMT 42.592457 -5.036976 36,000 25 436 0
2020-01-23 12:30:59 GMT 42.572708 -5.049778 36,000 25 436 0
2020-01-23 12:30:49 GMT 42.555916 -5.060609 36,000 25 438 0
2020-01-23 12:30:40 GMT 42.536270 -5.073320 36,000 25 436 64
2020-01-23 12:30:28 GMT 42.516174 -5.086358 36,000 25 437 0
2020-01-23 12:30:19 GMT 42.499771 -5.097018 36,000 25 438 0
2020-01-23 12:30:07 GMT 42.479244 -5.110367 36,000 25 438 0
2020-01-23 12:29:58 GMT 42.462250 -5.121417 36,000 25 438 0
2020-01-23 12:29:48 GMT 42.444096 -5.133170 36,000 25 439 0
2020-01-23 12:29:39 GMT 42.425381 -5.145306 36,000 25 438 -64
2020-01-23 12:29:27 GMT 42.405319 -5.158400 36,000 25 438 0
2020-01-23 12:29:18 GMT 42.388512 -5.169323 36,000 25 438 0
2020-01-23 12:29:08 GMT 42.369781 -5.181552 36,000 25 438 0
2020-01-23 12:28:50 GMT 42.336868 -5.202963 36,000 25 438 0
2020-01-23 12:28:43 GMT 42.323730 -5.211452 36,000 25 438 64
2020-01-23 12:28:35 GMT 42.310307 -5.220167 36,000 25 437 0
2020-01-23 12:28:21 GMT 42.285278 -5.236234 36,000 25 437 -64
2020-01-23 12:28:16 GMT 42.276031 -5.242226 36,000 25 437 -64
2020-01-23 12:28:06 GMT 42.258041 -5.253899 36,000 25 437 -64
2020-01-23 12:27:57 GMT 42.239044 -5.266197 36,000 25 438 64
2020-01-23 12:27:46 GMT 42.221157 -5.277781 36,000 25 438 0
2020-01-23 12:27:36 GMT 42.202305 -5.289981 36,000 25 438 0
2020-01-23 12:27:26 GMT 42.183655 -5.301964 36,000 25 438 64
2020-01-23 12:27:15 GMT 42.164597 -5.314189 36,000 25 439 0
2020-01-23 12:27:06 GMT 42.146347 -5.325814 36,000 25 439 0
2020-01-23 12:26:55 GMT 42.126842 -5.338270 36,000 25 439 64
2020-01-23 12:26:45 GMT 42.108444 -5.350092 36,000 25 440 0
2020-01-23 12:26:35 GMT 42.090115 -5.361967 36,000 25 441 -64
2020-01-23 12:26:24 GMT 42.069908 -5.375061 36,000 25 442 -64
2020-01-23 12:26:15 GMT 42.052322 -5.386359 36,000 25 442 64
2020-01-23 12:26:02 GMT 42.029663 -5.400841 36,000 25 443 0
2020-01-23 12:25:54 GMT 42.014603 -5.410392 36,000 25 443 -64
2020-01-23 12:25:43 GMT 41.995426 -5.422583 36,000 25 445 -64
2020-01-23 12:25:33 GMT 41.975037 -5.435614 36,000 25 446 0
2020-01-23 12:25:24 GMT 41.957859 -5.446536 36,000 25 446 0
2020-01-23 12:25:13 GMT 41.938431 -5.458957 36,000 25 447 0
2020-01-23 12:25:08 GMT 41.927971 -5.465634 36,000 25 447 0
2020-01-23 12:24:57 GMT 41.909500 -5.477434 36,000 25 447 0
2020-01-23 12:24:54 GMT 41.901077 -5.482802 36,000 25 447 0
2020-01-23 12:24:46 GMT 41.887566 -5.491439 36,000 25 448 0
2020-01-23 12:24:41 GMT 41.879562 -5.496535 36,000 25 448 0
2020-01-23 12:24:37 GMT 41.871231 -5.501778 36,000 25 448 0
2020-01-23 12:24:33 GMT 41.863815 -5.506522 36,000 25 449 64
2020-01-23 12:24:24 GMT 41.847061 -5.517117 36,000 25 448 0
2020-01-23 12:24:21 GMT 41.840546 -5.521269 36,000 25 449 64
2020-01-23 12:24:16 GMT 41.831375 -5.527081 36,000 25 448 64
2020-01-23 12:24:12 GMT 41.823788 -5.531872 36,000 25 449 64
2020-01-23 12:24:07 GMT 41.813778 -5.538259 36,000 25 449 0
2020-01-23 12:24:02 GMT 41.803585 -5.544710 36,000 25 449 64
2020-01-23 12:23:55 GMT 41.793594 -5.551030 36,000 25 449 64
2020-01-23 12:23:52 GMT 41.787003 -5.555212 36,000 25 449 64
2020-01-23 12:23:46 GMT 41.775326 -5.562659 36,000 25 449 -64
2020-01-23 12:23:40 GMT 41.764526 -5.569444 36,000 25 449 0
2020-01-23 12:23:36 GMT 41.756893 -5.574284 36,000 25 449 64
2020-01-23 12:23:29 GMT 41.742783 -5.583177 36,000 25 450 -64
2020-01-23 12:23:25 GMT 41.737293 -5.586676 36,000 25 450 -64
2020-01-23 12:23:21 GMT 41.727703 -5.592744 36,000 25 450 0
2020-01-23 12:23:15 GMT 41.717148 -5.599407 36,000 25 450 -64
2020-01-23 12:23:11 GMT 41.709183 -5.604463 36,000 25 451 0
2020-01-23 12:23:06 GMT 41.699913 -5.610245 36,000 25 450 0
2020-01-23 12:23:00 GMT 41.688644 -5.617399 36,000 25 450 64
2020-01-23 12:22:56 GMT 41.680222 -5.622764 36,000 25 450 0
2020-01-23 12:22:48 GMT 41.663910 -5.633052 36,000 25 451 0
2020-01-23 12:22:43 GMT 41.656570 -5.637711 36,000 25 451 0
2020-01-23 12:22:40 GMT 41.652374 -5.640356 36,000 25 451 0
2020-01-23 12:22:35 GMT 41.642094 -5.646845 36,000 25 451 0
2020-01-23 12:22:30 GMT 41.630859 -5.653902 36,000 25 451 0
2020-01-23 12:22:24 GMT 41.621563 -5.659747 36,000 25 451 0
2020-01-23 12:22:20 GMT 41.613743 -5.664666 36,000 25 451 64
2020-01-23 12:22:11 GMT 41.596893 -5.675188 36,000 25 451 -64
2020-01-23 12:22:04 GMT 41.583298 -5.683677 36,000 25 452 0
2020-01-23 12:21:57 GMT 41.569931 -5.692042 36,000 25 452 0
2020-01-23 12:21:54 GMT 41.565048 -5.695070 36,000 25 453 0
2020-01-23 12:21:48 GMT 41.552387 -5.702990 36,000 25 453 -64
2020-01-23 12:21:45 GMT 41.546082 -5.706961 36,000 25 452 0
2020-01-23 12:21:40 GMT 41.535999 -5.713338 36,000 25 452 -128
2020-01-23 12:21:33 GMT 41.525620 -5.719853 36,000 25 453 0
2020-01-23 12:21:28 GMT 41.515472 -5.726304 36,000 25 452 0
2020-01-23 12:21:23 GMT 41.506622 -5.731867 36,000 25 452 0
2020-01-23 12:21:18 GMT 41.493919 -5.739845 36,000 25 453 0
2020-01-23 12:21:13 GMT 41.486343 -5.744601 36,000 25 453 0
2020-01-23 12:21:07 GMT 41.476089 -5.751031 36,000 25 453 64
2020-01-23 12:21:04 GMT 41.469315 -5.755275 36,000 25 452 0
2020-01-23 12:20:58 GMT 41.459106 -5.761705 36,000 25 452 0
2020-01-23 12:20:54 GMT 41.450684 -5.767011 36,000 25 452 0
2020-01-23 12:20:47 GMT 41.435913 -5.776381 36,000 25 452 0
2020-01-23 12:20:44 GMT 41.433121 -5.778106 36,000 25 452 0
2020-01-23 12:20:37 GMT 41.417385 -5.788070 36,000 25 453 0
2020-01-23 12:20:33 GMT 41.397766 -5.800407 36,000 25 454 0
2020-01-23 12:20:26 GMT 41.397766 -5.800407 36,000 25 453 0
2020-01-23 12:20:23 GMT 41.392181 -5.803902 36,000 25 456 64
2020-01-23 12:20:16 GMT 41.378540 -5.812500 36,000 25 454 0
2020-01-23 12:20:13 GMT 41.372974 -5.815950 36,000 25 456 64
2020-01-23 12:20:05 GMT 41.357666 -5.825562 36,000 25 454 0
2020-01-23 12:20:02 GMT 41.352539 -5.828746 36,000 25 454 0
2020-01-23 12:19:56 GMT 41.340637 -5.836243 36,000 25 454 0
2020-01-23 12:19:53 GMT 41.334618 -5.840045 36,000 25 454 0
2020-01-23 12:19:47 GMT 41.321720 -5.848097 36,000 25 454 0
2020-01-23 12:19:43 GMT 41.311012 -5.854777 36,000 25 455 0
2020-01-23 12:19:37 GMT 41.304451 -5.858896 36,000 25 455 0
2020-01-23 12:19:33 GMT 41.296257 -5.864015 36,000 25 455 0
2020-01-23 12:19:26 GMT 41.283779 -5.871755 36,000 25 455 0
2020-01-23 12:19:23 GMT 41.276100 -5.876562 36,000 25 455 0
2020-01-23 12:19:14 GMT 41.254257 -5.890137 36,000 25 455 -64
2020-01-23 12:19:07 GMT 41.246449 -5.895039 36,000 25 456 0
2020-01-23 12:19:04 GMT 41.232376 -5.903748 36,000 25 456 64
2020-01-23 12:18:59 GMT 41.232376 -5.903748 36,000 25 455 0
2020-01-23 12:18:54 GMT 41.222443 -5.909912 36,000 25 456 0
2020-01-23 12:18:51 GMT 41.217316 -5.913086 36,000 25 455 0
2020-01-23 12:18:46 GMT 41.205666 -5.920320 36,000 25 456 64
2020-01-23 12:18:42 GMT 41.197800 -5.925189 36,000 25 456 0
2020-01-23 12:18:35 GMT 41.185867 -5.932556 36,000 25 456 -64
2020-01-23 12:18:31 GMT 41.178268 -5.937317 36,000 25 455 -64
2020-01-23 12:18:24 GMT 41.165634 -5.945129 36,000 24 456 64
2020-01-23 12:18:21 GMT 41.144073 -5.958435 36,000 24 456 -64
2020-01-23 12:18:13 GMT 41.144073 -5.958435 36,000 24 456 0
2020-01-23 12:18:10 GMT 41.139496 -5.961243 36,000 24 456 -64
2020-01-23 12:18:04 GMT 41.126633 -5.969177 36,000 24 457 -64
2020-01-23 12:18:01 GMT 41.119686 -5.973441 36,000 24 457 -64
2020-01-23 12:17:53 GMT 41.104553 -5.982680 36,000 24 457 0
2020-01-23 12:17:50 GMT 41.099712 -5.985676 36,000 24 457 0
2020-01-23 12:17:45 GMT 41.080307 -5.997620 36,000 24 457 0
2020-01-23 12:17:40 GMT 41.080307 -5.997620 36,000 25 458 0
2020-01-23 12:17:34 GMT 41.069092 -6.004517 36,025 25 458 64
2020-01-23 12:17:30 GMT 41.062706 -6.008460 36,000 25 458 64
2020-01-23 12:17:25 GMT 41.051159 -6.015639 36,000 25 458 -128
2020-01-23 12:17:22 GMT 41.046158 -6.018799 36,000 25 458 -128
2020-01-23 12:17:19 GMT 41.039196 -6.023130 36,000 25 458 -64
2020-01-23 12:17:12 GMT 41.021851 -6.033875 36,000 25 458 -64
2020-01-23 12:17:04 GMT 41.011963 -6.040039 36,025 25 458 0
2020-01-23 12:17:01 GMT 41.000046 -6.047412 36,000 25 458 64
2020-01-23 12:16:54 GMT 40.992508 -6.052124 36,000 25 458 64
2020-01-23 12:16:51 GMT 40.982391 -6.058411 36,000 25 458 0
2020-01-23 12:16:44 GMT 40.971680 -6.065002 36,000 25 459 0
2020-01-23 12:16:39 GMT 40.962662 -6.070618 36,000 25 459 -64
2020-01-23 12:16:32 GMT 40.951401 -6.077576 36,000 25 459 64
2020-01-23 12:16:28 GMT 40.942429 -6.083069 36,000 25 458 -64
2020-01-23 12:16:23 GMT 40.932678 -6.089111 36,000 25 458 -128
2020-01-23 12:16:20 GMT 40.925747 -6.093417 36,000 25 457 0
2020-01-23 12:16:17 GMT 40.921700 -6.095914 36,000 25 457 0
2020-01-23 12:16:12 GMT 40.912170 -6.101807 36,000 25 457 0
2020-01-23 12:16:08 GMT 40.903885 -6.106934 36,000 25 455 -64
2020-01-23 12:16:03 GMT 40.894371 -6.112768 36,000 25 456 0
2020-01-23 12:15:57 GMT 40.880859 -6.121155 36,000 25 456 192
2020-01-23 12:15:52 GMT 40.872028 -6.126626 36,000 25 454 0
2020-01-23 12:15:49 GMT 40.868271 -6.128967 36,000 25 454 0
2020-01-23 12:15:42 GMT 40.855083 -6.137050 36,000 24 454 -64
2020-01-23 12:15:39 GMT 40.848564 -6.141045 36,000 24 454 64
2020-01-23 12:15:32 GMT 40.836227 -6.148661 36,000 25 453 64
2020-01-23 12:15:26 GMT 40.825615 -6.155153 36,000 24 453 64
2020-01-23 12:15:21 GMT 40.814987 -6.161682 36,000 24 452 0
2020-01-23 12:15:17 GMT 40.804871 -6.167908 36,000 25 451 -64
2020-01-23 12:15:09 GMT 40.791210 -6.176251 36,000 24 450 64
2020-01-23 12:15:05 GMT 40.785278 -6.179871 36,000 24 450 64
2020-01-23 12:14:59 GMT 40.774452 -6.186489 36,000 24 450 0
2020-01-23 12:14:56 GMT 40.767471 -6.190733 36,000 24 450 -64
2020-01-23 12:14:51 GMT 40.758766 -6.196039 36,000 24 450 -64
2020-01-23 12:14:48 GMT 40.752090 -6.200134 36,000 24 450 -64
2020-01-23 12:14:45 GMT 40.747421 -6.202942 36,000 24 450 -64
2020-01-23 12:14:40 GMT 40.738422 -6.208461 36,000 25 450 0
2020-01-23 12:14:36 GMT 40.728790 -6.214355 36,000 24 450 -64
2020-01-23 12:14:31 GMT 40.720413 -6.219482 36,000 25 450 192
2020-01-23 12:14:28 GMT 40.715652 -6.222412 36,000 25 450 128
2020-01-23 12:14:25 GMT 40.709290 -6.226318 36,000 25 450 128
2020-01-23 12:14:19 GMT 40.698441 -6.232910 36,025 24 451 -320
2020-01-23 12:14:16 GMT 40.692169 -6.236694 36,025 24 450 64
2020-01-23 12:14:11 GMT 40.680183 -6.243917 36,000 24 451 -64
2020-01-23 12:14:08 GMT 40.675251 -6.246851 36,000 24 450 -128
2020-01-23 12:14:04 GMT 40.669247 -6.250534 36,000 24 450 0
2020-01-23 12:14:00 GMT 40.662048 -6.254944 36,000 25 450 64
2020-01-23 12:13:55 GMT 40.649693 -6.262519 36,000 25 451 -64
2020-01-23 12:13:52 GMT 40.644943 -6.265453 36,000 25 450 -128
2020-01-23 12:13:47 GMT 40.636936 -6.270322 35,975 25 450 128
2020-01-23 12:13:44 GMT 40.631332 -6.273804 36,025 25 450 64
2020-01-23 12:13:37 GMT 40.618149 -6.281921 35,975 25 452 320
2020-01-23 12:13:33 GMT 40.610355 -6.286801 35,975 25 452 -64
2020-01-23 12:13:30 GMT 40.605331 -6.289856 35,975 24 453 -256
2020-01-23 12:13:27 GMT 40.598923 -6.293762 36,000 24 453 -128
2020-01-23 12:13:24 GMT 40.591362 -6.298350 36,000 24 453 -64
2020-01-23 12:13:20 GMT 40.584183 -6.302673 36,000 25 452 -64
2020-01-23 12:13:16 GMT 40.575954 -6.307713 36,000 24 452 0
2020-01-23 12:13:13 GMT 40.572968 -6.309570 36,000 24 452 64
2020-01-23 12:13:09 GMT 40.553703 -6.321259 36,000 24 452 0
2020-01-23 12:13:03 GMT 40.553703 -6.321259 36,000 24 452 0
2020-01-23 12:12:59 GMT 40.544174 -6.326965 36,000 24 453 0
2020-01-23 12:12:56 GMT 40.540436 -6.329249 36,000 24 453 0
2020-01-23 12:12:52 GMT 40.532684 -6.333923 36,000 24 453 0
2020-01-23 12:12:48 GMT 40.526283 -6.337800 36,000 24 453 0
2020-01-23 12:12:43 GMT 40.513824 -6.345337 36,000 24 453 0
2020-01-23 12:12:38 GMT 40.505905 -6.350098 36,000 24 454 0
2020-01-23 12:12:35 GMT 40.499863 -6.353760 36,000 24 455 -128
2020-01-23 12:12:32 GMT 40.493866 -6.357422 36,000 24 455 -128
2020-01-23 12:12:28 GMT 40.486526 -6.361833 36,000 24 456 -64
2020-01-23 12:12:24 GMT 40.478714 -6.366577 36,000 24 457 -64
2020-01-23 12:12:20 GMT 40.469627 -6.372133 36,000 24 459 0
2020-01-23 12:12:14 GMT 40.460922 -6.377376 36,000 24 460 0
2020-01-23 12:12:11 GMT 40.455231 -6.380798 36,000 24 460 0
2020-01-23 12:12:08 GMT 40.448914 -6.384680 36,000 24 461 -64
2020-01-23 12:12:05 GMT 40.443886 -6.387676 36,025 24 461 -64
2020-01-23 12:12:02 GMT 40.428680 -6.396912 36,025 24 461 0
2020-01-23 12:11:58 GMT 40.428680 -6.396912 36,025 24 462 64
2020-01-23 12:11:50 GMT 40.413712 -6.405945 36,000 24 462 64
2020-01-23 12:11:47 GMT 40.408039 -6.409336 36,000 24 462 64
2020-01-23 12:11:42 GMT 40.397461 -6.415771 36,000 24 463 0
2020-01-23 12:11:39 GMT 40.392353 -6.418887 36,000 24 463 0
2020-01-23 12:11:30 GMT 40.374245 -6.429873 36,000 24 463 0
2020-01-23 12:11:27 GMT 40.368797 -6.433182 36,000 25 463 0
2020-01-23 12:11:24 GMT 40.363770 -6.436218 36,000 25 463 0
2020-01-23 12:11:21 GMT 40.356182 -6.440860 36,000 25 463 0
2020-01-23 12:11:16 GMT 40.340027 -6.450722 36,000 25 463 0
2020-01-23 12:11:13 GMT 40.340027 -6.450722 36,000 25 463 0
2020-01-23 12:11:10 GMT 40.335892 -6.453247 36,000 25 463 0
2020-01-23 12:11:07 GMT 40.319965 -6.462957 36,000 25 463 0
2020-01-23 12:11:02 GMT 40.319965 -6.462957 36,000 25 463 0
2020-01-23 12:10:57 GMT 40.310558 -6.468700 36,000 25 463 64
2020-01-23 12:10:54 GMT 40.305717 -6.471634 36,000 25 463 0
2020-01-23 12:10:49 GMT 40.296158 -6.477417 36,000 25 463 0
2020-01-23 12:10:46 GMT 40.290218 -6.481060 36,000 25 463 0
2020-01-23 12:10:42 GMT 40.278809 -6.487976 36,000 24 464 0
2020-01-23 12:10:36 GMT 40.259903 -6.499451 36,000 24 464 0
2020-01-23 12:10:31 GMT 40.259903 -6.499451 36,000 24 464 0
2020-01-23 12:10:26 GMT 40.240173 -6.511397 36,000 24 464 0
2020-01-23 12:10:21 GMT 40.240173 -6.511397 36,000 24 464 0
2020-01-23 12:10:17 GMT 40.232864 -6.515829 36,000 24 464 0
2020-01-23 12:10:14 GMT 40.226765 -6.519512 36,000 24 465 0
2020-01-23 12:10:11 GMT 40.219830 -6.523694 36,000 24 465 0
2020-01-23 12:10:06 GMT 40.211746 -6.528625 36,000 24 465 0
2020-01-23 12:10:03 GMT 40.206207 -6.531982 36,000 24 465 0
2020-01-23 12:10:00 GMT 40.200047 -6.535679 36,000 24 465 0
2020-01-23 12:09:57 GMT 40.193665 -6.539551 36,000 24 465 0
2020-01-23 12:09:49 GMT 40.177505 -6.549377 36,000 24 465 0
2020-01-23 12:09:45 GMT 40.170113 -6.553844 36,000 24 465 0
2020-01-23 12:09:40 GMT 40.159824 -6.560086 36,000 24 465 0
2020-01-23 12:09:36 GMT 40.153885 -6.563660 36,000 24 465 0
2020-01-23 12:09:33 GMT 40.147163 -6.567764 36,000 24 465 0
2020-01-23 12:09:30 GMT 40.139648 -6.572266 36,000 24 466 0
2020-01-23 12:09:25 GMT 40.130814 -6.577576 36,000 24 465 64
2020-01-23 12:09:19 GMT 40.118958 -6.584717 36,000 24 466 0
2020-01-23 12:09:15 GMT 40.110943 -6.589550 36,000 24 465 0
2020-01-23 12:09:12 GMT 40.106415 -6.592285 36,000 24 465 0
2020-01-23 12:09:03 GMT 40.080643 -6.607788 36,000 24 466 0
2020-01-23 12:08:56 GMT 40.074402 -6.611522 36,000 24 466 0
2020-01-23 12:08:49 GMT 40.059505 -6.620511 36,000 24 467 0
2020-01-23 12:08:46 GMT 40.054459 -6.623474 36,000 24 467 -64
2020-01-23 12:08:43 GMT 40.049881 -6.626282 36,000 24 467 0
2020-01-23 12:08:36 GMT 40.034924 -6.635243 36,000 24 467 0
2020-01-23 12:08:33 GMT 40.030655 -6.637817 36,000 24 467 0
2020-01-23 12:08:27 GMT 40.015839 -6.646729 36,000 24 467 0
2020-01-23 12:08:21 GMT 39.997559 -6.657715 36,000 24 467 0
2020-01-23 12:08:16 GMT 39.993725 -6.660024 36,000 24 467 0
2020-01-23 12:08:13 GMT 39.989548 -6.662537 36,000 24 467 0
2020-01-23 12:08:08 GMT 39.979248 -6.668701 36,000 24 468 0
2020-01-23 12:08:04 GMT 39.970821 -6.673757 36,000 24 468 0
2020-01-23 12:08:00 GMT 39.965012 -6.677246 36,000 24 468 0
2020-01-23 12:07:57 GMT 39.956669 -6.682247 36,000 24 468 0
2020-01-23 12:07:53 GMT 39.950775 -6.685730 36,000 24 468 0
2020-01-23 12:07:49 GMT 39.943588 -6.690063 36,000 24 468 -64
2020-01-23 12:07:45 GMT 39.929855 -6.698303 36,000 24 468 0
2020-01-23 12:07:36 GMT 39.911327 -6.709351 36,000 24 467 0
2020-01-23 12:07:33 GMT 39.911327 -6.709351 36,000 24 467 0
2020-01-23 12:07:26 GMT 39.895409 -6.718933 36,000 24 468 64
2020-01-23 12:07:23 GMT 39.890579 -6.721842 36,000 24 468 0
2020-01-23 12:07:19 GMT 39.883770 -6.725891 36,000 24 468 0
2020-01-23 12:07:14 GMT 39.874512 -6.731455 36,000 24 468 0
2020-01-23 12:07:11 GMT 39.867615 -6.735596 36,000 24 468 0
2020-01-23 12:07:02 GMT 39.850533 -6.745789 36,000 24 468 0
2020-01-23 12:06:59 GMT 39.845596 -6.748779 36,000 24 468 0
2020-01-23 12:06:56 GMT 39.837158 -6.753786 36,000 24 468 0
2020-01-23 12:06:52 GMT 39.831211 -6.757385 36,000 24 468 0
2020-01-23 12:06:49 GMT 39.825165 -6.760951 36,000 24 468 0
2020-01-23 12:06:45 GMT 39.817757 -6.765442 36,000 24 468 0
2020-01-23 12:06:42 GMT 39.809509 -6.770384 36,000 24 468 0
2020-01-23 12:06:33 GMT 39.792015 -6.780823 36,000 24 468 0
2020-01-23 12:06:30 GMT 39.788292 -6.783020 36,000 24 468 0
2020-01-23 12:06:25 GMT 39.777676 -6.789368 36,000 24 468 0
2020-01-23 12:06:21 GMT 39.769485 -6.794250 36,000 24 467 0
2020-01-23 12:06:18 GMT 39.764736 -6.797058 36,000 24 467 0
2020-01-23 12:06:15 GMT 39.757149 -6.801575 36,000 24 468 0
2020-01-23 12:06:12 GMT 39.752243 -6.804478 36,000 24 468 0
2020-01-23 12:06:09 GMT 39.744251 -6.809265 36,000 24 467 0
2020-01-23 12:06:03 GMT 39.729950 -6.817853 36,000 24 467 64
2020-01-23 12:05:57 GMT 39.724140 -6.821350 36,000 24 467 64
2020-01-23 12:05:54 GMT 39.716648 -6.825806 36,000 24 466 0
2020-01-23 12:05:51 GMT 39.712036 -6.828552 36,000 24 466 64
2020-01-23 12:05:48 GMT 39.705505 -6.832421 36,000 24 466 0
2020-01-23 12:05:41 GMT 39.690578 -6.841309 36,000 24 467 0
2020-01-23 12:05:38 GMT 39.685593 -6.844244 36,000 24 467 0
2020-01-23 12:05:32 GMT 39.665531 -6.856140 36,000 24 467 0
2020-01-23 12:05:28 GMT 39.665531 -6.856140 36,000 24 466 0
2020-01-23 12:05:23 GMT 39.654419 -6.862753 36,000 24 466 0
2020-01-23 12:05:20 GMT 39.649796 -6.865500 36,000 24 466 0
2020-01-23 12:05:16 GMT 39.643421 -6.869263 36,000 24 466 0
2020-01-23 12:05:11 GMT 39.626431 -6.879333 36,000 24 466 0
2020-01-23 12:05:04 GMT 39.620052 -6.883179 36,000 24 466 64
2020-01-23 12:05:00 GMT 39.603836 -6.892786 36,000 24 466 0
2020-01-23 12:04:53 GMT 39.595753 -6.897583 36,000 24 466 0
2020-01-23 12:04:50 GMT 39.589096 -6.901504 36,000 24 466 -64
2020-01-23 12:04:47 GMT 39.585136 -6.903870 36,000 24 467 -128
2020-01-23 12:04:41 GMT 39.572380 -6.911438 36,000 24 467 0
2020-01-23 12:04:37 GMT 39.565212 -6.915649 36,000 24 467 0
2020-01-23 12:04:32 GMT 39.555542 -6.921387 36,000 24 467 0
2020-01-23 12:04:29 GMT 39.549911 -6.924671 36,000 24 467 0
2020-01-23 12:04:26 GMT 39.545334 -6.927417 36,000 24 467 0
2020-01-23 12:04:21 GMT 39.535419 -6.933228 36,000 24 467 64
2020-01-23 12:04:18 GMT 39.526932 -6.938224 36,000 24 466 0
2020-01-23 12:04:10 GMT 39.512188 -6.946899 36,000 24 467 64
2020-01-23 12:04:07 GMT 39.507347 -6.949768 36,000 24 466 0
2020-01-23 12:04:01 GMT 39.494568 -6.957271 36,000 24 466 0
2020-01-23 12:03:58 GMT 39.488075 -6.961060 36,000 24 466 0
2020-01-23 12:03:55 GMT 39.484451 -6.963183 36,000 24 466 0
2020-01-23 12:03:51 GMT 39.475086 -6.968628 36,000 24 466 0
2020-01-23 12:03:48 GMT 39.469128 -6.972168 36,000 24 466 0
2020-01-23 12:03:44 GMT 39.462982 -6.975781 36,000 24 466 0
2020-01-23 12:03:41 GMT 39.450806 -6.982886 36,000 24 466 0
2020-01-23 12:03:35 GMT 39.444828 -6.986450 36,000 24 466 0
2020-01-23 12:03:31 GMT 39.434647 -6.992440 36,000 24 466 0
2020-01-23 12:03:27 GMT 39.428558 -6.996022 36,000 24 466 0
2020-01-23 12:03:24 GMT 39.421234 -7.000381 36,000 24 466 0
2020-01-23 12:03:18 GMT 39.411079 -7.006348 36,000 24 466 0
2020-01-23 12:03:15 GMT 39.404526 -7.010233 36,000 24 466 0
2020-01-23 12:03:11 GMT 39.396286 -7.015188 36,000 24 466 0
2020-01-23 12:03:08 GMT 39.389465 -7.019189 36,000 24 466 0
2020-01-23 12:03:05 GMT 39.383835 -7.022533 36,000 24 466 0
2020-01-23 12:03:00 GMT 39.373463 -7.028687 36,000 24 466 0
2020-01-23 12:02:56 GMT 39.357376 -7.038176 36,000 24 466 0
2020-01-23 12:02:51 GMT 39.357376 -7.038176 36,000 24 466 64
2020-01-23 12:02:47 GMT 39.350235 -7.042419 36,000 24 466 64
2020-01-23 12:02:44 GMT 39.343483 -7.046387 36,000 24 466 64
2020-01-23 12:02:41 GMT 39.337666 -7.049805 36,000 24 466 0
2020-01-23 12:02:37 GMT 39.329891 -7.054382 36,000 24 466 0
2020-01-23 12:02:34 GMT 39.322071 -7.059021 36,000 24 466 0
2020-01-23 12:02:29 GMT 39.314716 -7.063354 36,000 24 466 0
2020-01-23 12:02:26 GMT 39.308662 -7.066895 36,000 24 466 0
2020-01-23 12:02:23 GMT 39.302704 -7.070374 36,000 24 467 0
2020-01-23 12:02:19 GMT 39.293674 -7.075684 36,000 24 467 0
2020-01-23 12:02:16 GMT 39.281288 -7.082947 36,000 24 466 0
2020-01-23 12:02:13 GMT 39.281288 -7.082947 36,000 24 466 0
2020-01-23 12:02:09 GMT 39.275425 -7.086426 36,000 24 466 0
2020-01-23 12:02:06 GMT 39.269714 -7.089764 36,000 24 466 0
2020-01-23 12:02:03 GMT 39.264038 -7.093048 36,000 24 466 0
2020-01-23 12:02:00 GMT 39.258015 -7.096558 36,000 24 466 0
2020-01-23 12:01:57 GMT 39.253098 -7.099437 36,000 24 466 0
2020-01-23 12:01:54 GMT 39.244583 -7.104393 36,000 24 466 0
2020-01-23 12:01:50 GMT 39.237854 -7.108333 36,000 24 466 0
2020-01-23 12:01:46 GMT 39.229851 -7.113037 36,000 24 466 0
2020-01-23 12:01:43 GMT 39.224358 -7.116211 36,000 24 466 0
2020-01-23 12:01:39 GMT 39.214256 -7.122131 36,000 24 466 0
2020-01-23 12:01:36 GMT 39.208111 -7.125732 36,000 24 467 0
2020-01-23 12:01:31 GMT 39.200523 -7.130127 36,000 24 466 0
2020-01-23 12:01:28 GMT 39.189102 -7.136814 36,000 24 467 0
2020-01-23 12:01:25 GMT 39.183334 -7.140218 36,000 24 467 0
2020-01-23 12:01:22 GMT 39.177105 -7.143860 36,000 24 467 0
2020-01-23 12:01:19 GMT 39.177105 -7.143860 36,000 24 467 0
2020-01-23 12:01:16 GMT 39.171204 -7.147323 36,000 24 467 0
2020-01-23 12:01:13 GMT 39.151783 -7.158691 36,000 24 467 0
2020-01-23 12:01:07 GMT 39.151783 -7.158691 36,000 24 467 0
2020-01-23 12:01:02 GMT 39.143921 -7.163325 36,000 24 467 0
2020-01-23 12:00:59 GMT 39.136871 -7.167445 36,000 24 467 0
2020-01-23 12:00:56 GMT 39.132183 -7.170166 36,000 24 467 0
2020-01-23 12:00:52 GMT 39.122955 -7.175565 36,000 24 467 0
2020-01-23 12:00:48 GMT 39.114716 -7.180401 36,000 24 468 0
2020-01-23 12:00:44 GMT 39.106064 -7.185477 36,000 24 468 0
2020-01-23 12:00:38 GMT 39.097363 -7.190552 36,000 24 468 0
2020-01-23 12:00:34 GMT 39.088211 -7.195866 36,000 24 468 0
2020-01-23 12:00:31 GMT 39.083176 -7.198851 36,000 24 468 0
2020-01-23 12:00:28 GMT 39.077362 -7.202255 36,000 24 468 0
2020-01-23 12:00:24 GMT 39.068756 -7.207270 36,000 24 468 0
2020-01-23 12:00:21 GMT 39.057281 -7.213989 36,000 24 468 0
2020-01-23 12:00:14 GMT 39.048889 -7.218913 36,000 24 468 0
2020-01-23 12:00:11 GMT 39.044060 -7.221741 36,000 24 468 0
2020-01-23 12:00:08 GMT 39.036613 -7.226074 36,000 24 468 0
2020-01-23 12:00:05 GMT 39.031071 -7.229309 36,000 24 469 0
2020-01-23 12:00:01 GMT 39.020969 -7.235229 36,000 24 469 0
2020-01-23 11:59:58 GMT 39.011810 -7.240528 36,000 24 469 0
2020-01-23 11:59:52 GMT 39.006119 -7.243835 36,000 24 469 0
2020-01-23 11:59:48 GMT 38.997368 -7.248962 36,000 24 469 0
2020-01-23 11:59:43 GMT 38.986588 -7.255216 36,000 24 469 -64
2020-01-23 11:59:38 GMT 38.977257 -7.260681 36,000 24 469 0
2020-01-23 11:59:35 GMT 38.971485 -7.264038 36,000 24 469 -64
2020-01-23 11:59:32 GMT 38.966629 -7.266919 36,000 24 469 0
2020-01-23 11:59:28 GMT 38.957424 -7.272278 36,000 24 469 0
2020-01-23 11:59:22 GMT 38.946442 -7.278625 36,000 24 469 0
2020-01-23 11:59:18 GMT 38.937782 -7.283691 36,000 24 469 0
2020-01-23 11:59:14 GMT 38.930893 -7.287659 36,000 24 469 0
2020-01-23 11:59:11 GMT 38.925934 -7.290563 36,000 24 469 0
2020-01-23 11:59:07 GMT 38.917809 -7.295288 36,000 24 469 0
2020-01-23 11:59:04 GMT 38.909988 -7.299866 36,000 24 469 0
2020-01-23 11:59:01 GMT 38.905846 -7.302246 36,000 24 469 0
2020-01-23 11:58:57 GMT 38.897701 -7.307007 36,000 24 469 0
2020-01-23 11:58:52 GMT 38.885925 -7.313790 36,000 24 469 0
2020-01-23 11:58:48 GMT 38.880104 -7.317200 36,000 24 469 -64
2020-01-23 11:58:45 GMT 38.873978 -7.320776 36,000 24 469 -64
2020-01-23 11:58:42 GMT 38.867981 -7.324239 36,000 24 469 -64
2020-01-23 11:58:39 GMT 38.859249 -7.329285 36,000 24 469 0
2020-01-23 11:58:36 GMT 38.856033 -7.331165 36,000 24 469 0
2020-01-23 11:58:33 GMT 38.848755 -7.335404 36,000 24 469 0
2020-01-23 11:58:30 GMT 38.844631 -7.337769 36,000 24 469 64
2020-01-23 11:58:27 GMT 38.836624 -7.342390 36,000 24 469 0
2020-01-23 11:58:23 GMT 38.830246 -7.346130 36,000 24 469 0
2020-01-23 11:58:20 GMT 38.824219 -7.349615 36,000 24 469 0
2020-01-23 11:58:17 GMT 38.810368 -7.357605 36,000 24 469 0
2020-01-23 11:58:11 GMT 38.804672 -7.360959 36,000 24 469 0
2020-01-23 11:58:06 GMT 38.790070 -7.369318 36,000 22 470 64
2020-01-23 11:58:03 GMT 38.783924 -7.372559 36,000 15 467 0
2020-01-23 11:58:00 GMT 38.783924 -7.372559 36,000 21 469 64
2020-01-23 11:57:56 GMT 38.769867 -7.379333 36,000 19 468 0
2020-01-23 11:57:53 GMT 38.769867 -7.379333 36,000 18 468 -64
2020-01-23 11:57:50 GMT 38.763676 -7.382080 36,000 17 468 -64
2020-01-23 11:57:46 GMT 38.755417 -7.385380 36,000 16 468 0
2020-01-23 11:57:43 GMT 38.749199 -7.387695 36,000 15 467 0
2020-01-23 11:57:39 GMT 38.741592 -7.390336 36,000 15 467 0
2020-01-23 11:57:36 GMT 38.734905 -7.392700 36,000 15 467 0
2020-01-23 11:57:33 GMT 38.719032 -7.398254 36,000 15 467 0
2020-01-23 11:57:29 GMT 38.719032 -7.398254 36,000 15 467 0
2020-01-23 11:57:25 GMT 38.711864 -7.400696 36,000 15 467 0
2020-01-23 11:57:22 GMT 38.698700 -7.405323 36,000 15 468 0
2020-01-23 11:57:19 GMT 38.698700 -7.405323 36,000 15 468 0
2020-01-23 11:57:16 GMT 38.692593 -7.407410 36,000 15 467 0
2020-01-23 11:57:13 GMT 38.683960 -7.410457 36,000 15 467 -64
2020-01-23 11:57:09 GMT 38.677460 -7.412720 36,000 15 467 0
2020-01-23 11:57:05 GMT 38.664192 -7.417358 36,000 15 468 0
2020-01-23 11:57:02 GMT 38.655258 -7.420429 36,000 15 468 0
2020-01-23 11:56:58 GMT 38.655258 -7.420429 36,000 15 468 0
2020-01-23 11:56:55 GMT 38.648804 -7.422698 36,000 15 468 64
2020-01-23 11:56:52 GMT 38.634727 -7.427551 36,000 15 468 0
2020-01-23 11:56:48 GMT 38.634727 -7.427551 36,000 15 468 0
2020-01-23 11:56:45 GMT 38.627930 -7.429932 36,000 15 468 64
2020-01-23 11:56:42 GMT 38.612942 -7.435120 36,000 15 468 64
2020-01-23 11:56:38 GMT 38.612942 -7.435120 36,000 15 468 64
2020-01-23 11:56:35 GMT 38.606796 -7.437195 36,000 14 467 64
2020-01-23 11:56:32 GMT 38.600418 -7.439392 36,000 15 466 64
2020-01-23 11:56:28 GMT 38.592270 -7.442163 36,000 15 466 0
2020-01-23 11:56:24 GMT 38.585148 -7.444580 36,000 15 466 0
2020-01-23 11:56:21 GMT 38.578720 -7.446820 36,000 15 466 0
2020-01-23 11:56:17 GMT 38.569740 -7.449890 36,000 15 466 0
2020-01-23 11:56:12 GMT 38.557636 -7.454041 36,000 15 466 0
2020-01-23 11:56:09 GMT 38.552628 -7.455716 36,000 15 466 0
2020-01-23 11:56:05 GMT 38.535664 -7.461609 36,000 15 466 -64
2020-01-23 11:56:01 GMT 38.535664 -7.461609 36,000 15 466 -64
2020-01-23 11:55:57 GMT 38.527889 -7.464294 36,000 15 466 -64
2020-01-23 11:55:53 GMT 38.519417 -7.467224 36,000 15 466 0
2020-01-23 11:55:50 GMT 38.513443 -7.469330 36,000 15 466 0
2020-01-23 11:55:47 GMT 38.506851 -7.471599 36,000 15 466 0
2020-01-23 11:55:43 GMT 38.499847 -7.473987 36,000 15 466 0
2020-01-23 11:55:40 GMT 38.492386 -7.476555 36,000 15 466 0
2020-01-23 11:55:36 GMT 38.483757 -7.479553 36,000 15 466 0
2020-01-23 11:55:32 GMT 38.476913 -7.481934 36,000 15 466 0
2020-01-23 11:55:29 GMT 38.470585 -7.484070 36,000 15 466 0
2020-01-23 11:55:25 GMT 38.458923 -7.488078 36,000 15 465 64
2020-01-23 11:55:19 GMT 38.442184 -7.493774 36,000 15 466 0
2020-01-23 11:55:16 GMT 38.442184 -7.493774 36,000 15 466 0
2020-01-23 11:55:13 GMT 38.436172 -7.495840 36,000 15 466 64
2020-01-23 11:55:10 GMT 38.427753 -7.498718 36,000 15 466 64
2020-01-23 11:55:05 GMT 38.420517 -7.501214 36,000 15 466 0
2020-01-23 11:55:02 GMT 38.413055 -7.503722 36,000 15 466 0
2020-01-23 11:54:59 GMT 38.406784 -7.505883 36,000 15 466 0
2020-01-23 11:54:56 GMT 38.399590 -7.508319 36,000 15 466 0
2020-01-23 11:54:53 GMT 38.392422 -7.510767 36,000 15 466 0
2020-01-23 11:54:48 GMT 38.382553 -7.514171 36,000 15 466 0
2020-01-23 11:54:44 GMT 38.375656 -7.516518 36,000 14 467 0
2020-01-23 11:54:41 GMT 38.370358 -7.518291 36,000 14 467 0
2020-01-23 11:54:38 GMT 38.362675 -7.520918 36,000 14 467 0
2020-01-23 11:54:35 GMT 38.357300 -7.522713 36,000 14 467 0
2020-01-23 11:54:32 GMT 38.350113 -7.525167 36,000 14 467 0
2020-01-23 11:54:29 GMT 38.341587 -7.528083 36,000 14 467 0
2020-01-23 11:54:26 GMT 38.338234 -7.529217 36,000 14 467 0
2020-01-23 11:54:22 GMT 38.329575 -7.532143 36,000 14 467 0
2020-01-23 11:54:19 GMT 38.321663 -7.534830 36,000 14 467 0
2020-01-23 11:54:15 GMT 38.313858 -7.537498 36,000 15 468 0
2020-01-23 11:54:12 GMT 38.308960 -7.539192 36,000 15 468 -64
2020-01-23 11:54:09 GMT 38.295227 -7.543867 36,000 15 468 -64
2020-01-23 11:54:06 GMT 38.295227 -7.543867 36,000 15 469 -64
2020-01-23 11:54:02 GMT 38.281540 -7.548542 36,000 14 468 0
2020-01-23 11:53:59 GMT 38.281540 -7.548542 36,000 14 468 0
2020-01-23 11:53:56 GMT 38.275249 -7.550712 36,000 14 468 0
2020-01-23 11:53:53 GMT 38.269058 -7.552802 36,000 14 468 0
2020-01-23 11:53:50 GMT 38.262726 -7.554952 36,000 14 468 0
2020-01-23 11:53:47 GMT 38.254486 -7.557776 36,000 14 469 0
2020-01-23 11:53:44 GMT 38.249313 -7.559529 36,000 14 469 64
2020-01-23 11:53:41 GMT 38.243500 -7.561460 36,000 14 469 64
2020-01-23 11:53:38 GMT 38.236565 -7.563788 36,000 14 469 0
2020-01-23 11:53:33 GMT 38.226379 -7.567243 36,000 14 469 0
2020-01-23 11:53:29 GMT 38.219147 -7.569697 36,000 14 469 0
2020-01-23 11:53:25 GMT 38.201046 -7.575849 36,000 14 470 0
2020-01-23 11:53:21 GMT 38.201046 -7.575849 36,000 14 470 0
2020-01-23 11:53:18 GMT 38.194157 -7.578118 36,000 14 470 0
2020-01-23 11:53:13 GMT 38.183762 -7.581677 36,000 14 470 0
2020-01-23 11:53:10 GMT 38.172455 -7.585475 36,000 14 470 0
2020-01-23 11:53:07 GMT 38.172455 -7.585475 36,000 15 471 0
2020-01-23 11:53:03 GMT 38.163757 -7.588397 36,000 15 471 0
2020-01-23 11:53:00 GMT 38.156357 -7.590896 36,000 15 471 -64
2020-01-23 11:52:57 GMT 38.150723 -7.592807 36,000 15 471 0
2020-01-23 11:52:54 GMT 38.144203 -7.595076 36,000 15 471 0
2020-01-23 11:52:51 GMT 38.132053 -7.599255 36,000 15 471 0
2020-01-23 11:52:48 GMT 38.132053 -7.599255 36,000 15 471 -64
2020-01-23 11:52:45 GMT 38.125679 -7.601464 36,000 14 470 0
2020-01-23 11:52:42 GMT 38.118835 -7.603853 36,000 15 471 -64
2020-01-23 11:52:39 GMT 38.107635 -7.607506 36,000 5 467 0
2020-01-23 11:52:36 GMT 38.100449 -7.609610 36,000 10 469 0
2020-01-23 11:52:33 GMT 38.100449 -7.609610 36,000 11 469 0
2020-01-23 11:52:30 GMT 38.094635 -7.611188 36,000 10 469 0
2020-01-23 11:52:27 GMT 38.086479 -7.613227 36,000 10 469 0
2020-01-23 11:52:22 GMT 38.077450 -7.615197 36,000 8 468 0
2020-01-23 11:52:19 GMT 38.069504 -7.616681 36,000 7 467 0
2020-01-23 11:52:16 GMT 38.064377 -7.617499 36,000 7 467 0
2020-01-23 11:52:12 GMT 38.053986 -7.618899 36,000 5 467 0
2020-01-23 11:52:08 GMT 38.047119 -7.619720 36,000 5 467 0
2020-01-23 11:52:05 GMT 38.041698 -7.620392 36,000 5 467 0
2020-01-23 11:52:02 GMT 38.032700 -7.621531 36,000 5 467 0
2020-01-23 11:51:59 GMT 38.028763 -7.621999 36,000 5 467 0
2020-01-23 11:51:56 GMT 38.018738 -7.623226 36,000 5 467 0
2020-01-23 11:51:50 GMT 38.009716 -7.624273 36,000 5 467 0
2020-01-23 11:51:47 GMT 38.003448 -7.625038 36,000 5 467 0
2020-01-23 11:51:44 GMT 37.995529 -7.625973 36,000 5 467 0
2020-01-23 11:51:41 GMT 37.988346 -7.626840 36,000 5 467 -64
2020-01-23 11:51:38 GMT 37.981178 -7.627736 36,000 5 467 0
2020-01-23 11:51:34 GMT 37.974850 -7.628512 36,000 5 467 0
2020-01-23 11:51:31 GMT 37.965862 -7.629647 36,000 5 467 0
2020-01-23 11:51:27 GMT 37.957577 -7.630662 36,000 5 467 0
2020-01-23 11:51:24 GMT 37.952957 -7.631232 36,000 5 467 0
2020-01-23 11:51:19 GMT 37.941051 -7.632751 36,000 5 467 0
2020-01-23 11:51:16 GMT 37.935699 -7.633408 36,000 5 467 -64
2020-01-23 11:51:10 GMT 37.923019 -7.634972 36,000 5 467 0
2020-01-23 11:51:07 GMT 37.915588 -7.635916 36,000 5 467 0
2020-01-23 11:51:04 GMT 37.908745 -7.636752 36,000 5 467 0
2020-01-23 11:50:58 GMT 37.896034 -7.638364 36,000 5 467 0
2020-01-23 11:50:55 GMT 37.889465 -7.639180 36,000 5 467 64
2020-01-23 11:50:50 GMT 37.878441 -7.640514 36,000 5 467 64
2020-01-23 11:50:46 GMT 37.870697 -7.641459 36,000 5 467 0
2020-01-23 11:50:43 GMT 37.863773 -7.642365 36,000 5 467 0
2020-01-23 11:50:38 GMT 37.852882 -7.643678 36,000 5 467 0
2020-01-23 11:50:34 GMT 37.843292 -7.644872 36,000 5 467 0
2020-01-23 11:50:27 GMT 37.830303 -7.646484 36,000 5 467 0
2020-01-23 11:50:24 GMT 37.814163 -7.648530 36,000 5 467 0
2020-01-23 11:50:18 GMT 37.809311 -7.649114 36,000 5 467 0
2020-01-23 11:50:15 GMT 37.803818 -7.649815 36,000 5 467 0
2020-01-23 11:50:11 GMT 37.795670 -7.650809 36,000 5 467 0
2020-01-23 11:50:07 GMT 37.786545 -7.651978 36,000 5 467 0
2020-01-23 11:50:04 GMT 37.771545 -7.653848 36,000 5 467 0
2020-01-23 11:49:57 GMT 37.764908 -7.654666 36,000 5 467 0
2020-01-23 11:49:54 GMT 37.758545 -7.655425 36,000 5 467 0
2020-01-23 11:49:51 GMT 37.752640 -7.656127 36,000 5 467 0
2020-01-23 11:49:48 GMT 37.745087 -7.657062 36,000 5 467 0
2020-01-23 11:49:45 GMT 37.739388 -7.657710 36,000 5 467 0
2020-01-23 11:49:42 GMT 37.730530 -7.658815 36,000 5 467 0
2020-01-23 11:49:39 GMT 37.719910 -7.660100 36,000 5 467 0
2020-01-23 11:49:36 GMT 37.719910 -7.660100 36,000 5 467 0
2020-01-23 11:49:33 GMT 37.712036 -7.661035 36,000 5 466 0
2020-01-23 11:49:29 GMT 37.704346 -7.661970 36,000 5 466 0
2020-01-23 11:49:26 GMT 37.697708 -7.662847 36,000 6 466 0
2020-01-23 11:49:23 GMT 37.692276 -7.663561 36,000 6 466 0
2020-01-23 11:49:20 GMT 37.687016 -7.664277 36,000 6 466 0
2020-01-23 11:49:17 GMT 37.679474 -7.665292 36,000 6 466 0
2020-01-23 11:49:14 GMT 37.672165 -7.666248 36,000 5 465 0
2020-01-23 11:49:11 GMT 37.664299 -7.667263 36,000 5 465 0
2020-01-23 11:49:08 GMT 37.654243 -7.668517 36,000 5 465 64
2020-01-23 11:49:02 GMT 37.646656 -7.669472 36,000 5 465 0
2020-01-23 11:48:57 GMT 37.635864 -7.670853 36,000 5 465 0
2020-01-23 11:48:53 GMT 37.627335 -7.671920 36,000 5 465 -64
2020-01-23 11:48:50 GMT 37.620758 -7.672723 36,000 5 465 0
2020-01-23 11:48:47 GMT 37.614071 -7.673532 36,000 5 464 0
2020-01-23 11:48:43 GMT 37.598148 -7.675443 36,000 5 464 0
2020-01-23 11:48:40 GMT 37.598148 -7.675443 36,000 5 464 0
2020-01-23 11:48:35 GMT 37.590775 -7.676346 36,000 5 464 0
2020-01-23 11:48:31 GMT 37.580692 -7.677533 36,000 5 464 0
2020-01-23 11:48:27 GMT 37.573383 -7.678428 36,000 5 464 0
2020-01-23 11:48:24 GMT 37.566910 -7.679205 36,000 5 464 0
2020-01-23 11:48:21 GMT 37.559418 -7.680160 36,000 5 464 0
2020-01-23 11:48:18 GMT 37.552807 -7.680936 36,000 5 463 0
2020-01-23 11:48:15 GMT 37.547264 -7.681653 36,000 5 463 0
2020-01-23 11:48:11 GMT 37.537582 -7.682787 36,000 5 463 0
2020-01-23 11:48:08 GMT 37.531437 -7.683563 36,000 5 463 0
2020-01-23 11:48:05 GMT 37.525177 -7.684352 36,000 5 463 0
2020-01-23 11:48:01 GMT 37.515656 -7.685534 36,000 5 463 0
2020-01-23 11:47:58 GMT 37.509750 -7.686222 36,000 5 463 0
2020-01-23 11:47:53 GMT 37.497711 -7.687742 36,000 5 462 64
2020-01-23 11:47:50 GMT 37.493362 -7.688267 36,000 5 462 0
2020-01-23 11:47:47 GMT 37.487911 -7.688937 36,000 5 462 64
2020-01-23 11:47:44 GMT 37.480774 -7.689845 36,000 5 462 0
2020-01-23 11:47:41 GMT 37.473248 -7.690788 36,000 5 462 0
2020-01-23 11:47:38 GMT 37.466629 -7.691598 36,000 5 462 0
2020-01-23 11:47:33 GMT 37.458389 -7.692650 36,000 5 462 0
2020-01-23 11:47:30 GMT 37.450653 -7.693644 36,000 5 462 0
2020-01-23 11:47:27 GMT 37.444061 -7.694462 36,000 5 462 0
2020-01-23 11:47:24 GMT 37.437820 -7.695206 36,000 5 462 0
2020-01-23 11:47:19 GMT 37.416367 -7.697851 36,000 5 461 0
2020-01-23 11:47:14 GMT 37.416367 -7.697851 36,000 5 462 0
2020-01-23 11:47:10 GMT 37.408539 -7.698786 36,000 5 462 0
2020-01-23 11:47:07 GMT 37.401398 -7.699663 36,000 5 462 0
2020-01-23 11:47:04 GMT 37.395081 -7.700481 36,000 5 462 0
2020-01-23 11:47:00 GMT 37.386200 -7.701533 36,000 5 461 -64
2020-01-23 11:46:57 GMT 37.379654 -7.702351 36,000 5 461 -64
2020-01-23 11:46:53 GMT 37.372787 -7.703228 36,000 5 461 0
2020-01-23 11:46:49 GMT 37.362827 -7.704461 36,000 5 461 0
2020-01-23 11:46:46 GMT 37.350536 -7.706014 36,000 5 461 0
2020-01-23 11:46:43 GMT 37.350536 -7.706014 36,000 5 461 0
2020-01-23 11:46:39 GMT 37.343262 -7.706909 36,000 5 461 64
2020-01-23 11:46:36 GMT 37.336803 -7.707685 36,000 5 461 64
2020-01-23 11:46:33 GMT 37.330994 -7.708370 36,000 5 461 0
2020-01-23 11:46:30 GMT 37.320744 -7.709656 36,000 5 461 0
2020-01-23 11:46:27 GMT 37.314320 -7.710432 36,000 5 461 0
2020-01-23 11:46:23 GMT 37.307831 -7.711234 36,000 5 460 0
2020-01-23 11:46:20 GMT 37.300304 -7.712104 36,000 5 460 0
2020-01-23 11:46:13 GMT 37.286591 -7.713805 36,000 5 460 0
2020-01-23 11:46:09 GMT 37.278336 -7.714791 36,000 5 460 64
2020-01-23 11:46:05 GMT 37.269535 -7.715865 36,000 5 460 0
2020-01-23 11:46:01 GMT 37.260452 -7.717019 36,000 5 460 0
2020-01-23 11:45:58 GMT 37.255943 -7.717597 36,000 5 460 0
2020-01-23 11:45:52 GMT 37.243561 -7.719149 36,000 5 460 0
2020-01-23 11:45:49 GMT 37.237370 -7.719926 36,000 5 460 0
2020-01-23 11:45:46 GMT 37.230713 -7.720762 36,000 5 460 0
2020-01-23 11:45:42 GMT 37.222286 -7.721777 36,000 5 460 -64
2020-01-23 11:45:39 GMT 37.214355 -7.722746 36,000 5 460 -64
2020-01-23 11:45:35 GMT 37.206039 -7.723807 36,000 5 460 -64
2020-01-23 11:45:32 GMT 37.200577 -7.724441 36,000 5 460 0
2020-01-23 11:45:28 GMT 37.190628 -7.725658 36,000 5 460 64
2020-01-23 11:45:25 GMT 37.185333 -7.726311 36,000 5 460 0
2020-01-23 11:45:19 GMT 37.171963 -7.727927 36,000 5 460 64
2020-01-23 11:45:16 GMT 37.164551 -7.728823 36,000 5 461 0
2020-01-23 11:45:11 GMT 37.156769 -7.729700 36,000 5 461 0
2020-01-23 11:45:08 GMT 37.147430 -7.730793 36,000 5 461 0
2020-01-23 11:45:04 GMT 37.140976 -7.731570 36,000 5 461 0
2020-01-23 11:45:01 GMT 37.125549 -7.733382 36,000 5 461 0
2020-01-23 11:44:57 GMT 37.125549 -7.733382 36,000 5 461 0
2020-01-23 11:44:54 GMT 37.120102 -7.734017 36,000 5 461 0
2020-01-23 11:44:48 GMT 37.106369 -7.735661 36,000 5 461 0
2020-01-23 11:44:45 GMT 37.099503 -7.736479 36,000 5 461 0
2020-01-23 11:44:41 GMT 37.091309 -7.737531 36,000 5 461 0
2020-01-23 11:44:38 GMT 37.077942 -7.739167 36,000 5 462 0
2020-01-23 11:44:34 GMT 37.077942 -7.739167 36,000 5 462 0
2020-01-23 11:44:31 GMT 37.070114 -7.740102 36,000 5 462 0
2020-01-23 11:44:27 GMT 37.055740 -7.741855 36,000 5 462 0
2020-01-23 11:44:20 GMT 37.048458 -7.742734 36,000 5 462 0
2020-01-23 11:44:17 GMT 37.041138 -7.743608 36,000 5 463 0
2020-01-23 11:44:14 GMT 37.034729 -7.744368 36,000 5 463 0
2020-01-23 11:44:10 GMT 37.026394 -7.745361 36,000 5 463 0
2020-01-23 11:44:07 GMT 37.019550 -7.746197 36,000 5 463 0
2020-01-23 11:44:04 GMT 37.012802 -7.746998 36,000 5 463 0
2020-01-23 11:44:00 GMT 37.004421 -7.748048 36,000 5 463 0
2020-01-23 11:43:57 GMT 36.999115 -7.748692 36,000 5 464 0
2020-01-23 11:43:54 GMT 36.991341 -7.749601 36,000 5 464 0
2020-01-23 11:43:50 GMT 36.982864 -7.750621 36,000 5 464 -64
2020-01-23 11:43:47 GMT 36.976501 -7.751380 36,000 5 464 -64
2020-01-23 11:43:44 GMT 36.970112 -7.752168 36,000 5 464 0
2020-01-23 11:43:39 GMT 36.960335 -7.753362 36,000 5 465 0
2020-01-23 11:43:36 GMT 36.951965 -7.754361 36,000 5 465 0
2020-01-23 11:43:33 GMT 36.947720 -7.754855 36,000 5 465 0
2020-01-23 11:43:29 GMT 36.931473 -7.756825 36,000 5 465 0
2020-01-23 11:43:26 GMT 36.931473 -7.756825 36,000 5 465 0
2020-01-23 11:43:23 GMT 36.925827 -7.757516 36,000 5 466 0
2020-01-23 11:43:19 GMT 36.917358 -7.758568 36,000 5 466 0
2020-01-23 11:43:16 GMT 36.909779 -7.759512 36,000 5 466 0
2020-01-23 11:43:13 GMT 36.904770 -7.760088 36,000 5 466 0
2020-01-23 11:43:07 GMT 36.891174 -7.761724 36,000 5 466 0
2020-01-23 11:43:04 GMT 36.883244 -7.762736 36,000 5 466 0
2020-01-23 11:42:58 GMT 36.872540 -7.763990 36,000 5 467 -64
2020-01-23 11:42:55 GMT 36.865696 -7.764886 36,000 5 467 -64
2020-01-23 11:42:52 GMT 36.858944 -7.765662 36,000 5 467 0
2020-01-23 11:42:46 GMT 36.844116 -7.767506 36,000 5 467 0
2020-01-23 11:42:43 GMT 36.838787 -7.768152 36,000 5 466 0
2020-01-23 11:42:35 GMT 36.822372 -7.770138 36,000 5 467 0
2020-01-23 11:42:32 GMT 36.815369 -7.770996 36,000 5 467 0
2020-01-23 11:42:26 GMT 36.803547 -7.772418 36,000 5 466 0
2020-01-23 11:42:22 GMT 36.792984 -7.773743 36,000 5 467 0
2020-01-23 11:42:15 GMT 36.772980 -7.776146 36,000 5 467 0
2020-01-23 11:42:06 GMT 36.759743 -7.777736 36,000 5 467 0
2020-01-23 11:42:02 GMT 36.748947 -7.779064 36,000 5 467 0
2020-01-23 11:41:55 GMT 36.737209 -7.780483 36,000 5 466 0
2020-01-23 11:41:52 GMT 36.728165 -7.781582 36,000 5 466 0
2020-01-23 11:41:44 GMT 36.701084 -7.784865 36,000 5 466 64
2020-01-23 11:41:35 GMT 36.693684 -7.785742 36,000 5 467 0
2020-01-23 11:41:32 GMT 36.686371 -7.786617 36,000 5 467 0
2020-01-23 11:41:24 GMT 36.669571 -7.788620 36,000 5 467 0
2020-01-23 11:41:20 GMT 36.662064 -7.789536 36,000 5 467 0
2020-01-23 11:41:14 GMT 36.648853 -7.791118 36,000 5 467 -64
2020-01-23 11:41:11 GMT 36.629242 -7.793484 36,000 5 467 0
2020-01-23 11:41:03 GMT 36.624847 -7.793999 36,000 5 467 0
2020-01-23 11:41:00 GMT 36.618027 -7.794800 36,000 5 467 0
2020-01-23 11:40:54 GMT 36.604752 -7.796345 36,000 5 467 0
2020-01-23 11:40:51 GMT 36.598812 -7.797079 36,000 5 467 0
2020-01-23 11:40:45 GMT 36.585159 -7.798691 36,000 5 467 0
2020-01-23 11:40:42 GMT 36.576920 -7.799664 36,000 5 467 0
2020-01-23 11:40:34 GMT 36.554764 -7.802353 36,000 5 467 0
2020-01-23 11:40:31 GMT 36.542435 -7.803858 36,000 5 467 0
2020-01-23 11:40:25 GMT 36.542435 -7.803858 36,000 5 467 0
2020-01-23 11:40:21 GMT 36.524963 -7.805958 36,000 5 467 0
2020-01-23 11:40:13 GMT 36.516228 -7.807013 36,000 5 467 0
2020-01-23 11:40:09 GMT 36.508209 -7.807961 36,000 5 467 0
2020-01-23 11:40:03 GMT 36.493515 -7.809734 36,000 5 466 64
2020-01-23 11:40:00 GMT 36.489990 -7.810135 36,000 5 466 64
2020-01-23 11:39:57 GMT 36.482391 -7.811050 36,000 5 466 0
2020-01-23 11:39:54 GMT 36.476097 -7.811805 36,000 5 466 -64
2020-01-23 11:39:51 GMT 36.468742 -7.812682 36,000 5 466 -64
2020-01-23 11:39:47 GMT 36.461426 -7.813568 36,000 5 466 -64
2020-01-23 11:39:42 GMT 36.450485 -7.814884 36,000 5 466 -64
2020-01-23 11:39:39 GMT 36.443115 -7.815800 36,000 5 466 64
2020-01-23 11:39:32 GMT 36.428196 -7.817591 36,000 5 466 -64
2020-01-23 11:39:29 GMT 36.422424 -7.818292 36,000 5 466 -64
2020-01-23 11:39:26 GMT 36.417068 -7.818947 36,000 5 466 -64
2020-01-23 11:39:22 GMT 36.408279 -7.820034 36,000 5 466 0
2020-01-23 11:39:19 GMT 36.399857 -7.821064 36,000 5 466 64
2020-01-23 11:39:16 GMT 36.393608 -7.821857 36,000 5 466 64
2020-01-23 11:39:13 GMT 36.387047 -7.822675 36,000 5 466 0
2020-01-23 11:39:10 GMT 36.380852 -7.823376 36,000 5 466 64
2020-01-23 11:39:03 GMT 36.364243 -7.825413 36,000 5 466 0
2020-01-23 11:39:00 GMT 36.359673 -7.826006 36,000 5 466 0
2020-01-23 11:38:56 GMT 36.349850 -7.827174 36,000 5 466 -64
2020-01-23 11:38:53 GMT 36.344124 -7.827876 36,000 5 466 -64
2020-01-23 11:38:50 GMT 36.327484 -7.829933 36,000 5 466 -64
2020-01-23 11:38:45 GMT 36.327484 -7.829933 36,000 5 467 64
2020-01-23 11:38:40 GMT 36.315674 -7.831364 36,000 5 467 64
2020-01-23 11:38:33 GMT 36.300064 -7.833252 36,000 5 467 64
2020-01-23 11:38:28 GMT 36.273735 -7.836349 36,000 5 467 -64
2020-01-23 11:38:20 GMT 36.273735 -7.836349 36,000 5 468 0
2020-01-23 11:38:10 GMT 36.253860 -7.838687 36,000 5 468 64
2020-01-23 11:38:06 GMT 36.243988 -7.839832 36,000 5 468 64
2020-01-23 11:38:02 GMT 36.234375 -7.840977 36,000 5 468 0
2020-01-23 11:37:59 GMT 36.227875 -7.841721 36,000 5 468 0
2020-01-23 11:37:53 GMT 36.215313 -7.843186 36,000 5 468 0
2020-01-23 11:37:50 GMT 36.206608 -7.844180 36,000 5 468 0
2020-01-23 11:37:41 GMT 36.189835 -7.846127 36,000 5 467 -64
2020-01-23 11:37:38 GMT 36.183334 -7.846870 36,000 5 467 -64
2020-01-23 11:37:29 GMT 36.162186 -7.849159 36,000 5 468 0
2020-01-23 11:37:18 GMT 36.140305 -7.851677 36,000 5 469 0
2020-01-23 11:37:09 GMT 36.121883 -7.853822 36,000 6 470 0
2020-01-23 11:37:05 GMT 36.111687 -7.855400 36,000 8 472 64
2020-01-23 11:36:58 GMT 36.096268 -7.858315 36,000 8 472 64
2020-01-23 11:36:50 GMT 36.079891 -7.861419 36,000 8 472 -64
2020-01-23 11:36:38 GMT 36.052612 -7.866620 36,000 8 472 0
2020-01-23 11:36:29 GMT 36.034607 -7.870045 36,000 8 472 0
2020-01-23 11:36:26 GMT 36.025635 -7.871761 36,000 7 472 0
2020-01-23 11:36:19 GMT 36.014053 -7.874050 36,000 8 472 0
2020-01-23 11:36:16 GMT 36.004803 -7.875795 36,000 8 471 0
2020-01-23 11:36:10 GMT 35.992722 -7.877712 36,000 5 470 0
2020-01-23 11:36:06 GMT 35.983624 -7.878834 36,000 5 470 0
2020-01-23 11:35:57 GMT 35.963837 -7.880470 36,000 2 467 -64
2020-01-23 11:35:50 GMT 35.948940 -7.880879 36,000 0 465 0
2020-01-23 11:35:46 GMT 35.942459 -7.880802 36,000 359 464 0
2020-01-23 11:35:37 GMT 35.921059 -7.879652 36,000 357 462 0
2020-01-23 11:35:29 GMT 35.904949 -7.878366 36,000 357 462 0
2020-01-23 11:35:26 GMT 35.897453 -7.877782 36,000 357 462 0
2020-01-23 11:35:17 GMT 35.878742 -7.876262 36,000 357 463 64
2020-01-23 11:35:07 GMT 35.855576 -7.874508 36,000 357 463 0
2020-01-23 11:34:59 GMT 35.839497 -7.873282 36,000 357 463 0
2020-01-23 11:34:55 GMT 35.832096 -7.872756 36,000 357 463 0
2020-01-23 11:34:48 GMT 35.817307 -7.871704 36,000 357 464 0
2020-01-23 11:34:45 GMT 35.810532 -7.871189 36,000 357 464 0
2020-01-23 11:34:36 GMT 35.790756 -7.869816 36,000 357 464 0
2020-01-23 11:34:26 GMT 35.769249 -7.868198 36,000 357 464 64
2020-01-23 11:34:15 GMT 35.746998 -7.866562 36,000 357 464 0
2020-01-23 11:34:07 GMT 35.729729 -7.865334 36,000 357 465 0
2020-01-23 11:33:58 GMT 35.701096 -7.863289 36,000 357 465 0
2020-01-23 11:33:47 GMT 35.685745 -7.862206 36,000 357 465 0
2020-01-23 11:33:44 GMT 35.680161 -7.861748 36,000 357 465 0
2020-01-23 11:33:34 GMT 35.657730 -7.860146 36,000 357 465 64
2020-01-23 11:33:28 GMT 35.642815 -7.859023 36,000 357 465 64
2020-01-23 11:33:25 GMT 35.636169 -7.858543 36,000 357 465 0
2020-01-23 11:33:19 GMT 35.624954 -7.857742 36,000 357 465 -64
2020-01-23 11:33:15 GMT 35.618362 -7.857227 36,000 357 465 -64
2020-01-23 11:33:12 GMT 35.610088 -7.856627 36,000 357 464 0
2020-01-23 11:33:07 GMT 35.598770 -7.855797 36,000 357 464 64
2020-01-23 11:33:04 GMT 35.593185 -7.855339 36,000 357 464 64
2020-01-23 11:32:55 GMT 35.573730 -7.853881 36,000 357 464 0
2020-01-23 11:32:52 GMT 35.568375 -7.853451 36,000 357 464 0
2020-01-23 11:32:48 GMT 35.558441 -7.852707 36,000 357 464 -64
2020-01-23 11:32:43 GMT 35.548454 -7.851952 36,000 357 463 64
2020-01-23 11:32:35 GMT 35.531021 -7.850647 36,000 357 463 64
2020-01-23 11:32:32 GMT 35.524887 -7.850132 36,000 357 463 0
2020-01-23 11:32:22 GMT 35.503235 -7.848473 36,000 357 463 0
2020-01-23 11:32:12 GMT 35.483093 -7.846926 36,000 357 463 -64
2020-01-23 11:32:02 GMT 35.461678 -7.845349 36,000 357 462 64
2020-01-23 11:31:52 GMT 35.439240 -7.843654 36,000 357 462 0
2020-01-23 11:31:45 GMT 35.424904 -7.842544 36,000 357 462 0
2020-01-23 11:31:42 GMT 35.417408 -7.842018 36,000 357 462 0
2020-01-23 11:31:35 GMT 35.403122 -7.840977 36,000 357 462 64
2020-01-23 11:31:32 GMT 35.396179 -7.840498 36,000 357 462 0
2020-01-23 11:31:25 GMT 35.379562 -7.839271 36,000 357 462 64
2020-01-23 11:31:19 GMT 35.368576 -7.838511 36,000 357 463 -64
2020-01-23 11:31:14 GMT 35.358215 -7.837772 36,000 357 463 0
2020-01-23 11:31:11 GMT 35.335987 -7.836174 36,000 357 463 0
2020-01-23 11:31:04 GMT 35.335987 -7.836174 36,000 357 462 0
2020-01-23 11:31:01 GMT 35.329937 -7.835765 36,000 357 463 0
2020-01-23 11:30:54 GMT 35.313084 -7.834538 36,000 357 463 -64
2020-01-23 11:30:51 GMT 35.308384 -7.834187 36,000 357 463 -64
2020-01-23 11:30:41 GMT 35.286530 -7.832623 36,000 357 462 0
2020-01-23 11:30:34 GMT 35.269958 -7.831364 36,000 357 462 0
2020-01-23 11:30:30 GMT 35.264557 -7.830963 36,000 357 462 -64
2020-01-23 11:30:23 GMT 35.247910 -7.829746 36,000 357 462 64
2020-01-23 11:30:20 GMT 35.242722 -7.829361 36,000 357 461 64
2020-01-23 11:30:10 GMT 35.220863 -7.827702 36,000 357 461 0
2020-01-23 11:30:03 GMT 35.203491 -7.826414 36,000 357 461 0
2020-01-23 11:30:00 GMT 35.199032 -7.826042 36,000 357 461 0
2020-01-23 11:29:49 GMT 35.176918 -7.824383 36,000 357 461 -64
2020-01-23 11:29:43 GMT 35.163372 -7.823353 36,000 357 461 0
2020-01-23 11:29:38 GMT 35.153366 -7.822546 36,000 357 461 0
2020-01-23 11:29:28 GMT 35.131622 -7.820892 36,000 357 461 -64
2020-01-23 11:29:18 GMT 35.111233 -7.819347 36,000 357 460 0
2020-01-23 11:29:08 GMT 35.089600 -7.817725 36,000 357 459 0
2020-01-23 11:28:57 GMT 35.065659 -7.815932 36,000 357 458 64
2020-01-23 11:28:48 GMT 35.046295 -7.814474 36,000 357 457 0
2020-01-23 11:28:37 GMT 35.023853 -7.812767 36,000 357 457 64
2020-01-23 11:28:27 GMT 35.002537 -7.811222 36,000 357 458 0
2020-01-23 11:28:17 GMT 34.980789 -7.809710 36,000 357 458 0
2020-01-23 11:28:07 GMT 34.959801 -7.808189 36,000 357 458 0
2020-01-23 11:27:57 GMT 34.938011 -7.806644 36,000 357 458 -64
2020-01-23 11:27:46 GMT 34.915623 -7.804985 36,000 357 458 64
2020-01-23 11:27:36 GMT 34.894455 -7.803376 36,000 357 458 0
2020-01-23 11:27:25 GMT 34.871536 -7.801723 36,000 357 458 0
2020-01-23 11:27:16 GMT 34.850784 -7.800181 36,000 357 459 0
2020-01-23 11:27:06 GMT 34.829865 -7.798667 36,000 357 459 0
2020-01-23 11:26:55 GMT 34.807480 -7.797089 36,000 357 459 64
2020-01-23 11:26:45 GMT 34.785690 -7.795528 36,000 357 459 0
2020-01-23 11:26:35 GMT 34.764771 -7.794015 36,000 357 459 64
2020-01-23 11:26:24 GMT 34.741791 -7.792277 36,000 357 459 0
2020-01-23 11:26:15 GMT 34.721420 -7.790708 36,000 357 459 0
2020-01-23 11:26:05 GMT 34.699665 -7.789021 36,000 357 459 -64
2020-01-23 11:25:54 GMT 34.676331 -7.787177 36,000 357 459 64
2020-01-23 11:25:43 GMT 34.654175 -7.785495 36,000 357 460 0
2020-01-23 11:25:34 GMT 34.634026 -7.783985 36,000 357 460 0
2020-01-23 11:25:22 GMT 34.609589 -7.782154 36,000 357 460 0
2020-01-23 11:25:13 GMT 34.590080 -7.780666 36,000 357 461 0
2020-01-23 11:25:02 GMT 34.566238 -7.778881 36,000 357 461 0
2020-01-23 11:24:53 GMT 34.546276 -7.777462 36,000 357 462 0
2020-01-23 11:24:42 GMT 34.523621 -7.775854 36,000 357 463 0
2020-01-23 11:24:36 GMT 34.509705 -7.774901 36,000 357 464 0
2020-01-23 11:24:32 GMT 34.480591 -7.772771 36,000 357 465 0
2020-01-23 11:24:22 GMT 34.480591 -7.772771 36,000 357 466 0
2020-01-23 11:24:12 GMT 34.458664 -7.771225 36,000 357 467 0
2020-01-23 11:24:01 GMT 34.435806 -7.769623 36,000 357 468 -64
2020-01-23 11:23:51 GMT 34.392467 -7.766590 35,700 357 469 -64
2020-01-23 11:23:41 GMT 34.392467 -7.766590 36,025 357 469 -64
2020-01-23 11:23:31 GMT 34.369053 -7.764931 36,025 357 469 0
2020-01-23 11:23:20 GMT 34.346661 -7.763329 35,925 357 471 896
2020-01-23 11:23:10 GMT 34.323898 -7.761729 35,775 357 472 832
2020-01-23 11:23:00 GMT 34.303272 -7.760239 35,650 357 472 832
2020-01-23 11:22:49 GMT 34.278740 -7.758522 35,500 357 473 832
2020-01-23 11:22:39 GMT 34.256161 -7.756977 35,325 357 473 1088
2020-01-23 11:22:28 GMT 34.232803 -7.755283 35,125 357 474 1152
2020-01-23 11:22:18 GMT 34.211334 -7.753769 34,950 357 474 896
2020-01-23 11:22:08 GMT 34.189545 -7.752256 34,800 357 474 1024
2020-01-23 11:21:57 GMT 34.164093 -7.750406 34,600 357 473 896
2020-01-23 11:21:48 GMT 34.143677 -7.748893 34,500 357 472 576
2020-01-23 11:21:36 GMT 34.119049 -7.747043 34,400 357 470 512
2020-01-23 11:21:21 GMT 34.085735 -7.744503 34,300 357 466 512
2020-01-23 11:21:12 GMT 34.065624 -7.742958 34,125 357 466 1344
2020-01-23 11:21:01 GMT 34.043015 -7.741269 34,000 357 465 0
2020-01-23 11:20:51 GMT 34.020905 -7.739588 34,000 357 465 0
2020-01-23 11:20:40 GMT 33.997742 -7.737906 34,000 357 465 64
2020-01-23 11:20:29 GMT 33.974754 -7.736263 34,000 357 465 0
2020-01-23 11:20:19 GMT 33.952652 -7.734655 34,000 357 465 -64
2020-01-23 11:20:08 GMT 33.929787 -7.733002 34,000 357 465 0
2020-01-23 11:19:57 GMT 33.906090 -7.731400 34,000 357 465 0
2020-01-23 11:19:48 GMT 33.884766 -7.729835 34,000 357 465 128
2020-01-23 11:19:38 GMT 33.863800 -7.728265 34,000 357 465 0
2020-01-23 11:19:32 GMT 33.848179 -7.727165 34,000 357 466 -64
2020-01-23 11:19:28 GMT 33.842194 -7.726696 34,000 357 466 0
2020-01-23 11:19:17 GMT 33.819176 -7.725105 34,000 357 465 0
2020-01-23 11:19:09 GMT 33.799347 -7.723669 34,000 357 465 0
2020-01-23 11:18:57 GMT 33.775269 -7.721931 34,000 357 465 0
2020-01-23 11:18:45 GMT 33.750885 -7.720184 34,000 357 465 0
2020-01-23 11:18:37 GMT 33.731796 -7.718868 34,000 357 465 0
2020-01-23 11:18:31 GMT 33.719646 -7.718010 34,000 357 465 0
2020-01-23 11:18:26 GMT 33.709213 -7.717335 34,000 357 465 0
2020-01-23 11:18:21 GMT 33.698235 -7.716522 34,000 357 464 0
2020-01-23 11:18:16 GMT 33.686085 -7.715721 34,000 357 464 0
2020-01-23 11:18:05 GMT 33.662949 -7.714005 34,000 357 464 64
2020-01-23 11:17:56 GMT 33.644028 -7.712627 34,000 357 464 0
2020-01-23 11:17:50 GMT 33.631710 -7.711773 34,000 357 463 0
2020-01-23 11:17:45 GMT 33.621841 -7.711029 34,000 357 463 0
2020-01-23 11:17:41 GMT 33.611462 -7.710285 34,000 357 463 0
2020-01-23 11:17:35 GMT 33.599670 -7.709488 34,000 357 463 0
2020-01-23 11:17:31 GMT 33.589600 -7.708759 34,000 357 463 0
2020-01-23 11:17:25 GMT 33.577896 -7.707996 34,000 357 463 0
2020-01-23 11:17:15 GMT 33.556091 -7.706461 34,000 357 462 0
2020-01-23 11:17:04 GMT 33.533951 -7.704891 34,000 357 462 0
2020-01-23 11:16:54 GMT 33.510727 -7.703064 34,000 358 464 -64
2020-01-23 11:16:48 GMT 33.498524 -7.702537 34,000 0 468 0
2020-01-23 11:16:44 GMT 33.490860 -7.702460 34,000 1 469 0
2020-01-23 11:16:40 GMT 33.480694 -7.702649 34,000 2 469 0
2020-01-23 11:16:33 GMT 33.463715 -7.703613 34,000 4 472 0
2020-01-23 11:16:30 GMT 33.458038 -7.704163 34,000 5 473 0
2020-01-23 11:16:24 GMT 33.445587 -7.705701 34,000 7 476 0
2020-01-23 11:16:20 GMT 33.435863 -7.707302 34,000 9 478 -64
2020-01-23 11:16:11 GMT 33.412033 -7.712732 34,000 13 483 0
2020-01-23 11:15:58 GMT 33.389454 -7.719745 34,000 15 485 0
2020-01-23 11:15:48 GMT 33.369015 -7.726359 34,000 15 486 0
2020-01-23 11:15:41 GMT 33.340347 -7.735693 34,000 15 484 0
2020-01-23 11:15:30 GMT 33.328766 -7.739429 34,000 15 484 0
2020-01-23 11:15:19 GMT 33.305286 -7.746931 34,000 15 484 0
2020-01-23 11:15:07 GMT 33.280014 -7.755029 34,000 15 483 -64
2020-01-23 11:14:58 GMT 33.260010 -7.761456 34,000 15 483 64
2020-01-23 11:14:53 GMT 33.249283 -7.764924 34,000 14 484 64
2020-01-23 11:14:48 GMT 33.234741 -7.769531 34,000 14 484 64
2020-01-23 11:14:36 GMT 33.212833 -7.776471 34,000 14 484 -64
2020-01-23 11:14:27 GMT 33.192123 -7.783044 34,000 15 483 192
2020-01-23 11:14:16 GMT 33.169052 -7.790405 33,900 15 482 896
2020-01-23 11:14:00 GMT 33.133530 -7.801996 33,650 15 484 896
2020-01-23 11:13:56 GMT 33.122662 -7.805506 33,550 15 487 960
2020-01-23 11:13:46 GMT 33.102272 -7.812176 33,400 15 487 960
2020-01-23 11:13:35 GMT 33.080345 -7.819239 32,725 15 489 1536
2020-01-23 11:13:25 GMT 33.058048 -7.826357 33,050 15 489 1600
2020-01-23 11:13:12 GMT 33.029709 -7.835449 32,725 15 489 1536
2020-01-23 11:13:05 GMT 33.012379 -7.841043 32,525 15 490 1664
2020-01-23 11:12:53 GMT 32.988640 -7.848666 32,250 15 492 1280
2020-01-23 11:12:44 GMT 32.967682 -7.855389 32,050 15 492 1280
2020-01-23 11:12:34 GMT 32.946304 -7.862311 31,850 15 492 1216
2020-01-23 11:12:25 GMT 32.919647 -7.870863 31,600 14 490 1152
2020-01-23 11:12:13 GMT 32.897507 -7.877856 31,400 14 489 1344
2020-01-23 11:12:03 GMT 32.876953 -7.884338 31,200 14 488 1280
2020-01-23 11:11:53 GMT 32.855221 -7.891154 30,975 14 488 1344
2020-01-23 11:11:43 GMT 32.833481 -7.898105 30,725 14 487 1536
2020-01-23 11:11:34 GMT 32.812996 -7.904607 30,500 15 488 1536
2020-01-23 11:11:23 GMT 32.790325 -7.911782 30,225 15 488 1600
2020-01-23 11:11:12 GMT 32.766266 -7.919440 30,000 14 487 1088
2020-01-23 11:11:03 GMT 32.745071 -7.926141 29,800 14 486 1280
2020-01-23 11:10:52 GMT 32.722080 -7.933362 29,600 14 485 1088
2020-01-23 11:10:41 GMT 32.700256 -7.940204 29,400 14 483 1152
2020-01-23 11:10:31 GMT 32.678226 -7.947095 29,175 14 481 1408
2020-01-23 11:10:21 GMT 32.656586 -7.953827 28,950 14 480 1408
2020-01-23 11:10:12 GMT 32.634476 -7.960693 28,725 14 479 1280
2020-01-23 11:10:01 GMT 32.612774 -7.967442 28,500 14 478 1280
2020-01-23 11:09:51 GMT 32.591080 -7.974207 28,275 14 478 1536
2020-01-23 11:09:41 GMT 32.568924 -7.981175 28,000 15 477 1728
2020-01-23 11:09:30 GMT 32.546066 -7.988406 27,725 15 476 1472
2020-01-23 11:09:20 GMT 32.525345 -7.995026 27,475 15 474 1344
2020-01-23 11:09:10 GMT 32.503693 -8.001892 27,250 15 472 1408
2020-01-23 11:09:00 GMT 32.482941 -8.008473 27,025 15 470 1344
2020-01-23 11:08:49 GMT 32.459480 -8.015928 26,775 15 468 1408
2020-01-23 11:08:40 GMT 32.439602 -8.022262 26,550 15 465 1280
2020-01-23 11:08:29 GMT 32.418697 -8.028876 26,350 15 461 1408
2020-01-23 11:08:18 GMT 32.394726 -8.036443 26,100 15 458 1088
2020-01-23 11:08:09 GMT 32.376251 -8.042267 25,925 14 455 1408
2020-01-23 11:07:58 GMT 32.355194 -8.048914 25,700 14 452 1088
2020-01-23 11:07:49 GMT 32.335236 -8.055176 25,475 14 448 1664
2020-01-23 11:07:38 GMT 32.314423 -8.061667 25,175 14 446 1536
2020-01-23 11:07:28 GMT 32.294357 -8.067945 24,925 14 443 1600
2020-01-23 11:07:17 GMT 32.273689 -8.074391 24,625 14 441 1728
2020-01-23 11:07:07 GMT 32.253902 -8.080500 24,350 14 439 1536
2020-01-23 11:06:57 GMT 32.232925 -8.086981 24,075 14 436 1664
2020-01-23 11:06:47 GMT 32.214066 -8.092804 23,775 14 434 1728
2020-01-23 11:06:37 GMT 32.194382 -8.098901 23,500 14 432 1728
2020-01-23 11:06:27 GMT 32.174671 -8.104995 23,175 14 430 1920
2020-01-23 11:06:17 GMT 32.154602 -8.111206 22,875 14 427 1664
2020-01-23 11:06:06 GMT 32.134453 -8.117495 22,575 15 424 1600
2020-01-23 11:05:56 GMT 32.115597 -8.123493 22,325 15 418 1408
2020-01-23 11:05:45 GMT 32.096191 -8.129883 22,050 15 415 1856
2020-01-23 11:05:35 GMT 32.077652 -8.134991 21,750 8 408 1856
2020-01-23 11:05:26 GMT 32.057602 -8.136365 21,400 357 398 2176
2020-01-23 11:05:15 GMT 32.039520 -8.133673 21,025 347 391 2368
2020-01-23 11:05:05 GMT 32.022995 -8.127136 20,675 334 382 2176
2020-01-23 11:04:54 GMT 32.006199 -8.116262 20,250 330 378 2368
2020-01-23 11:04:45 GMT 31.990372 -8.105500 19,825 330 375 2368
2020-01-23 11:04:34 GMT 31.975895 -8.095579 19,500 330 373 2048
2020-01-23 11:04:24 GMT 31.960922 -8.085333 19,100 330 371 2368
2020-01-23 11:04:14 GMT 31.945450 -8.074727 18,700 330 369 2368
2020-01-23 11:04:04 GMT 31.930645 -8.064637 18,325 330 367 2176
2020-01-23 11:03:52 GMT 31.913189 -8.052698 17,850 330 363 2304
2020-01-23 11:03:43 GMT 31.900805 -8.044234 17,550 330 360 2240
2020-01-23 11:03:33 GMT 31.886234 -8.034257 17,150 330 358 2304
2020-01-23 11:03:22 GMT 31.871109 -8.023865 16,725 330 355 2496
2020-01-23 11:03:13 GMT 31.857330 -8.014417 16,325 330 352 2560
2020-01-23 11:03:02 GMT 31.841721 -8.003705 15,825 330 350 2688
2020-01-23 11:02:52 GMT 31.828232 -7.994460 15,375 330 348 2944
2020-01-23 11:02:42 GMT 31.813889 -7.984644 14,850 330 348 2944
2020-01-23 11:02:32 GMT 31.800020 -7.975121 14,400 330 347 2752
2020-01-23 11:02:21 GMT 31.785690 -7.965363 13,925 330 344 2624
2020-01-23 11:02:11 GMT 31.771042 -7.955448 13,500 331 340 2304
2020-01-23 11:02:01 GMT 31.757656 -7.946411 13,100 331 336 2368
2020-01-23 11:01:51 GMT 31.743786 -7.937018 12,675 331 332 2496
2020-01-23 11:01:41 GMT 31.730703 -7.928229 12,300 330 327 1792
2020-01-23 11:01:31 GMT 31.717157 -7.919000 12,100 330 314 1024
2020-01-23 11:01:20 GMT 31.704355 -7.910211 11,950 330 300 832
2020-01-23 11:01:09 GMT 31.691666 -7.901540 11,750 330 286 1344
2020-01-23 11:00:59 GMT 31.680679 -7.894161 11,450 331 283 2048
2020-01-23 11:00:49 GMT 31.669115 -7.886481 11,125 331 283 2112
2020-01-23 11:00:40 GMT 31.657059 -7.878544 10,750 331 278 2048
2020-01-23 11:00:29 GMT 31.645653 -7.871045 10,400 331 272 2048
2020-01-23 11:00:18 GMT 31.634811 -7.863680 10,050 329 265 2240
2020-01-23 11:00:08 GMT 31.624329 -7.855979 9,600 329 260 3072
2020-01-23 10:59:58 GMT 31.613800 -7.849516 9,100 344 265 2688
2020-01-23 10:59:47 GMT 31.600218 -7.847040 8,625 1 268 3008
2020-01-23 10:59:38 GMT 31.588120 -7.849139 8,000 17 275 3968
2020-01-23 10:59:27 GMT 31.576309 -7.856625 7,550 40 276 1856
2020-01-23 10:59:17 GMT 31.568562 -7.867365 7,225 62 270 2048
2020-01-23 10:59:08 GMT 31.564041 -7.881452 6,875 79 264 2048
2020-01-23 10:58:57 GMT 31.563904 -7.896100 6,500 100 254 2240
2020-01-23 10:58:47 GMT 31.567352 -7.908783 6,100 112 245 2752
2020-01-23 10:58:36 GMT 31.571960 -7.921573 5,675 112 238 2560
2020-01-23 10:58:26 GMT 31.576218 -7.933314 5,200 113 234 3008
2020-01-23 10:58:16 GMT 31.580898 -7.945972 4,625 113 232 3008
2020-01-23 10:58:06 GMT 31.584961 -7.957117 4,200 113 228 2304
2020-01-23 10:57:50 GMT 31.591232 -7.974261 3,825 113 214 1280
2020-01-23 10:57:45 GMT 31.593187 -7.979645 3,750 112 194 768
2020-01-23 10:57:26 GMT 31.599472 -7.997562 3,250 112 168 2752
2020-01-23 10:57:11 GMT 31.603523 -8.009363 2,525 108 170 3008
2020-01-23 10:57:05 GMT 31.604782 -8.014903 2,225 96 168 2880
We lost coverage of the aircraft here for a total of 11 minutes
2020-01-23 10:46:24 GMT 31.604057 -8.024400 0 244 3
2020-01-23 10:46:14 GMT 31.603947 -8.024463 0 210 3
2020-01-23 10:46:07 GMT 31.603844 -8.024463 0 194 3
2020-01-23 10:46:02 GMT 31.603767 -8.024469 0 188 3
2020-01-23 10:45:51 GMT 31.603640 -8.024483 0 185 3
2020-01-23 10:45:40 GMT 31.603500 -8.024510 0 185 3
2020-01-23 10:44:55 GMT 31.603294 -8.024530 0 185 0
2020-01-23 10:44:25 GMT 31.603291 -8.024524 0 185 0
2020-01-23 10:42:54 GMT 31.603294 -8.024530 0 185 0

Making use of Plane Finder data

You are free to use the raw flight data, aircraft information and images provided in this report for your own purposes provided the data is correctly attributed to Plane Finder. We ask that you please credit Plane Finder and link to planefinder.net in close proximity to the content.

Optionally one of the following logos (no smaller then 150x24px) can be used and must link to planefinder.net

Embedding the Plane Finder map

You are welcome to embed the Plane Finder playback map on your website to offer visitors a more interactive experience. We suggest using the following HTML code:

<iframe src="//planefinder.net/data/report/FR3127-EI-EPD-7700-squawk-2020-01-23/map" width="800" height="600" seamless="seamless"></iframe>

Where our data comes from

Plane Finder has a global network of data feeds and antenna radars that receive data broadcast directly from aircraft. The primary technologies used are ADS-B and MLAT. We also show feeds from the FAA and a FLARM glider feed.

Click here to find out more about the Plane Finder network.

How we collect our data